Darstellungsparameter: Aktuell verwendete Einstellungen:
Skalierung der Graphiken ... ?
xyx+y,   Skalierungsfaktor:      Skalierung: Modus: x, Faktor: 1
Darstellungszeitraum ... ?
Vom - - bis: - -   Zeitraum: 23.12.2014 - 12.01.2015
Min/Max/Avg-Anzeige ... ?
Zeige MMA aktuell
Zeige MMA Monat
Zeige MMA alles
Zeige --A aktuell
Zeige --A Monat
Zeige --A alles
Keine MMA-Anzeige
MMA:
Average (ber die Originaldaten)
MMA-Basis: 23.12.2014 - 12.01.2015
Quicknavigation für Darstellung... ?
Tage:      1T, 2T, 3T, 5T -1T -2T -3T -5T +1T +2T +3T +5T
Wochen: 1W, 2W, 3W -1W -2W -3W +1W +2W +3W
Monate: 1M, 3M, 6M -1M -3M -6M +1M +3M +6M
Jahre:    1J, 3J, 5J, 10J -1J -3J -5J -10J +1J +3J +5J +10J
Nutze für die Darstellung ... ?
Originaldaten oder Mittelwerte auf ...
Stundenbasis Tagesbasis Wochenbasis
Monatsbasis Jahresbasis      Datenbasis: Original-Daten
Darstellen als:
Statistik (Auto) Statistik J:M      Darstellung:
Zur Graphik,    zurück zur Übersicht aller Sensoren.
 
Tabellarische Datenbersicht: ?
 
Sensor: Nr:Datum:Temp:Abs-Feuchte:Windchill:Wind:
Aussen-T/F 1 23-12-2014 00:00:00 9.8 C 8.26 g/m*3 8.45 C 9.7 km/h
2 23-12-2014 00:05:00 9.8 C 8.26 g/m*3 8.18 C 11.3 km/h
3 23-12-2014 00:10:00 9.8 C 8.26 g/m*3 7.54 C 16.1 km/h
4 23-12-2014 00:15:00 9.8 C 8.26 g/m*3 7.73 C 14.5 km/h
5 23-12-2014 00:20:00 9.8 C 8.16 g/m*3 7.54 C 16.1 km/h
6 23-12-2014 00:25:00 9.9 C 8.22 g/m*3 7.48 C 17.7 km/h
7 23-12-2014 00:30:00 9.9 C 8.22 g/m*3 7.85 C 14.5 km/h
8 23-12-2014 00:35:00 9.9 C 8.22 g/m*3 8.3 C 11.3 km/h
9 23-12-2014 00:40:00 10 C 8.27 g/m*3 8.42 C 11.3 km/h
10 23-12-2014 00:45:00 10 C 8.27 g/m*3 9.37 C 6.4 km/h
11 23-12-2014 00:50:00 10 C 8.27 g/m*3 9.37 C 6.4 km/h
12 23-12-2014 00:55:00 10 C 8.27 g/m*3 8.42 C 11.3 km/h
13 23-12-2014 01:00:00 10.1 C 8.32 g/m*3 8.54 C 11.3 km/h
14 23-12-2014 01:05:00 10.1 C 8.32 g/m*3 8.54 C 11.3 km/h
15 23-12-2014 01:10:00 10.1 C 8.32 g/m*3 9.1 C 8.1 km/h
16 23-12-2014 01:15:00 10.1 C 8.32 g/m*3 8.31 C 12.9 km/h
17 23-12-2014 01:20:00 10.1 C 8.32 g/m*3 8.54 C 11.3 km/h
18 23-12-2014 01:25:00 10.1 C 8.32 g/m*3 9.1 C 8.1 km/h
19 23-12-2014 01:30:00 10.1 C 8.32 g/m*3 8.8 C 9.7 km/h
20 23-12-2014 01:35:00 10 C 8.27 g/m*3 8.68 C 9.7 km/h
21 23-12-2014 01:40:00 10 C 8.27 g/m*3 8.68 C 9.7 km/h
22 23-12-2014 01:45:00 10 C 8.27 g/m*3 9.37 C 6.4 km/h
23 23-12-2014 01:50:00 10.1 C 8.32 g/m*3 8.31 C 12.9 km/h
24 23-12-2014 01:55:00 10.1 C 8.32 g/m*3 7.91 C 16.1 km/h
25 23-12-2014 02:00:00 10.1 C 8.32 g/m*3 9.48 C 6.4 km/h
Sensor: Nr:Datum:Temp:Abs-Feuchte:Windchill:Wind:
Aussen-T/F 26 23-12-2014 02:05:00 10.1 C 8.32 g/m*3 8.31 C 12.9 km/h
27 23-12-2014 02:10:00 10.1 C 8.32 g/m*3 8.54 C 11.3 km/h
28 23-12-2014 02:15:00 10.1 C 8.32 g/m*3 8.1 C 14.5 km/h
29 23-12-2014 02:20:00 10.2 C 8.37 g/m*3 8.66 C 11.3 km/h
30 23-12-2014 02:25:00 10.2 C 8.28 g/m*3 8.03 C 16.1 km/h
31 23-12-2014 02:30:00 10.3 C 8.33 g/m*3 8.34 C 14.5 km/h
32 23-12-2014 02:35:00 10.3 C 8.33 g/m*3 7.82 C 19.3 km/h
33 23-12-2014 02:40:00 10.3 C 8.33 g/m*3 8.16 C 16.1 km/h
34 23-12-2014 02:45:00 10.3 C 8.33 g/m*3 8.34 C 14.5 km/h
35 23-12-2014 02:50:00 10.3 C 8.33 g/m*3 7.82 C 19.3 km/h
36 23-12-2014 02:55:00 10.4 C 8.38 g/m*3 8.11 C 17.7 km/h
37 23-12-2014 03:00:00 10.4 C 8.29 g/m*3 8.11 C 17.7 km/h
38 23-12-2014 03:05:00 10.4 C 8.29 g/m*3 8.67 C 12.9 km/h
39 23-12-2014 03:10:00 10.4 C 8.29 g/m*3 8.9 C 11.3 km/h
40 23-12-2014 03:15:00 10.3 C 8.33 g/m*3 7.53 C 22.5 km/h
41 23-12-2014 03:20:00 10.3 C 8.33 g/m*3 7.82 C 19.3 km/h
42 23-12-2014 03:25:00 10.2 C 8.28 g/m*3 8.03 C 16.1 km/h
43 23-12-2014 03:30:00 10.2 C 8.28 g/m*3 8.22 C 14.5 km/h
44 23-12-2014 03:35:00 10.2 C 8.28 g/m*3 9.22 C 8.1 km/h
45 23-12-2014 03:40:00 10.2 C 8.28 g/m*3 8.92 C 9.7 km/h
46 23-12-2014 03:45:00 10.2 C 8.28 g/m*3 8.43 C 12.9 km/h
47 23-12-2014 03:50:00 10.2 C 8.28 g/m*3 7.7 C 19.3 km/h
48 23-12-2014 03:55:00 10.3 C 8.33 g/m*3 7.27 C 25.7 km/h
49 23-12-2014 04:00:00 10.4 C 8.29 g/m*3 8.28 C 16.1 km/h
50 23-12-2014 04:05:00 10.3 C 8.24 g/m*3 8.78 C 11.3 km/h
Sensor: Nr:Datum:Temp:Abs-Feuchte:Windchill:Wind:
Aussen-T/F 51 23-12-2014 04:10:00 10.3 C 8.24 g/m*3 9.04 C 9.7 km/h
52 23-12-2014 04:15:00 10.3 C 8.33 g/m*3 8.55 C 12.9 km/h
53 23-12-2014 04:20:00 10.3 C 8.24 g/m*3 7.98 C 17.7 km/h
54 23-12-2014 04:25:00 10.4 C 8.29 g/m*3 7.95 C 19.3 km/h
55 23-12-2014 04:30:00 10.4 C 8.29 g/m*3 8.67 C 12.9 km/h
56 23-12-2014 04:35:00 10.4 C 8.29 g/m*3 8.47 C 14.5 km/h
57 23-12-2014 04:40:00 10.4 C 8.29 g/m*3 8.47 C 14.5 km/h
58 23-12-2014 04:45:00 10.5 C 8.34 g/m*3 8.8 C 12.9 km/h
59 23-12-2014 04:50:00 10.5 C 8.34 g/m*3 8.8 C 12.9 km/h
60 23-12-2014 04:55:00 10.5 C 8.34 g/m*3 8.23 C 17.7 km/h
61 23-12-2014 05:00:00 10.6 C 8.39 g/m*3 8.36 C 17.7 km/h
62 23-12-2014 05:05:00 10.5 C 8.24 g/m*3 8.8 C 12.9 km/h
63 23-12-2014 05:10:00 10.5 C 8.24 g/m*3 8.8 C 12.9 km/h
64 23-12-2014 05:15:00 10.5 C 8.24 g/m*3 8.8 C 12.9 km/h
65 23-12-2014 05:20:00 10.4 C 8.19 g/m*3 8.47 C 14.5 km/h
66 23-12-2014 05:25:00 10.4 C 8.29 g/m*3 8.9 C 11.3 km/h
67 23-12-2014 05:30:00 10.4 C 8.29 g/m*3 7.95 C 19.3 km/h
68 23-12-2014 05:35:00 10.4 C 8.19 g/m*3 8.9 C 11.3 km/h
69 23-12-2014 05:40:00 10.4 C 8.19 g/m*3 8.28 C 16.1 km/h
70 23-12-2014 05:45:00 10.5 C 8.24 g/m*3 9.28 C 9.7 km/h
71 23-12-2014 05:50:00 10.4 C 8.19 g/m*3 8.47 C 14.5 km/h
72 23-12-2014 05:55:00 10.4 C 8.19 g/m*3 8.11 C 17.7 km/h
73 23-12-2014 06:00:00 10.4 C 8.19 g/m*3 8.28 C 16.1 km/h
74 23-12-2014 06:05:00 10.5 C 8.24 g/m*3 8.8 C 12.9 km/h
75 23-12-2014 06:10:00 10.5 C 8.24 g/m*3 8.4 C 16.1 km/h
Sensor: Nr:Datum:Temp:Abs-Feuchte:Windchill:Wind:
Aussen-T/F 76 23-12-2014 06:15:00 10.6 C 8.3 g/m*3 8.53 C 16.1 km/h
77 23-12-2014 06:20:00 10.6 C 8.2 g/m*3 8.92 C 12.9 km/h
78 23-12-2014 06:25:00 10.6 C 8.3 g/m*3 8.53 C 16.1 km/h
79 23-12-2014 06:30:00 10.6 C 8.3 g/m*3 8.53 C 16.1 km/h
80 23-12-2014 06:35:00 10.5 C 8.24 g/m*3 9.28 C 9.7 km/h
81 23-12-2014 06:40:00 10.5 C 8.24 g/m*3 7.53 C 25.7 km/h
82 23-12-2014 06:45:00 10.5 C 8.24 g/m*3 7.92 C 20.9 km/h
83 23-12-2014 06:50:00 10.5 C 8.24 g/m*3 8.4 C 16.1 km/h
84 23-12-2014 06:55:00 10.6 C 8.3 g/m*3 8.2 C 19.3 km/h
85 23-12-2014 07:00:00 10.6 C 8.3 g/m*3 8.53 C 16.1 km/h
86 23-12-2014 07:05:00 10.5 C 8.24 g/m*3 8.59 C 14.5 km/h
87 23-12-2014 07:10:00 10.5 C 8.24 g/m*3 8.8 C 12.9 km/h
88 23-12-2014 07:15:00 10.4 C 8.19 g/m*3 8.9 C 11.3 km/h
89 23-12-2014 07:20:00 10.4 C 8.19 g/m*3 8.9 C 11.3 km/h
90 23-12-2014 07:25:00 10.4 C 8.19 g/m*3 7.95 C 19.3 km/h
91 23-12-2014 07:30:00 10.5 C 8.24 g/m*3 8.23 C 17.7 km/h
92 23-12-2014 07:35:00 10.5 C 8.24 g/m*3 8.23 C 17.7 km/h
93 23-12-2014 07:40:00 10.4 C 8.19 g/m*3 8.28 C 16.1 km/h
94 23-12-2014 07:45:00 10.5 C 8.24 g/m*3 9.57 C 8.1 km/h
95 23-12-2014 07:50:00 10.4 C 8.19 g/m*3 8.9 C 11.3 km/h
96 23-12-2014 07:55:00 10.4 C 8.19 g/m*3 8.67 C 12.9 km/h
97 23-12-2014 08:00:00 10.4 C 8.19 g/m*3 8.47 C 14.5 km/h
98 23-12-2014 08:05:00 10.4 C 8.19 g/m*3 8.67 C 12.9 km/h
99 23-12-2014 08:10:00 10.5 C 8.15 g/m*3 8.59 C 14.5 km/h
100 23-12-2014 08:15:00 10.4 C 8.1 g/m*3 9.46 C 8.1 km/h
Sensor: Nr:Datum:Temp:Abs-Feuchte:Windchill:Wind:
Aussen-T/F 101 23-12-2014 08:20:00 10.4 C 8.19 g/m*3 9.83 C 6.4 km/h
102 23-12-2014 08:25:00 10.4 C 8.19 g/m*3 8.67 C 12.9 km/h
103 23-12-2014 08:30:00 10.4 C 8.19 g/m*3 8.67 C 12.9 km/h
104 23-12-2014 08:35:00 10.4 C 8.19 g/m*3 8.11 C 17.7 km/h
105 23-12-2014 08:40:00 10.4 C 8.19 g/m*3 9.46 C 8.1 km/h
106 23-12-2014 08:45:00 10.4 C 8.19 g/m*3 9.46 C 8.1 km/h
107 23-12-2014 08:50:00 10.4 C 8.19 g/m*3 8.67 C 12.9 km/h
108 23-12-2014 08:55:00 10.4 C 8.1 g/m*3 8.67 C 12.9 km/h
109 23-12-2014 09:00:00 10.4 C 8.1 g/m*3 9.16 C 9.7 km/h
110 23-12-2014 09:05:00 10.4 C 8.1 g/m*3 9.16 C 9.7 km/h
111 23-12-2014 09:10:00 10.4 C 8.1 g/m*3 9.83 C 6.4 km/h
112 23-12-2014 09:15:00 10.4 C 8.1 g/m*3 9.16 C 9.7 km/h
113 23-12-2014 09:20:00 10.4 C 8.1 g/m*3 8.9 C 11.3 km/h
114 23-12-2014 09:25:00 10.4 C 8.1 g/m*3 8.11 C 17.7 km/h
115 23-12-2014 09:50:00 10.4 C 8.19 g/m*3 8.47 C 14.5 km/h
116 23-12-2014 09:55:00 10.4 C 8.19 g/m*3 9.46 C 8.1 km/h
117 23-12-2014 10:00:00 10.3 C 8.14 g/m*3 8.78 C 11.3 km/h
118 23-12-2014 10:05:00 10.4 C 8.19 g/m*3 7.95 C 19.3 km/h
119 23-12-2014 10:10:00 10.4 C 8.19 g/m*3 8.11 C 17.7 km/h
120 23-12-2014 10:15:00 10.4 C 8.19 g/m*3 8.47 C 14.5 km/h
121 23-12-2014 10:20:00 10.4 C 8.19 g/m*3 8.67 C 12.9 km/h
122 23-12-2014 10:25:00 10.4 C 8.19 g/m*3 8.28 C 16.1 km/h
123 23-12-2014 10:30:00 10.4 C 8.19 g/m*3 7.95 C 19.3 km/h
124 23-12-2014 10:35:00 10.4 C 8.19 g/m*3 8.67 C 12.9 km/h
125 23-12-2014 11:15:00 10.3 C 9.58 g/m*3 8.16 C 16.1 km/h
Sensor: Nr:Datum:Temp:Abs-Feuchte:Windchill:Wind:
Aussen-T/F 126 23-12-2014 11:20:00 10.3 C 8.14 g/m*3 8.34 C 14.5 km/h
127 23-12-2014 11:25:00 10.3 C 8.14 g/m*3 8.34 C 14.5 km/h
128 23-12-2014 11:30:00 10.3 C 8.24 g/m*3 8.34 C 14.5 km/h
129 23-12-2014 11:35:00 10.3 C 8.14 g/m*3 8.55 C 12.9 km/h
130 23-12-2014 11:40:00 10.3 C 8.24 g/m*3 7.82 C 19.3 km/h
131 23-12-2014 11:45:00 10.3 C 8.24 g/m*3 8.55 C 12.9 km/h
132 23-12-2014 11:50:00 10.3 C 8.24 g/m*3 7.98 C 17.7 km/h
133 23-12-2014 11:55:00 10.3 C 8.24 g/m*3 8.55 C 12.9 km/h
134 23-12-2014 12:00:00 10.3 C 8.24 g/m*3 8.55 C 12.9 km/h
135 23-12-2014 12:05:00 10.2 C 8.18 g/m*3 8.43 C 12.9 km/h
136 23-12-2014 12:10:00 10.2 C 8.18 g/m*3 8.03 C 16.1 km/h
137 23-12-2014 12:15:00 10.2 C 8.18 g/m*3 8.43 C 12.9 km/h
138 23-12-2014 12:20:00 10.2 C 8.18 g/m*3 7.86 C 17.7 km/h
139 23-12-2014 12:25:00 10.2 C 8.18 g/m*3 8.43 C 12.9 km/h
140 23-12-2014 13:05:00 10.3 C 9.58 g/m*3 8.16 C 16.1 km/h
141 23-12-2014 13:10:00 10.3 C 9.58 g/m*3 7.98 C 17.7 km/h
142 23-12-2014 13:15:00 10.3 C 8.24 g/m*3 8.55 C 12.9 km/h
143 23-12-2014 13:20:00 10.3 C 8.24 g/m*3 9.04 C 9.7 km/h
144 23-12-2014 13:25:00 10.3 C 8.24 g/m*3 8.78 C 11.3 km/h
145 23-12-2014 13:30:00 10.3 C 8.24 g/m*3 8.78 C 11.3 km/h
146 23-12-2014 13:35:00 10.3 C 8.24 g/m*3 8.55 C 12.9 km/h
147 23-12-2014 13:40:00 10.3 C 8.24 g/m*3 9.72 C 6.4 km/h
148 23-12-2014 13:45:00 10.3 C 8.24 g/m*3 9.34 C 8.1 km/h
149 23-12-2014 13:50:00 10.3 C 8.24 g/m*3 9.72 C 6.4 km/h
150 23-12-2014 13:55:00 10.3 C 8.24 g/m*3 8.78 C 11.3 km/h
Sensor: Nr:Datum:Temp:Abs-Feuchte:Windchill:Wind:
Aussen-T/F 151 23-12-2014 14:00:00 10.3 C 8.24 g/m*3 8.16 C 16.1 km/h
152 23-12-2014 14:05:00 10.4 C 8.29 g/m*3 8.67 C 12.9 km/h
153 23-12-2014 14:10:00 10.4 C 8.29 g/m*3 10.4 C 4.8 km/h
154 23-12-2014 14:15:00 10.5 C 8.34 g/m*3 8.07 C 19.3 km/h
155 23-12-2014 14:20:00 10.5 C 8.34 g/m*3 8.59 C 14.5 km/h
156 23-12-2014 14:25:00 10.5 C 8.34 g/m*3 8.8 C 12.9 km/h
157 23-12-2014 14:30:00 10.5 C 8.34 g/m*3 9.57 C 8.1 km/h
158 23-12-2014 14:35:00 10.5 C 8.34 g/m*3 9.28 C 9.7 km/h
159 23-12-2014 14:40:00 10.5 C 8.34 g/m*3 8.8 C 12.9 km/h
160 23-12-2014 14:45:00 10.4 C 8.29 g/m*3 8.67 C 12.9 km/h
161 23-12-2014 14:50:00 10.4 C 8.29 g/m*3 9.16 C 9.7 km/h
162 23-12-2014 14:55:00 10.4 C 8.29 g/m*3 8.67 C 12.9 km/h
163 23-12-2014 15:00:00 10.4 C 8.29 g/m*3 9.16 C 9.7 km/h
164 23-12-2014 15:05:00 10.4 C 8.29 g/m*3 9.46 C 8.1 km/h
165 23-12-2014 15:10:00 10.4 C 8.29 g/m*3 9.16 C 9.7 km/h
166 23-12-2014 15:15:00 10.3 C 8.24 g/m*3 9.04 C 9.7 km/h
167 23-12-2014 15:20:00 10.3 C 8.24 g/m*3 8.55 C 12.9 km/h
168 23-12-2014 15:25:00 10.3 C 8.24 g/m*3 7.98 C 17.7 km/h
169 23-12-2014 15:30:00 10.3 C 8.24 g/m*3 7.98 C 17.7 km/h
170 23-12-2014 15:35:00 10.3 C 8.24 g/m*3 8.55 C 12.9 km/h
171 23-12-2014 15:40:00 10.3 C 8.24 g/m*3 8.78 C 11.3 km/h
172 23-12-2014 15:45:00 10.3 C 8.24 g/m*3 9.34 C 8.1 km/h
173 23-12-2014 15:50:00 10.3 C 8.24 g/m*3 8.55 C 12.9 km/h
174 23-12-2014 15:55:00 10.3 C 8.24 g/m*3 8.55 C 12.9 km/h
175 23-12-2014 16:00:00 10.3 C 8.24 g/m*3 9.04 C 9.7 km/h
Sensor: Nr:Datum:Temp:Abs-Feuchte:Windchill:Wind:
Aussen-T/F 176 23-12-2014 16:05:00 10.3 C 8.24 g/m*3 9.04 C 9.7 km/h
177 23-12-2014 16:10:00 10.3 C 8.14 g/m*3 9.34 C 8.1 km/h
178 23-12-2014 16:15:00 10.2 C 8.18 g/m*3 9.22 C 8.1 km/h
179 23-12-2014 16:20:00 10.2 C 8.09 g/m*3 8.92 C 9.7 km/h
180 23-12-2014 16:25:00 10.2 C 8.09 g/m*3 8.92 C 9.7 km/h
181 23-12-2014 16:30:00 10.2 C 8.18 g/m*3 9.22 C 8.1 km/h
182 23-12-2014 16:35:00 10.2 C 8.09 g/m*3 8.92 C 9.7 km/h
183 23-12-2014 16:40:00 10.2 C 8.09 g/m*3 9.6 C 6.4 km/h
184 23-12-2014 16:45:00 10.1 C 8.13 g/m*3 10.1 C 4.8 km/h
185 23-12-2014 16:50:00 10.1 C 8.13 g/m*3 9.48 C 6.4 km/h
186 23-12-2014 16:55:00 10.1 C 8.13 g/m*3 8.8 C 9.7 km/h
187 23-12-2014 17:00:00 10.1 C 8.13 g/m*3 8.31 C 12.9 km/h
188 23-12-2014 17:05:00 10.1 C 8.04 g/m*3 8.8 C 9.7 km/h
189 23-12-2014 17:10:00 10.1 C 8.13 g/m*3 9.48 C 6.4 km/h
190 23-12-2014 17:15:00 10.1 C 8.04 g/m*3 8.31 C 12.9 km/h
191 23-12-2014 17:20:00 10.1 C 8.04 g/m*3 8.8 C 9.7 km/h
192 23-12-2014 17:25:00 10 C 8.08 g/m*3 8.99 C 8.1 km/h
193 23-12-2014 17:30:00 10 C 8.08 g/m*3 7.98 C 14.5 km/h
194 23-12-2014 17:35:00 10 C 8.08 g/m*3 8.19 C 12.9 km/h
195 23-12-2014 17:40:00 10 C 7.99 g/m*3 8.19 C 12.9 km/h
196 23-12-2014 17:45:00 9.9 C 8.03 g/m*3 8.3 C 11.3 km/h
197 23-12-2014 17:50:00 9.9 C 8.03 g/m*3 8.56 C 9.7 km/h
198 23-12-2014 17:55:00 9.9 C 7.94 g/m*3 7.85 C 14.5 km/h
199 23-12-2014 18:00:00 9.9 C 7.94 g/m*3 8.56 C 9.7 km/h
200 23-12-2014 18:05:00 9.9 C 7.94 g/m*3 8.56 C 9.7 km/h
Sensor: Nr:Datum:Temp:Abs-Feuchte:Windchill:Wind:
Aussen-T/F 201 23-12-2014 18:10:00 9.9 C 7.94 g/m*3 8.56 C 9.7 km/h
202 23-12-2014 18:15:00 9.9 C 7.94 g/m*3 8.56 C 9.7 km/h
203 23-12-2014 18:20:00 9.8 C 7.98 g/m*3 8.45 C 9.7 km/h
204 23-12-2014 18:25:00 9.8 C 7.89 g/m*3 8.18 C 11.3 km/h
205 23-12-2014 18:30:00 9.8 C 7.98 g/m*3 7.54 C 16.1 km/h
206 23-12-2014 18:35:00 9.8 C 7.89 g/m*3 8.75 C 8.1 km/h
207 23-12-2014 18:40:00 9.8 C 7.89 g/m*3 7.94 C 12.9 km/h
208 23-12-2014 18:45:00 9.8 C 7.89 g/m*3 7.94 C 12.9 km/h
209 23-12-2014 18:50:00 9.8 C 7.98 g/m*3 7.73 C 14.5 km/h
210 23-12-2014 18:55:00 9.8 C 7.98 g/m*3 8.18 C 11.3 km/h
211 23-12-2014 19:00:00 9.7 C 7.93 g/m*3 8.33 C 9.7 km/h
212 23-12-2014 19:05:00 9.7 C 7.93 g/m*3 8.06 C 11.3 km/h
213 23-12-2014 19:10:00 9.7 C 7.93 g/m*3 6.91 C 20.9 km/h
214 23-12-2014 19:15:00 9.7 C 7.93 g/m*3 9.02 C 6.4 km/h
215 23-12-2014 19:20:00 9.7 C 7.93 g/m*3 9.02 C 6.4 km/h
216 23-12-2014 19:25:00 9.6 C 7.79 g/m*3 7.7 C 12.9 km/h
217 23-12-2014 19:30:00 9.6 C 7.88 g/m*3 8.21 C 9.7 km/h
218 23-12-2014 19:35:00 9.6 C 7.88 g/m*3 7.7 C 12.9 km/h
219 23-12-2014 19:40:00 9.6 C 7.79 g/m*3 7.29 C 16.1 km/h
220 23-12-2014 19:45:00 9.6 C 7.79 g/m*3 6.79 C 20.9 km/h
221 23-12-2014 19:50:00 9.6 C 7.88 g/m*3 7.29 C 16.1 km/h
222 23-12-2014 19:55:00 9.6 C 7.79 g/m*3 7.48 C 14.5 km/h
223 23-12-2014 20:00:00 9.6 C 7.79 g/m*3 8.52 C 8.1 km/h
224 23-12-2014 20:05:00 9.5 C 7.83 g/m*3 9.5 C 4.8 km/h
225 23-12-2014 20:10:00 9.5 C 7.83 g/m*3 8.09 C 9.7 km/h
Sensor: Nr:Datum:Temp:Abs-Feuchte:Windchill:Wind:
Aussen-T/F 226 23-12-2014 20:15:00 9.4 C 7.78 g/m*3 7.7 C 11.3 km/h
227 23-12-2014 20:20:00 9.4 C 7.78 g/m*3 8.28 C 8.1 km/h
228 23-12-2014 20:25:00 9.4 C 7.78 g/m*3 7.97 C 9.7 km/h
229 23-12-2014 20:30:00 9.4 C 7.78 g/m*3 7.04 C 16.1 km/h
230 23-12-2014 20:35:00 9.4 C 7.69 g/m*3 7.46 C 12.9 km/h
231 23-12-2014 20:40:00 9.4 C 7.69 g/m*3 7.46 C 12.9 km/h
232 23-12-2014 20:45:00 9.4 C 7.69 g/m*3 8.28 C 8.1 km/h
233 23-12-2014 20:50:00 9.4 C 7.69 g/m*3 7.7 C 11.3 km/h
234 23-12-2014 20:55:00 9.4 C 7.69 g/m*3 7.7 C 11.3 km/h
235 23-12-2014 21:00:00 9.4 C 7.69 g/m*3 8.28 C 8.1 km/h
236 23-12-2014 21:05:00 9.3 C 7.64 g/m*3 7.33 C 12.9 km/h
237 23-12-2014 21:10:00 9.3 C 7.64 g/m*3 8.16 C 8.1 km/h
238 23-12-2014 21:15:00 9.3 C 7.64 g/m*3 8.56 C 6.4 km/h
239 23-12-2014 21:20:00 9.3 C 7.64 g/m*3 8.56 C 6.4 km/h
240 23-12-2014 21:25:00 9.2 C 7.59 g/m*3 8.05 C 8.1 km/h
241 23-12-2014 21:30:00 9.2 C 7.5 g/m*3 8.45 C 6.4 km/h
242 23-12-2014 21:35:00 9.3 C 7.46 g/m*3 7.33 C 12.9 km/h
243 23-12-2014 21:40:00 9.3 C 7.46 g/m*3 7.85 C 9.7 km/h
244 23-12-2014 21:45:00 9.3 C 7.37 g/m*3 6.73 C 17.7 km/h
245 23-12-2014 21:50:00 9.3 C 7.46 g/m*3 7.85 C 9.7 km/h
246 23-12-2014 21:55:00 9.3 C 7.46 g/m*3 7.85 C 9.7 km/h
247 23-12-2014 22:00:00 9.2 C 7.32 g/m*3 8.05 C 8.1 km/h
248 23-12-2014 22:05:00 9.2 C 7.32 g/m*3 7.73 C 9.7 km/h
249 23-12-2014 22:10:00 9.2 C 7.32 g/m*3 9.2 C 4.8 km/h
250 23-12-2014 22:15:00 9.2 C 7.32 g/m*3 9.2 C 4.8 km/h
Sensor: Nr:Datum:Temp:Abs-Feuchte:Windchill:Wind:
Aussen-T/F 251 23-12-2014 22:20:00 9.2 C 7.32 g/m*3 9.2 C 4.8 km/h
252 23-12-2014 22:25:00 9.2 C 7.32 g/m*3 8.05 C 8.1 km/h
253 23-12-2014 22:30:00 9.2 C 7.32 g/m*3 8.45 C 6.4 km/h
254 23-12-2014 22:35:00 9.1 C 7.28 g/m*3 7.33 C 11.3 km/h
255 23-12-2014 22:40:00 9.1 C 7.28 g/m*3 8.33 C 6.4 km/h
256 23-12-2014 22:45:00 9.1 C 7.28 g/m*3 9.1 C 4.8 km/h
257 23-12-2014 22:50:00 9.1 C 7.28 g/m*3 8.33 C 6.4 km/h
258 23-12-2014 22:55:00 9 C 7.23 g/m*3 7.21 C 11.3 km/h
259 23-12-2014 23:00:00 9 C 7.23 g/m*3 8.21 C 6.4 km/h
260 23-12-2014 23:05:00 8.9 C 7.18 g/m*3 7.69 C 8.1 km/h
261 23-12-2014 23:10:00 8.9 C 7.18 g/m*3 8.1 C 6.4 km/h
262 23-12-2014 23:15:00 8.9 C 7.1 g/m*3 8.1 C 6.4 km/h
263 23-12-2014 23:20:00 8.9 C 7.18 g/m*3 8.9 C 4.8 km/h
264 23-12-2014 23:25:00 8.8 C 7.14 g/m*3 7.98 C 6.4 km/h
265 23-12-2014 23:30:00 8.8 C 7.14 g/m*3 7.98 C 6.4 km/h
266 23-12-2014 23:35:00 8.8 C 7.14 g/m*3 8.8 C 4.8 km/h
267 23-12-2014 23:40:00 8.8 C 7.14 g/m*3 7.98 C 6.4 km/h
268 23-12-2014 23:45:00 8.7 C 7.09 g/m*3 7.13 C 9.7 km/h
269 23-12-2014 23:50:00 8.7 C 7.09 g/m*3 6.85 C 11.3 km/h
270 23-12-2014 23:55:00 8.7 C 7.09 g/m*3 7.87 C 6.4 km/h
271 24-12-2014 00:00:00 8.7 C 7.09 g/m*3 8.7 C 4.8 km/h
272 24-12-2014 00:05:00 8.7 C 7.09 g/m*3 7.13 C 9.7 km/h
273 24-12-2014 00:10:00 8.6 C 7.05 g/m*3 8.6 C 4.8 km/h
274 24-12-2014 00:15:00 8.6 C 7.05 g/m*3 7.34 C 8.1 km/h
275 24-12-2014 00:20:00 8.6 C 7.05 g/m*3 7.34 C 8.1 km/h
Sensor: Nr:Datum:Temp:Abs-Feuchte:Windchill:Wind:
Aussen-T/F 276 24-12-2014 00:25:00 8.5 C 7 g/m*3 8.5 C 3.2 km/h
277 24-12-2014 00:30:00 8.5 C 7.09 g/m*3 7.64 C 6.4 km/h
278 24-12-2014 00:35:00 8.4 C 6.96 g/m*3 7.11 C 8.1 km/h
279 24-12-2014 00:40:00 8.4 C 7.04 g/m*3 6.01 C 14.5 km/h
280 24-12-2014 00:45:00 8.4 C 7.04 g/m*3 8.4 C 4.8 km/h
281 24-12-2014 00:50:00 8.4 C 7.04 g/m*3 8.4 C 4.8 km/h
282 24-12-2014 00:55:00 8.3 C 7 g/m*3 8.3 C 1.6 km/h
283 24-12-2014 01:00:00 8.3 C 7 g/m*3 6.37 C 11.3 km/h
284 24-12-2014 01:05:00 8.2 C 7.03 g/m*3 8.2 C 4.8 km/h
285 24-12-2014 01:10:00 8.2 C 7.03 g/m*3 8.2 C 4.8 km/h
286 24-12-2014 01:15:00 8.2 C 7.03 g/m*3 5.99 C 12.9 km/h
287 24-12-2014 01:20:00 8.2 C 7.03 g/m*3 7.29 C 6.4 km/h
288 24-12-2014 01:25:00 8.2 C 6.95 g/m*3 5.76 C 14.5 km/h
289 24-12-2014 01:30:00 8.2 C 6.95 g/m*3 6.54 C 9.7 km/h
290 24-12-2014 01:35:00 8.2 C 6.95 g/m*3 8.2 C 4.8 km/h
291 24-12-2014 01:40:00 8.1 C 6.91 g/m*3 5.87 C 12.9 km/h
292 24-12-2014 01:45:00 8.1 C 6.91 g/m*3 6.42 C 9.7 km/h
293 24-12-2014 01:50:00 8.1 C 6.99 g/m*3 6.75 C 8.1 km/h
294 24-12-2014 01:55:00 8.1 C 6.99 g/m*3 8.1 C 4.8 km/h
295 24-12-2014 02:00:00 8 C 6.94 g/m*3 6.01 C 11.3 km/h
296 24-12-2014 02:05:00 7.9 C 6.82 g/m*3 5.89 C 11.3 km/h
297 24-12-2014 02:10:00 7.9 C 6.82 g/m*3 5.63 C 12.9 km/h
298 24-12-2014 02:15:00 7.9 C 6.82 g/m*3 6.18 C 9.7 km/h
299 24-12-2014 02:20:00 7.9 C 6.82 g/m*3 5.89 C 11.3 km/h
300 24-12-2014 02:25:00 7.8 C 6.77 g/m*3 5.77 C 11.3 km/h
Sensor: Nr:Datum:Temp:Abs-Feuchte:Windchill:Wind:
Aussen-T/F 301 24-12-2014 02:30:00 7.8 C 6.77 g/m*3 4.86 C 17.7 km/h
302 24-12-2014 02:35:00 7.8 C 6.86 g/m*3 4.86 C 17.7 km/h
303 24-12-2014 02:40:00 7.8 C 6.86 g/m*3 5.77 C 11.3 km/h
304 24-12-2014 02:45:00 7.7 C 6.81 g/m*3 5.65 C 11.3 km/h
305 24-12-2014 02:50:00 7.7 C 6.73 g/m*3 5.38 C 12.9 km/h
306 24-12-2014 02:55:00 7.7 C 6.81 g/m*3 5.15 C 14.5 km/h
307 24-12-2014 03:00:00 7.6 C 6.77 g/m*3 5.82 C 9.7 km/h
308 24-12-2014 03:05:00 7.6 C 6.77 g/m*3 5.26 C 12.9 km/h
309 24-12-2014 03:10:00 7.5 C 6.72 g/m*3 5.7 C 9.7 km/h
310 24-12-2014 03:15:00 7.4 C 6.68 g/m*3 6.37 C 6.4 km/h
311 24-12-2014 03:20:00 7.4 C 6.68 g/m*3 4.56 C 16.1 km/h
312 24-12-2014 03:25:00 7.4 C 6.68 g/m*3 4.36 C 17.7 km/h
313 24-12-2014 03:30:00 7.4 C 6.68 g/m*3 4.36 C 17.7 km/h
314 24-12-2014 03:35:00 7.4 C 6.68 g/m*3 4.17 C 19.3 km/h
315 24-12-2014 03:40:00 7.4 C 6.68 g/m*3 4.17 C 19.3 km/h
316 24-12-2014 03:45:00 7.4 C 6.68 g/m*3 5.28 C 11.3 km/h
317 24-12-2014 03:50:00 7.4 C 6.6 g/m*3 4.56 C 16.1 km/h
318 24-12-2014 03:55:00 7.3 C 6.64 g/m*3 5.47 C 9.7 km/h
319 24-12-2014 04:00:00 7.3 C 6.64 g/m*3 4.23 C 17.7 km/h
320 24-12-2014 04:05:00 7.3 C 6.56 g/m*3 6.25 C 6.4 km/h
321 24-12-2014 04:10:00 7.3 C 6.64 g/m*3 6.25 C 6.4 km/h
322 24-12-2014 04:15:00 7.3 C 6.64 g/m*3 7.3 C 4.8 km/h
323 24-12-2014 04:20:00 7.3 C 6.64 g/m*3 6.25 C 6.4 km/h
324 24-12-2014 04:25:00 7.3 C 6.56 g/m*3 4.44 C 16.1 km/h
325 24-12-2014 04:30:00 7.3 C 6.64 g/m*3 5.81 C 8.1 km/h
Sensor: Nr:Datum:Temp:Abs-Feuchte:Windchill:Wind:
Aussen-T/F 326 24-12-2014 04:35:00 7.3 C 6.56 g/m*3 5.81 C 8.1 km/h
327 24-12-2014 04:40:00 7.3 C 6.56 g/m*3 5.16 C 11.3 km/h
328 24-12-2014 04:45:00 7.4 C 6.52 g/m*3 4.56 C 16.1 km/h
329 24-12-2014 04:50:00 7.4 C 6.52 g/m*3 4.78 C 14.5 km/h
330 24-12-2014 04:55:00 7.4 C 6.6 g/m*3 5.58 C 9.7 km/h
331 24-12-2014 05:00:00 7.3 C 6.56 g/m*3 5.16 C 11.3 km/h
332 24-12-2014 05:05:00 7.3 C 6.56 g/m*3 4.05 C 19.3 km/h
333 24-12-2014 05:10:00 7.3 C 6.56 g/m*3 6.25 C 6.4 km/h
334 24-12-2014 05:15:00 7.3 C 6.56 g/m*3 5.81 C 8.1 km/h
335 24-12-2014 05:20:00 7.3 C 6.56 g/m*3 5.81 C 8.1 km/h
336 24-12-2014 05:25:00 7.4 C 6.6 g/m*3 5.28 C 11.3 km/h
337 24-12-2014 05:30:00 7.4 C 6.6 g/m*3 6.37 C 6.4 km/h
338 24-12-2014 05:35:00 7.4 C 6.6 g/m*3 5.58 C 9.7 km/h
339 24-12-2014 05:40:00 7.4 C 6.6 g/m*3 5.28 C 11.3 km/h
340 24-12-2014 05:45:00 7.3 C 6.56 g/m*3 5.16 C 11.3 km/h
341 24-12-2014 05:50:00 7.3 C 6.56 g/m*3 5.81 C 8.1 km/h
342 24-12-2014 05:55:00 7.3 C 6.56 g/m*3 4.9 C 12.9 km/h
343 24-12-2014 06:00:00 7.3 C 6.64 g/m*3 5.16 C 11.3 km/h
344 24-12-2014 06:05:00 7.3 C 6.64 g/m*3 5.16 C 11.3 km/h
345 24-12-2014 06:10:00 7.3 C 6.64 g/m*3 4.9 C 12.9 km/h
346 24-12-2014 06:15:00 7.3 C 6.64 g/m*3 4.66 C 14.5 km/h
347 24-12-2014 06:20:00 7.2 C 6.59 g/m*3 4.77 C 12.9 km/h
348 24-12-2014 06:25:00 7.2 C 6.59 g/m*3 5.35 C 9.7 km/h
349 24-12-2014 06:30:00 7.1 C 6.55 g/m*3 4.41 C 14.5 km/h
350 24-12-2014 06:35:00 7.1 C 6.55 g/m*3 4.19 C 16.1 km/h
Sensor: Nr:Datum:Temp:Abs-Feuchte:Windchill:Wind:
Aussen-T/F 351 24-12-2014 06:40:00 7.1 C 6.55 g/m*3 3.98 C 17.7 km/h
352 24-12-2014 06:45:00 7.1 C 6.63 g/m*3 4.92 C 11.3 km/h
353 24-12-2014 06:50:00 7.1 C 6.63 g/m*3 4.65 C 12.9 km/h
354 24-12-2014 06:55:00 7.1 C 6.63 g/m*3 4.92 C 11.3 km/h
355 24-12-2014 07:00:00 7.1 C 6.63 g/m*3 5.23 C 9.7 km/h
356 24-12-2014 07:05:00 7.1 C 6.63 g/m*3 4.92 C 11.3 km/h
357 24-12-2014 07:10:00 7.1 C 6.63 g/m*3 4.19 C 16.1 km/h
358 24-12-2014 07:15:00 7.1 C 6.63 g/m*3 5.23 C 9.7 km/h
359 24-12-2014 07:20:00 7.1 C 6.63 g/m*3 4.92 C 11.3 km/h
360 24-12-2014 07:25:00 7.1 C 6.63 g/m*3 5.58 C 8.1 km/h
361 24-12-2014 07:30:00 7.1 C 6.63 g/m*3 3.98 C 17.7 km/h
362 24-12-2014 07:35:00 7.2 C 6.67 g/m*3 4.77 C 12.9 km/h
363 24-12-2014 07:40:00 7.2 C 6.67 g/m*3 5.04 C 11.3 km/h
364 24-12-2014 07:45:00 7.2 C 6.67 g/m*3 5.04 C 11.3 km/h
365 24-12-2014 07:50:00 7.2 C 6.67 g/m*3 4.77 C 12.9 km/h
366 24-12-2014 07:55:00 7.2 C 6.67 g/m*3 4.53 C 14.5 km/h
367 24-12-2014 08:00:00 7.3 C 6.64 g/m*3 4.05 C 19.3 km/h
368 24-12-2014 08:05:00 7.3 C 6.72 g/m*3 6.25 C 6.4 km/h
369 24-12-2014 08:10:00 7.3 C 6.72 g/m*3 4.9 C 12.9 km/h
370 24-12-2014 08:15:00 7.3 C 6.72 g/m*3 4.9 C 12.9 km/h
371 24-12-2014 08:20:00 7.4 C 6.76 g/m*3 5.02 C 12.9 km/h
372 24-12-2014 08:25:00 7.4 C 6.68 g/m*3 5.28 C 11.3 km/h
373 24-12-2014 08:30:00 7.4 C 6.68 g/m*3 4.17 C 19.3 km/h
374 24-12-2014 08:35:00 7.6 C 6.77 g/m*3 4.81 C 16.1 km/h
375 24-12-2014 08:40:00 7.6 C 6.77 g/m*3 5.26 C 12.9 km/h
Sensor: Nr:Datum:Temp:Abs-Feuchte:Windchill:Wind:
Aussen-T/F 376 24-12-2014 08:45:00 7.6 C 6.77 g/m*3 4.81 C 16.1 km/h
377 24-12-2014 08:50:00 7.6 C 6.77 g/m*3 5.82 C 9.7 km/h
378 24-12-2014 08:55:00 7.7 C 6.81 g/m*3 4.55 C 19.3 km/h
379 24-12-2014 09:00:00 7.7 C 6.81 g/m*3 5.65 C 11.3 km/h
380 24-12-2014 09:05:00 7.7 C 6.81 g/m*3 4.22 C 22.5 km/h
381 24-12-2014 09:10:00 7.8 C 6.77 g/m*3 4.86 C 17.7 km/h
382 24-12-2014 09:15:00 7.8 C 6.77 g/m*3 4.51 C 20.9 km/h
383 24-12-2014 09:20:00 7.8 C 6.77 g/m*3 5.06 C 16.1 km/h
384 24-12-2014 09:25:00 7.9 C 6.82 g/m*3 4.47 C 22.5 km/h
385 24-12-2014 09:30:00 7.9 C 6.82 g/m*3 4.8 C 19.3 km/h
386 24-12-2014 09:35:00 7.9 C 6.82 g/m*3 4.8 C 19.3 km/h
387 24-12-2014 09:40:00 8 C 6.94 g/m*3 5.75 C 12.9 km/h
388 24-12-2014 09:45:00 8 C 6.94 g/m*3 5.3 C 16.1 km/h
389 24-12-2014 09:50:00 8 C 6.94 g/m*3 5.52 C 14.5 km/h
390 24-12-2014 09:55:00 8 C 6.94 g/m*3 5.52 C 14.5 km/h
391 24-12-2014 10:00:00 8.1 C 6.99 g/m*3 5.23 C 17.7 km/h
392 24-12-2014 10:05:00 8.1 C 6.99 g/m*3 5.05 C 19.3 km/h
393 24-12-2014 10:10:00 8.1 C 6.99 g/m*3 4.89 C 20.9 km/h
394 24-12-2014 10:15:00 8.1 C 6.99 g/m*3 5.23 C 17.7 km/h
395 24-12-2014 10:20:00 8.2 C 7.03 g/m*3 5.36 C 17.7 km/h
396 24-12-2014 10:25:00 8.2 C 7.03 g/m*3 5.55 C 16.1 km/h
397 24-12-2014 10:30:00 8.3 C 7 g/m*3 5.48 C 17.7 km/h
398 24-12-2014 10:35:00 8.3 C 7.08 g/m*3 5.89 C 14.5 km/h
399 24-12-2014 10:40:00 8.3 C 7 g/m*3 6.66 C 9.7 km/h
400 24-12-2014 10:45:00 8.3 C 7.08 g/m*3 6.66 C 9.7 km/h
Sensor: Nr:Datum:Temp:Abs-Feuchte:Windchill:Wind:
Aussen-T/F 401 24-12-2014 10:50:00 8.4 C 7.13 g/m*3 6.49 C 11.3 km/h
402 24-12-2014 10:55:00 8.4 C 7.13 g/m*3 6.01 C 14.5 km/h
403 24-12-2014 11:00:00 8.4 C 7.13 g/m*3 5.61 C 17.7 km/h
404 24-12-2014 11:05:00 8.4 C 7.13 g/m*3 6.01 C 14.5 km/h
405 24-12-2014 11:10:00 8.4 C 7.13 g/m*3 5.43 C 19.3 km/h
406 24-12-2014 11:15:00 8.5 C 7.17 g/m*3 5.56 C 19.3 km/h
407 24-12-2014 11:20:00 8.6 C 7.22 g/m*3 5.86 C 17.7 km/h
408 24-12-2014 11:25:00 8.6 C 7.22 g/m*3 5.86 C 17.7 km/h
409 24-12-2014 11:30:00 8.6 C 7.22 g/m*3 5.86 C 17.7 km/h
410 24-12-2014 11:35:00 8.6 C 7.22 g/m*3 6.25 C 14.5 km/h
411 24-12-2014 11:40:00 8.7 C 7.26 g/m*3 5.98 C 17.7 km/h
412 24-12-2014 11:45:00 8.7 C 7.35 g/m*3 6.17 C 16.1 km/h
413 24-12-2014 11:50:00 8.7 C 7.35 g/m*3 5.81 C 19.3 km/h
414 24-12-2014 11:55:00 8.8 C 7.4 g/m*3 6.3 C 16.1 km/h
415 24-12-2014 12:00:00 8.8 C 7.4 g/m*3 6.5 C 14.5 km/h
416 24-12-2014 12:05:00 8.9 C 7.45 g/m*3 6.85 C 12.9 km/h
417 24-12-2014 12:10:00 9.1 C 7.45 g/m*3 5.47 C 29 km/h
418 24-12-2014 12:15:00 9.2 C 7.5 g/m*3 5.6 C 29 km/h
419 24-12-2014 12:20:00 9.3 C 7.55 g/m*3 5.62 C 30.6 km/h
420 24-12-2014 12:25:00 9.3 C 7.55 g/m*3 5.62 C 30.6 km/h
421 24-12-2014 12:30:00 9.3 C 7.55 g/m*3 6.12 C 24.1 km/h
422 24-12-2014 12:35:00 9.3 C 7.55 g/m*3 6.56 C 19.3 km/h
423 24-12-2014 12:40:00 9.3 C 7.55 g/m*3 6.12 C 24.1 km/h
424 24-12-2014 12:45:00 9.3 C 7.55 g/m*3 6.12 C 24.1 km/h
425 24-12-2014 12:50:00 9.2 C 7.5 g/m*3 5.86 C 25.7 km/h
Sensor: Nr:Datum:Temp:Abs-Feuchte:Windchill:Wind:
Aussen-T/F 426 24-12-2014 12:55:00 9.2 C 7.59 g/m*3 6.99 C 14.5 km/h
427 24-12-2014 13:00:00 9.2 C 7.59 g/m*3 5.86 C 25.7 km/h
428 24-12-2014 13:05:00 9.2 C 7.59 g/m*3 5.99 C 24.1 km/h
429 24-12-2014 13:10:00 9.3 C 7.64 g/m*3 5.62 C 30.6 km/h
430 24-12-2014 13:15:00 9.3 C 7.64 g/m*3 6.26 C 22.5 km/h
431 24-12-2014 13:20:00 9.3 C 7.64 g/m*3 5.98 C 25.7 km/h
432 24-12-2014 13:25:00 9.3 C 7.64 g/m*3 6.26 C 22.5 km/h
433 24-12-2014 13:30:00 9.3 C 7.64 g/m*3 5.41 C 33.8 km/h
434 24-12-2014 13:35:00 9.3 C 7.64 g/m*3 5.41 C 33.8 km/h
435 24-12-2014 13:40:00 9.4 C 7.69 g/m*3 6.25 C 24.1 km/h
436 24-12-2014 13:45:00 9.5 C 7.65 g/m*3 6.37 C 24.1 km/h
437 24-12-2014 13:50:00 9.7 C 7.74 g/m*3 6.14 C 30.6 km/h
438 24-12-2014 13:55:00 9.8 C 7.7 g/m*3 6.89 C 22.5 km/h
439 24-12-2014 14:00:00 9.8 C 7.7 g/m*3 6.76 C 24.1 km/h
440 24-12-2014 14:05:00 9.9 C 7.75 g/m*3 6.1 C 35.4 km/h
441 24-12-2014 14:10:00 10.1 C 7.75 g/m*3 7.14 C 24.1 km/h
442 24-12-2014 14:15:00 10.1 C 7.75 g/m*3 7.73 C 17.7 km/h
443 24-12-2014 14:20:00 10.1 C 7.85 g/m*3 8.1 C 14.5 km/h
444 24-12-2014 14:25:00 10.2 C 7.8 g/m*3 7.27 C 24.1 km/h
445 24-12-2014 14:30:00 10.2 C 7.9 g/m*3 8.03 C 16.1 km/h
446 24-12-2014 14:35:00 10.2 C 7.9 g/m*3 7.7 C 19.3 km/h
447 24-12-2014 14:40:00 10.1 C 7.85 g/m*3 7.14 C 24.1 km/h
448 24-12-2014 14:45:00 10.1 C 7.85 g/m*3 7.73 C 17.7 km/h
449 24-12-2014 14:50:00 10.1 C 7.94 g/m*3 7.42 C 20.9 km/h
450 24-12-2014 14:55:00 10 C 7.89 g/m*3 7.44 C 19.3 km/h
Sensor: Nr:Datum:Temp:Abs-Feuchte:Windchill:Wind:
Aussen-T/F 451 24-12-2014 15:00:00 9.9 C 7.84 g/m*3 6.4 C 30.6 km/h
452 24-12-2014 15:05:00 9.9 C 7.84 g/m*3 6.3 C 32.2 km/h
453 24-12-2014 15:10:00 9.8 C 7.89 g/m*3 5.87 C 37 km/h
454 24-12-2014 15:15:00 9.8 C 7.89 g/m*3 5.87 C 37 km/h
455 24-12-2014 15:20:00 9.7 C 7.84 g/m*3 6.63 C 24.1 km/h
456 24-12-2014 15:25:00 9.6 C 7.79 g/m*3 7.11 C 17.7 km/h
457 24-12-2014 15:30:00 9.6 C 7.88 g/m*3 6.01 C 30.6 km/h
458 24-12-2014 15:35:00 9.6 C 7.88 g/m*3 6.79 C 20.9 km/h
459 24-12-2014 15:40:00 9.6 C 7.88 g/m*3 6.12 C 29 km/h
460 24-12-2014 15:45:00 9.5 C 7.83 g/m*3 5.88 C 30.6 km/h
461 24-12-2014 15:50:00 9.4 C 7.87 g/m*3 6.25 C 24.1 km/h
462 24-12-2014 15:55:00 9.4 C 7.87 g/m*3 6.38 C 22.5 km/h
463 24-12-2014 16:00:00 9.4 C 7.87 g/m*3 6.53 C 20.9 km/h
464 24-12-2014 16:05:00 9.4 C 7.87 g/m*3 6.38 C 22.5 km/h
465 24-12-2014 16:10:00 9.4 C 7.87 g/m*3 6.11 C 25.7 km/h
466 24-12-2014 16:15:00 9.3 C 7.91 g/m*3 6.41 C 20.9 km/h
467 24-12-2014 16:20:00 9.3 C 7.91 g/m*3 6.26 C 22.5 km/h
468 24-12-2014 16:25:00 9.2 C 7.86 g/m*3 6.13 C 22.5 km/h
469 24-12-2014 16:30:00 9.2 C 7.86 g/m*3 6.61 C 17.7 km/h
470 24-12-2014 16:35:00 9.2 C 7.95 g/m*3 6.28 C 20.9 km/h
471 24-12-2014 16:40:00 9.1 C 7.9 g/m*3 6.67 C 16.1 km/h
472 24-12-2014 16:45:00 9.1 C 7.99 g/m*3 5.86 C 24.1 km/h
473 24-12-2014 16:50:00 8.9 C 7.88 g/m*3 6.42 C 16.1 km/h
474 24-12-2014 16:55:00 8.9 C 7.97 g/m*3 5.33 C 27.4 km/h
475 24-12-2014 17:00:00 8.9 C 7.97 g/m*3 6.06 C 19.3 km/h
Sensor: Nr:Datum:Temp:Abs-Feuchte:Windchill:Wind:
Aussen-T/F 476 24-12-2014 17:05:00 8.8 C 7.92 g/m*3 4.97 C 30.6 km/h
477 24-12-2014 17:10:00 8.8 C 7.92 g/m*3 5.34 C 25.7 km/h
478 24-12-2014 17:15:00 8.9 C 7.97 g/m*3 6.42 C 16.1 km/h
479 24-12-2014 17:20:00 8.9 C 7.97 g/m*3 5.6 C 24.1 km/h
480 24-12-2014 17:25:00 8.9 C 7.97 g/m*3 5.75 C 22.5 km/h
481 24-12-2014 17:30:00 8.9 C 7.97 g/m*3 5.9 C 20.9 km/h
482 24-12-2014 17:35:00 8.9 C 7.97 g/m*3 5.6 C 24.1 km/h
483 24-12-2014 17:40:00 9 C 7.93 g/m*3 6.36 C 17.7 km/h
484 24-12-2014 17:45:00 9 C 7.93 g/m*3 5.87 C 22.5 km/h
485 24-12-2014 17:50:00 9.1 C 7.99 g/m*3 6 C 22.5 km/h
486 24-12-2014 17:55:00 9.1 C 7.99 g/m*3 5.59 C 27.4 km/h
487 24-12-2014 18:00:00 9.1 C 7.9 g/m*3 6 C 22.5 km/h
488 24-12-2014 18:05:00 9.2 C 7.95 g/m*3 6.99 C 14.5 km/h
489 24-12-2014 18:10:00 9.2 C 7.95 g/m*3 6.44 C 19.3 km/h
490 24-12-2014 18:15:00 9.2 C 7.95 g/m*3 6.28 C 20.9 km/h
491 24-12-2014 18:20:00 9.2 C 7.95 g/m*3 6.79 C 16.1 km/h
492 24-12-2014 18:25:00 9.2 C 7.95 g/m*3 6.99 C 14.5 km/h
493 24-12-2014 18:30:00 9.2 C 7.95 g/m*3 6.61 C 17.7 km/h
494 24-12-2014 18:35:00 9.2 C 7.95 g/m*3 6.28 C 20.9 km/h
495 24-12-2014 18:40:00 9.2 C 8.04 g/m*3 6.61 C 17.7 km/h
496 24-12-2014 18:45:00 9.2 C 8.04 g/m*3 7.21 C 12.9 km/h
497 24-12-2014 18:50:00 9.2 C 8.04 g/m*3 6.13 C 22.5 km/h
498 24-12-2014 18:55:00 9.2 C 8.04 g/m*3 6.28 C 20.9 km/h
499 24-12-2014 19:00:00 9.2 C 8.04 g/m*3 6.44 C 19.3 km/h
500 24-12-2014 19:05:00 9.2 C 8.04 g/m*3 6.61 C 17.7 km/h
Sensor: Nr:Datum:Temp:Abs-Feuchte:Windchill:Wind:
Aussen-T/F 501 24-12-2014 19:10:00 9.1 C 7.99 g/m*3 6.48 C 17.7 km/h
502 24-12-2014 19:15:00 9.1 C 7.99 g/m*3 6.48 C 17.7 km/h
503 24-12-2014 19:20:00 9.1 C 7.99 g/m*3 6.87 C 14.5 km/h
504 24-12-2014 19:25:00 9.2 C 8.04 g/m*3 6.79 C 16.1 km/h
505 24-12-2014 19:30:00 9.2 C 8.04 g/m*3 6.79 C 16.1 km/h
506 24-12-2014 19:35:00 9.3 C 8.09 g/m*3 7.58 C 11.3 km/h
507 24-12-2014 19:40:00 9.3 C 8.09 g/m*3 7.33 C 12.9 km/h
508 24-12-2014 19:45:00 9.3 C 8.09 g/m*3 6.73 C 17.7 km/h
509 24-12-2014 19:50:00 9.3 C 8.09 g/m*3 6.56 C 19.3 km/h
510 24-12-2014 19:55:00 9.4 C 8.14 g/m*3 6.25 C 24.1 km/h
511 24-12-2014 20:00:00 9.4 C 8.14 g/m*3 7.24 C 14.5 km/h
512 24-12-2014 20:05:00 9.4 C 8.14 g/m*3 7.24 C 14.5 km/h
513 24-12-2014 20:10:00 9.4 C 8.14 g/m*3 7.7 C 11.3 km/h
514 24-12-2014 20:15:00 9.4 C 8.14 g/m*3 6.69 C 19.3 km/h
515 24-12-2014 20:20:00 9.4 C 8.14 g/m*3 7.24 C 14.5 km/h
516 24-12-2014 20:25:00 9.5 C 8.19 g/m*3 6.82 C 19.3 km/h
517 24-12-2014 20:30:00 9.5 C 8.19 g/m*3 6.98 C 17.7 km/h
518 24-12-2014 20:35:00 9.4 C 8.23 g/m*3 7.97 C 9.7 km/h
519 24-12-2014 20:40:00 9.3 C 8.18 g/m*3 7.85 C 9.7 km/h
520 24-12-2014 20:45:00 9.2 C 8.22 g/m*3 7.46 C 11.3 km/h
521 24-12-2014 20:50:00 9.1 C 8.25 g/m*3 7.93 C 8.1 km/h
522 24-12-2014 20:55:00 9.1 C 8.25 g/m*3 7.93 C 8.1 km/h
523 24-12-2014 21:00:00 8.9 C 8.15 g/m*3 6.85 C 12.9 km/h
524 24-12-2014 21:05:00 8.7 C 8.04 g/m*3 6.38 C 14.5 km/h
525 24-12-2014 21:10:00 8.6 C 7.99 g/m*3 6.73 C 11.3 km/h
Sensor: Nr:Datum:Temp:Abs-Feuchte:Windchill:Wind:
Aussen-T/F 526 24-12-2014 21:15:00 8.6 C 7.99 g/m*3 7.01 C 9.7 km/h
527 24-12-2014 21:20:00 8.6 C 7.99 g/m*3 8.6 C 4.8 km/h
528 24-12-2014 21:40:00 8.1 C 7.74 g/m*3 8.1 C 1.6 km/h
529 24-12-2014 21:45:00 8.1 C 7.74 g/m*3 5.87 C 12.9 km/h
530 24-12-2014 21:50:00 8 C 7.69 g/m*3 7.06 C 6.4 km/h
531 24-12-2014 21:55:00 7.9 C 7.64 g/m*3 5.89 C 11.3 km/h
532 24-12-2014 22:00:00 7.9 C 7.64 g/m*3 5.89 C 11.3 km/h
533 24-12-2014 22:05:00 7.8 C 7.43 g/m*3 4.86 C 17.7 km/h
534 24-12-2014 22:10:00 7.7 C 7.3 g/m*3 4.93 C 16.1 km/h
535 24-12-2014 22:15:00 7.4 C 7.16 g/m*3 5.28 C 11.3 km/h
536 24-12-2014 22:20:00 7.3 C 7.11 g/m*3 4.9 C 12.9 km/h
537 24-12-2014 22:25:00 7.2 C 7.14 g/m*3 5.35 C 9.7 km/h
538 24-12-2014 22:30:00 7.2 C 7.14 g/m*3 6.13 C 6.4 km/h
539 24-12-2014 22:35:00 7.1 C 7.18 g/m*3 5.58 C 8.1 km/h
540 24-12-2014 22:40:00 7 C 7.13 g/m*3 5.46 C 8.1 km/h
541 24-12-2014 22:45:00 7 C 7.21 g/m*3 7 C 4.8 km/h
542 24-12-2014 22:50:00 6.9 C 7.16 g/m*3 6.9 C 4.8 km/h
543 24-12-2014 22:55:00 6.9 C 7.16 g/m*3 6.9 C 1.6 km/h
544 24-12-2014 23:00:00 6.9 C 7.16 g/m*3 6.9 C 4.8 km/h
545 24-12-2014 23:05:00 6.9 C 7.16 g/m*3 6.9 C 4.8 km/h
546 24-12-2014 23:10:00 6.9 C 7.16 g/m*3 6.9 C 4.8 km/h
547 24-12-2014 23:15:00 6.8 C 7.19 g/m*3 6.8 C 3.2 km/h
548 24-12-2014 23:20:00 6.8 C 7.11 g/m*3 6.8 C 3.2 km/h
549 24-12-2014 23:25:00 6.8 C 7.11 g/m*3 5.67 C 6.4 km/h
550 24-12-2014 23:30:00 6.8 C 7.11 g/m*3 6.8 C 3.2 km/h
Sensor: Nr:Datum:Temp:Abs-Feuchte:Windchill:Wind:
Aussen-T/F 551 24-12-2014 23:35:00 6.8 C 7.04 g/m*3 6.8 C 3.2 km/h
552 24-12-2014 23:40:00 6.8 C 7.04 g/m*3 5.67 C 6.4 km/h
553 24-12-2014 23:45:00 6.8 C 6.96 g/m*3 6.8 C 1.6 km/h
554 24-12-2014 23:50:00 6.7 C 6.99 g/m*3 6.7 C 3.2 km/h
555 24-12-2014 23:55:00 6.6 C 6.95 g/m*3 5.44 C 6.4 km/h
556 25-12-2014 00:00:00 6.6 C 6.95 g/m*3 6.6 C 4.8 km/h
557 25-12-2014 00:05:00 6.6 C 6.95 g/m*3 6.6 C 3.2 km/h
558 25-12-2014 00:10:00 6.6 C 6.95 g/m*3 6.6 C 1.6 km/h
559 25-12-2014 00:15:00 6.6 C 6.95 g/m*3 6.6 C 3.2 km/h
560 25-12-2014 00:20:00 6.5 C 6.9 g/m*3 6.5 C 3.2 km/h
561 25-12-2014 00:25:00 6.5 C 6.82 g/m*3 4.87 C 8.1 km/h
562 25-12-2014 00:30:00 6.6 C 6.64 g/m*3 4.99 C 8.1 km/h
563 25-12-2014 00:35:00 6.7 C 6.76 g/m*3 6.7 C 4.8 km/h
564 25-12-2014 00:40:00 6.7 C 6.76 g/m*3 5.11 C 8.1 km/h
565 25-12-2014 00:45:00 6.7 C 6.76 g/m*3 6.7 C 1.6 km/h
566 25-12-2014 00:50:00 6.7 C 6.61 g/m*3 6.7 C 3.2 km/h
567 25-12-2014 00:55:00 6.7 C 6.76 g/m*3 6.7 C 3.2 km/h
568 25-12-2014 01:00:00 6.6 C 6.57 g/m*3 6.6 C 3.2 km/h
569 25-12-2014 01:05:00 6.6 C 6.72 g/m*3 6.6 C 1.6 km/h
570 25-12-2014 01:10:00 6.5 C 6.67 g/m*3 5.33 C 6.4 km/h
571 25-12-2014 01:15:00 6.5 C 6.67 g/m*3 6.5 C 4.8 km/h
572 25-12-2014 01:20:00 6.5 C 6.67 g/m*3 6.5 C 1.6 km/h
573 25-12-2014 01:25:00 6.4 C 6.48 g/m*3 6.4 C 3.2 km/h
574 25-12-2014 01:30:00 6.4 C 6.56 g/m*3 6.4 C 3.2 km/h
575 25-12-2014 01:35:00 6.3 C 6.51 g/m*3 6.3 C 1.6 km/h
Sensor: Nr:Datum:Temp:Abs-Feuchte:Windchill:Wind:
Aussen-T/F 576 25-12-2014 01:40:00 6.2 C 6.32 g/m*3 4.98 C 6.4 km/h
577 25-12-2014 01:45:00 6.2 C 6.32 g/m*3 6.2 C 4.8 km/h
578 25-12-2014 01:50:00 6.1 C 6.28 g/m*3 6.1 C 1.6 km/h
579 25-12-2014 01:55:00 6 C 6.17 g/m*3 6 C 4.8 km/h
580 25-12-2014 02:00:00 6 C 6.17 g/m*3 4.28 C 8.1 km/h
581 25-12-2014 02:05:00 6 C 5.81 g/m*3 3.06 C 14.5 km/h
582 25-12-2014 02:10:00 6.1 C 5.77 g/m*3 4.04 C 9.7 km/h
583 25-12-2014 02:15:00 6.1 C 5.7 g/m*3 4.86 C 6.4 km/h
584 25-12-2014 02:20:00 5.9 C 5.77 g/m*3 5.9 C 3.2 km/h
585 25-12-2014 02:25:00 5.7 C 5.69 g/m*3 4.4 C 6.4 km/h
586 25-12-2014 02:30:00 5.6 C 5.66 g/m*3 4.29 C 6.4 km/h
587 25-12-2014 02:35:00 5.5 C 5.62 g/m*3 4.17 C 6.4 km/h
588 25-12-2014 02:40:00 5.5 C 5.55 g/m*3 2.99 C 11.3 km/h
589 25-12-2014 02:45:00 5.4 C 5.51 g/m*3 5.4 C 4.8 km/h
590 25-12-2014 02:50:00 5.3 C 5.61 g/m*3 3.94 C 6.4 km/h
591 25-12-2014 02:55:00 5.2 C 5.78 g/m*3 5.2 C 4.8 km/h
592 25-12-2014 03:00:00 5.1 C 5.68 g/m*3 5.1 C 3.2 km/h
593 25-12-2014 03:05:00 4.9 C 5.74 g/m*3 4.9 C 3.2 km/h
594 25-12-2014 03:10:00 4.7 C 5.66 g/m*3 3.25 C 6.4 km/h
595 25-12-2014 03:15:00 4.8 C 5.63 g/m*3 4.8 C 4.8 km/h
596 25-12-2014 03:20:00 4.8 C 5.63 g/m*3 4.8 C 4.8 km/h
597 25-12-2014 03:25:00 4.8 C 5.63 g/m*3 2.87 C 8.1 km/h
598 25-12-2014 03:30:00 4.9 C 5.54 g/m*3 4.9 C 4.8 km/h
599 25-12-2014 03:35:00 5.1 C 5.61 g/m*3 5.1 C 4.8 km/h
600 25-12-2014 03:40:00 5.2 C 5.58 g/m*3 3.34 C 8.1 km/h
Sensor: Nr:Datum:Temp:Abs-Feuchte:Windchill:Wind:
Aussen-T/F 601 25-12-2014 03:45:00 5.2 C 5.58 g/m*3 3.82 C 6.4 km/h
602 25-12-2014 03:50:00 5.2 C 5.65 g/m*3 5.2 C 4.8 km/h
603 25-12-2014 03:55:00 5.2 C 5.58 g/m*3 3.34 C 8.1 km/h
604 25-12-2014 04:00:00 5.2 C 5.65 g/m*3 3.34 C 8.1 km/h
605 25-12-2014 04:05:00 5.1 C 5.61 g/m*3 3.23 C 8.1 km/h
606 25-12-2014 04:10:00 5.2 C 5.58 g/m*3 3.82 C 6.4 km/h
607 25-12-2014 04:15:00 5.2 C 5.58 g/m*3 3.34 C 8.1 km/h
608 25-12-2014 04:20:00 5.1 C 5.68 g/m*3 5.1 C 4.8 km/h
609 25-12-2014 04:25:00 5.1 C 5.68 g/m*3 5.1 C 4.8 km/h
610 25-12-2014 04:30:00 4.9 C 5.6 g/m*3 3.48 C 6.4 km/h
611 25-12-2014 04:35:00 4.9 C 5.67 g/m*3 3.48 C 6.4 km/h
612 25-12-2014 04:40:00 4.8 C 5.63 g/m*3 4.8 C 4.8 km/h
613 25-12-2014 04:45:00 4.8 C 5.63 g/m*3 3.36 C 6.4 km/h
614 25-12-2014 04:50:00 4.8 C 5.63 g/m*3 4.8 C 4.8 km/h
615 25-12-2014 04:55:00 4.8 C 5.63 g/m*3 4.8 C 4.8 km/h
616 25-12-2014 05:00:00 4.8 C 5.63 g/m*3 2.87 C 8.1 km/h
617 25-12-2014 05:05:00 4.8 C 5.7 g/m*3 3.36 C 6.4 km/h
618 25-12-2014 05:10:00 4.8 C 5.7 g/m*3 3.36 C 6.4 km/h
619 25-12-2014 05:15:00 4.8 C 5.7 g/m*3 4.8 C 4.8 km/h
620 25-12-2014 05:20:00 4.7 C 5.66 g/m*3 2.76 C 8.1 km/h
621 25-12-2014 05:25:00 4.7 C 5.66 g/m*3 3.25 C 6.4 km/h
622 25-12-2014 05:30:00 4.7 C 5.66 g/m*3 3.25 C 6.4 km/h
623 25-12-2014 05:35:00 4.7 C 5.73 g/m*3 4.7 C 3.2 km/h
624 25-12-2014 05:40:00 4.6 C 5.69 g/m*3 4.6 C 4.8 km/h
625 25-12-2014 05:45:00 4.4 C 5.68 g/m*3 4.4 C 4.8 km/h
Sensor: Nr:Datum:Temp:Abs-Feuchte:Windchill:Wind:
Aussen-T/F 626 25-12-2014 05:50:00 4.4 C 5.62 g/m*3 4.4 C 4.8 km/h
627 25-12-2014 05:55:00 4.4 C 5.68 g/m*3 4.4 C 4.8 km/h
628 25-12-2014 06:00:00 4.3 C 5.58 g/m*3 2.78 C 6.4 km/h
629 25-12-2014 06:05:00 4.3 C 5.64 g/m*3 4.3 C 4.8 km/h
630 25-12-2014 06:10:00 4.4 C 5.62 g/m*3 4.4 C 4.8 km/h
631 25-12-2014 06:15:00 4.3 C 5.58 g/m*3 4.3 C 3.2 km/h
632 25-12-2014 06:20:00 4.2 C 5.61 g/m*3 4.2 C 3.2 km/h
633 25-12-2014 06:25:00 4.1 C 5.57 g/m*3 4.1 C 3.2 km/h
634 25-12-2014 06:30:00 4 C 5.59 g/m*3 2.44 C 6.4 km/h
635 25-12-2014 06:35:00 3.9 C 5.56 g/m*3 3.9 C 3.2 km/h
636 25-12-2014 06:40:00 3.8 C 5.58 g/m*3 3.8 C 3.2 km/h
637 25-12-2014 06:45:00 3.6 C 5.51 g/m*3 3.6 C 3.2 km/h
638 25-12-2014 06:50:00 3.5 C 5.53 g/m*3 3.5 C 4.8 km/h
639 25-12-2014 06:55:00 3.4 C 5.5 g/m*3 1.23 C 8.1 km/h
640 25-12-2014 07:00:00 3.4 C 5.5 g/m*3 1.75 C 6.4 km/h
641 25-12-2014 07:05:00 3.4 C 5.5 g/m*3 3.4 C 4.8 km/h
642 25-12-2014 07:10:00 3.5 C 5.53 g/m*3 3.5 C 4.8 km/h
643 25-12-2014 07:15:00 3.7 C 5.55 g/m*3 1.58 C 8.1 km/h
644 25-12-2014 07:20:00 3.6 C 5.51 g/m*3 3.6 C 3.2 km/h
645 25-12-2014 07:25:00 3.6 C 5.51 g/m*3 1.98 C 6.4 km/h
646 25-12-2014 07:30:00 3.7 C 5.55 g/m*3 2.09 C 6.4 km/h
647 25-12-2014 07:35:00 3.8 C 5.52 g/m*3 1.7 C 8.1 km/h
648 25-12-2014 07:40:00 3.8 C 5.52 g/m*3 1.7 C 8.1 km/h
649 25-12-2014 07:45:00 3.8 C 5.52 g/m*3 2.21 C 6.4 km/h
650 25-12-2014 07:50:00 3.8 C 5.52 g/m*3 0.94 C 11.3 km/h
Sensor: Nr:Datum:Temp:Abs-Feuchte:Windchill:Wind:
Aussen-T/F 651 25-12-2014 07:55:00 3.9 C 5.49 g/m*3 1.06 C 11.3 km/h
652 25-12-2014 08:00:00 4.1 C 5.5 g/m*3 2.05 C 8.1 km/h
653 25-12-2014 08:05:00 4.2 C 5.54 g/m*3 2.17 C 8.1 km/h
654 25-12-2014 08:10:00 4.1 C 5.5 g/m*3 2.05 C 8.1 km/h
655 25-12-2014 08:15:00 4.1 C 5.57 g/m*3 2.55 C 6.4 km/h
656 25-12-2014 08:20:00 4.2 C 5.54 g/m*3 0.36 C 17.7 km/h
657 25-12-2014 08:25:00 4.2 C 5.54 g/m*3 1.12 C 12.9 km/h
658 25-12-2014 08:30:00 4.3 C 5.51 g/m*3 0.72 C 16.1 km/h
659 25-12-2014 08:35:00 4.4 C 5.55 g/m*3 1.67 C 11.3 km/h
660 25-12-2014 08:40:00 4.4 C 5.55 g/m*3 1.09 C 14.5 km/h
661 25-12-2014 08:45:00 4.4 C 5.55 g/m*3 0.61 C 17.7 km/h
662 25-12-2014 08:50:00 4.3 C 5.51 g/m*3 1.89 C 9.7 km/h
663 25-12-2014 08:55:00 4.3 C 5.51 g/m*3 1.89 C 9.7 km/h
664 25-12-2014 09:00:00 4.2 C 5.54 g/m*3 1.43 C 11.3 km/h
665 25-12-2014 09:05:00 4.1 C 5.5 g/m*3 2.05 C 8.1 km/h
666 25-12-2014 09:10:00 4.1 C 5.5 g/m*3 1.65 C 9.7 km/h
667 25-12-2014 09:15:00 4.1 C 5.5 g/m*3 4.1 C 4.8 km/h
668 25-12-2014 10:10:00 4.6 C 6.62 g/m*3 2.25 C 9.7 km/h
669 25-12-2014 10:15:00 4.7 C 5.73 g/m*3 1.73 C 12.9 km/h
670 25-12-2014 10:20:00 4.9 C 5.74 g/m*3 2.61 C 9.7 km/h
671 25-12-2014 10:25:00 5.1 C 5.75 g/m*3 2.51 C 11.3 km/h
672 25-12-2014 10:30:00 5.2 C 5.78 g/m*3 2.63 C 11.3 km/h
673 25-12-2014 10:35:00 5.2 C 5.78 g/m*3 3.82 C 6.4 km/h
674 25-12-2014 10:40:00 5.3 C 5.82 g/m*3 2.46 C 12.9 km/h
675 25-12-2014 10:45:00 5.3 C 5.75 g/m*3 3.46 C 8.1 km/h
Sensor: Nr:Datum:Temp:Abs-Feuchte:Windchill:Wind:
Aussen-T/F 676 25-12-2014 10:50:00 5.4 C 5.79 g/m*3 2.58 C 12.9 km/h
677 25-12-2014 10:55:00 5.5 C 5.83 g/m*3 3.32 C 9.7 km/h
678 25-12-2014 11:00:00 5.5 C 5.83 g/m*3 3.7 C 8.1 km/h
679 25-12-2014 11:05:00 5.6 C 5.87 g/m*3 2.83 C 12.9 km/h
680 25-12-2014 11:10:00 5.6 C 5.87 g/m*3 3.11 C 11.3 km/h
681 25-12-2014 11:15:00 5.6 C 5.8 g/m*3 2.83 C 12.9 km/h
682 25-12-2014 11:20:00 5.6 C 5.8 g/m*3 2.11 C 17.7 km/h
683 25-12-2014 11:25:00 5.6 C 5.8 g/m*3 3.11 C 11.3 km/h
684 25-12-2014 11:30:00 5.6 C 5.8 g/m*3 3.44 C 9.7 km/h
685 25-12-2014 11:35:00 5.7 C 5.91 g/m*3 3.23 C 11.3 km/h
686 25-12-2014 11:40:00 5.8 C 5.87 g/m*3 3.68 C 9.7 km/h
687 25-12-2014 11:45:00 5.8 C 5.95 g/m*3 4.52 C 6.4 km/h
688 25-12-2014 11:50:00 5.8 C 5.95 g/m*3 3.36 C 11.3 km/h
689 25-12-2014 11:55:00 5.9 C 5.91 g/m*3 4.17 C 8.1 km/h
690 25-12-2014 12:00:00 6 C 5.95 g/m*3 2.82 C 16.1 km/h
691 25-12-2014 12:05:00 6 C 5.95 g/m*3 3.6 C 11.3 km/h
692 25-12-2014 12:10:00 6 C 5.95 g/m*3 3.6 C 11.3 km/h
693 25-12-2014 12:15:00 6 C 5.95 g/m*3 3.31 C 12.9 km/h
694 25-12-2014 12:20:00 6 C 5.95 g/m*3 3.6 C 11.3 km/h
695 25-12-2014 12:25:00 5.9 C 5.98 g/m*3 3.8 C 9.7 km/h
696 25-12-2014 12:30:00 6 C 5.95 g/m*3 4.28 C 8.1 km/h
697 25-12-2014 12:35:00 6 C 6.02 g/m*3 3.92 C 9.7 km/h
698 25-12-2014 12:40:00 6 C 6.02 g/m*3 4.75 C 6.4 km/h
699 25-12-2014 12:45:00 6 C 6.02 g/m*3 6 C 4.8 km/h
700 25-12-2014 12:50:00 5.9 C 6.06 g/m*3 3.48 C 11.3 km/h
Sensor: Nr:Datum:Temp:Abs-Feuchte:Windchill:Wind:
Aussen-T/F 701 25-12-2014 12:55:00 5.9 C 6.06 g/m*3 4.63 C 6.4 km/h
702 25-12-2014 13:00:00 5.9 C 6.13 g/m*3 3.48 C 11.3 km/h
703 25-12-2014 13:05:00 5.9 C 6.13 g/m*3 3.19 C 12.9 km/h
704 25-12-2014 13:10:00 5.9 C 6.13 g/m*3 3.8 C 9.7 km/h
705 25-12-2014 13:15:00 6 C 6.17 g/m*3 6 C 4.8 km/h
706 25-12-2014 13:20:00 6 C 6.17 g/m*3 4.28 C 8.1 km/h
707 25-12-2014 13:25:00 6.1 C 6.21 g/m*3 3.43 C 12.9 km/h
708 25-12-2014 13:30:00 6.2 C 6.18 g/m*3 4.15 C 9.7 km/h
709 25-12-2014 13:35:00 6.3 C 6.22 g/m*3 5.1 C 6.4 km/h
710 25-12-2014 13:40:00 6.3 C 6.22 g/m*3 4.64 C 8.1 km/h
711 25-12-2014 13:45:00 6.3 C 6.29 g/m*3 6.3 C 4.8 km/h
712 25-12-2014 13:50:00 6.3 C 6.29 g/m*3 6.3 C 4.8 km/h
713 25-12-2014 13:55:00 6.3 C 6.22 g/m*3 5.1 C 6.4 km/h
714 25-12-2014 14:00:00 6.4 C 6.26 g/m*3 4.08 C 11.3 km/h
715 25-12-2014 14:05:00 6.4 C 6.26 g/m*3 4.75 C 8.1 km/h
716 25-12-2014 14:10:00 6.5 C 6.22 g/m*3 4.2 C 11.3 km/h
717 25-12-2014 14:15:00 6.6 C 6.27 g/m*3 6.6 C 4.8 km/h
718 25-12-2014 14:20:00 6.7 C 6.23 g/m*3 4.17 C 12.9 km/h
719 25-12-2014 14:25:00 6.8 C 6.27 g/m*3 3.82 C 16.1 km/h
720 25-12-2014 14:30:00 6.8 C 6.27 g/m*3 4.29 C 12.9 km/h
721 25-12-2014 14:35:00 6.8 C 6.27 g/m*3 4.04 C 14.5 km/h
722 25-12-2014 14:40:00 6.8 C 6.19 g/m*3 3.61 C 17.7 km/h
723 25-12-2014 14:45:00 6.9 C 6.16 g/m*3 4.41 C 12.9 km/h
724 25-12-2014 14:50:00 6.9 C 6.16 g/m*3 4.41 C 12.9 km/h
725 25-12-2014 14:55:00 7 C 6.2 g/m*3 4.29 C 14.5 km/h
Sensor: Nr:Datum:Temp:Abs-Feuchte:Windchill:Wind:
Aussen-T/F 726 25-12-2014 15:00:00 7 C 6.12 g/m*3 4.53 C 12.9 km/h
727 25-12-2014 15:05:00 7 C 6.12 g/m*3 4.53 C 12.9 km/h
728 25-12-2014 15:10:00 6.9 C 6.16 g/m*3 5.34 C 8.1 km/h
729 25-12-2014 15:15:00 6.9 C 6.16 g/m*3 4.16 C 14.5 km/h
730 25-12-2014 15:20:00 6.9 C 6.16 g/m*3 4.16 C 14.5 km/h
731 25-12-2014 15:25:00 6.9 C 6.08 g/m*3 3.94 C 16.1 km/h
732 25-12-2014 15:30:00 6.8 C 6.12 g/m*3 3.82 C 16.1 km/h
733 25-12-2014 15:35:00 6.8 C 6.12 g/m*3 4.04 C 14.5 km/h
734 25-12-2014 15:40:00 6.8 C 6.12 g/m*3 5.22 C 8.1 km/h
735 25-12-2014 15:45:00 6.8 C 6.12 g/m*3 4.56 C 11.3 km/h
736 25-12-2014 15:50:00 6.8 C 6.19 g/m*3 4.56 C 11.3 km/h
737 25-12-2014 15:55:00 6.7 C 6.23 g/m*3 4.17 C 12.9 km/h
738 25-12-2014 16:00:00 6.5 C 6.15 g/m*3 3.23 C 17.7 km/h
739 25-12-2014 16:05:00 6.4 C 6.18 g/m*3 3.8 C 12.9 km/h
740 25-12-2014 16:10:00 6.3 C 6.22 g/m*3 5.1 C 6.4 km/h
741 25-12-2014 16:15:00 6.2 C 6.18 g/m*3 3.84 C 11.3 km/h
742 25-12-2014 16:20:00 6.2 C 6.1 g/m*3 3.56 C 12.9 km/h
743 25-12-2014 16:25:00 6.3 C 6.14 g/m*3 4.64 C 8.1 km/h
744 25-12-2014 16:30:00 6.3 C 6.14 g/m*3 4.27 C 9.7 km/h
745 25-12-2014 16:35:00 6.4 C 6.11 g/m*3 4.75 C 8.1 km/h
746 25-12-2014 16:40:00 6.4 C 6.11 g/m*3 5.21 C 6.4 km/h
747 25-12-2014 16:45:00 6.3 C 6.14 g/m*3 6.3 C 3.2 km/h
748 25-12-2014 16:50:00 6.3 C 6.14 g/m*3 4.27 C 9.7 km/h
749 25-12-2014 16:55:00 6.2 C 6.25 g/m*3 2.86 C 17.7 km/h
750 25-12-2014 17:00:00 5.6 C 6.01 g/m*3 3.11 C 11.3 km/h
Sensor: Nr:Datum:Temp:Abs-Feuchte:Windchill:Wind:
Aussen-T/F 751 25-12-2014 17:05:00 5.6 C 6.01 g/m*3 3.81 C 8.1 km/h
752 25-12-2014 17:10:00 5.6 C 6.29 g/m*3 5.6 C 3.2 km/h
753 25-12-2014 17:15:00 5.6 C 6.29 g/m*3 4.29 C 6.4 km/h
754 25-12-2014 18:10:00 4.3 C 5.97 g/m*3 2.29 C 8.1 km/h
755 25-12-2014 18:15:00 4.3 C 5.97 g/m*3 2.78 C 6.4 km/h
756 25-12-2014 18:20:00 4.3 C 5.97 g/m*3 4.3 C 4.8 km/h
757 25-12-2014 18:25:00 4.3 C 5.97 g/m*3 2.78 C 6.4 km/h
758 25-12-2014 18:30:00 4.3 C 5.97 g/m*3 4.3 C 4.8 km/h
759 25-12-2014 18:35:00 4.3 C 5.97 g/m*3 2.78 C 6.4 km/h
760 25-12-2014 18:40:00 4.3 C 5.97 g/m*3 2.29 C 8.1 km/h
761 25-12-2014 19:20:00 4.2 C 5.99 g/m*3 2.17 C 8.1 km/h
762 25-12-2014 19:25:00 4.3 C 6.03 g/m*3 2.29 C 8.1 km/h
763 25-12-2014 19:30:00 4.3 C 6.03 g/m*3 2.29 C 8.1 km/h
764 25-12-2014 19:35:00 4.3 C 6.03 g/m*3 1.55 C 11.3 km/h
765 25-12-2014 19:40:00 4.3 C 6.03 g/m*3 2.78 C 6.4 km/h
766 25-12-2014 19:45:00 4.3 C 5.97 g/m*3 2.78 C 6.4 km/h
767 25-12-2014 19:50:00 4.3 C 5.97 g/m*3 2.78 C 6.4 km/h
768 25-12-2014 19:55:00 4.4 C 6.01 g/m*3 2.4 C 8.1 km/h
769 25-12-2014 20:00:00 4.4 C 6.01 g/m*3 2.4 C 8.1 km/h
770 25-12-2014 20:05:00 4.4 C 6.01 g/m*3 2.4 C 8.1 km/h
771 25-12-2014 20:10:00 4.4 C 6.01 g/m*3 2.01 C 9.7 km/h
772 25-12-2014 20:15:00 4.4 C 6.01 g/m*3 4.4 C 4.8 km/h
773 25-12-2014 20:20:00 4.4 C 6.01 g/m*3 4.4 C 4.8 km/h
774 25-12-2014 22:55:00 2.6 C 5.79 g/m*3 2.6 C 0 km/h
775 25-12-2014 23:00:00 2.6 C 5.79 g/m*3 2.6 C 0 km/h
Sensor: Nr:Datum:Temp:Abs-Feuchte:Windchill:Wind:
Aussen-T/F 776 25-12-2014 23:05:00 2.6 C 5.79 g/m*3 2.6 C 3.2 km/h
777 25-12-2014 23:45:00 1.9 C 5.3 g/m*3 1.9 C 1.6 km/h
778 25-12-2014 23:50:00 1.8 C 5.26 g/m*3 1.8 C 0 km/h
779 25-12-2014 23:55:00 1.8 C 5.26 g/m*3 1.8 C 1.6 km/h
780 26-12-2014 00:00:00 1.9 C 5.35 g/m*3 1.9 C 1.6 km/h
781 26-12-2014 00:05:00 2.1 C 5.43 g/m*3 2.1 C 1.6 km/h
782 26-12-2014 00:10:00 2.1 C 5.43 g/m*3 2.1 C 0 km/h
783 26-12-2014 00:15:00 2.1 C 5.43 g/m*3 2.1 C 0 km/h
784 26-12-2014 00:20:00 2.1 C 5.43 g/m*3 2.1 C 1.6 km/h
785 26-12-2014 00:25:00 2.1 C 5.43 g/m*3 2.1 C 0 km/h
786 26-12-2014 00:30:00 2.1 C 5.43 g/m*3 2.1 C 0 km/h
787 26-12-2014 00:35:00 2.1 C 5.43 g/m*3 2.1 C 1.6 km/h
788 26-12-2014 00:40:00 2.1 C 5.43 g/m*3 2.1 C 0 km/h
789 26-12-2014 00:45:00 2.2 C 5.46 g/m*3 2.2 C 0 km/h
790 26-12-2014 00:50:00 2.2 C 5.46 g/m*3 2.2 C 0 km/h
791 26-12-2014 00:55:00 2.2 C 5.46 g/m*3 2.2 C 0 km/h
792 26-12-2014 01:00:00 2.2 C 5.46 g/m*3 2.2 C 0 km/h
793 26-12-2014 01:05:00 2.2 C 5.46 g/m*3 2.2 C 0 km/h
794 26-12-2014 01:10:00 2.2 C 5.46 g/m*3 2.2 C 0 km/h
795 26-12-2014 01:15:00 2.2 C 5.46 g/m*3 2.2 C 0 km/h
796 26-12-2014 01:20:00 2.3 C 5.5 g/m*3 2.3 C 0 km/h
797 26-12-2014 01:25:00 2.3 C 5.5 g/m*3 0.47 C 6.4 km/h
798 26-12-2014 01:30:00 2.3 C 5.5 g/m*3 2.3 C 3.2 km/h
799 26-12-2014 01:35:00 2.2 C 5.46 g/m*3 2.2 C 4.8 km/h
800 26-12-2014 01:40:00 2.2 C 5.46 g/m*3 2.2 C 4.8 km/h
Sensor: Nr:Datum:Temp:Abs-Feuchte:Windchill:Wind:
Aussen-T/F 801 26-12-2014 01:45:00 2.2 C 5.46 g/m*3 2.2 C 1.6 km/h
802 26-12-2014 05:40:00 3.2 C 6.03 g/m*3 3.2 C 1.6 km/h
803 26-12-2014 05:45:00 3.2 C 6.03 g/m*3 3.2 C 3.2 km/h
804 26-12-2014 05:50:00 3.2 C 6.03 g/m*3 3.2 C 4.8 km/h
805 26-12-2014 10:30:00 3.2 C 6.03 g/m*3 3.2 C 4.8 km/h
806 26-12-2014 10:35:00 3.2 C 6.03 g/m*3 3.2 C 4.8 km/h
807 26-12-2014 14:05:00 3.5 C 5.84 g/m*3 3.5 C 0 km/h
808 26-12-2014 14:10:00 3.6 C 5.88 g/m*3 3.6 C 0 km/h
809 26-12-2014 14:15:00 3.6 C 5.88 g/m*3 3.6 C 0 km/h
810 26-12-2014 14:20:00 3.6 C 5.88 g/m*3 3.6 C 0 km/h
811 26-12-2014 14:40:00 3.7 C 5.92 g/m*3 3.7 C 0 km/h
812 26-12-2014 14:45:00 3.7 C 5.98 g/m*3 3.7 C 0 km/h
813 26-12-2014 14:50:00 3.8 C 6.02 g/m*3 3.8 C 0 km/h
814 26-12-2014 14:55:00 3.8 C 6.02 g/m*3 3.8 C 0 km/h
815 26-12-2014 15:00:00 3.8 C 6.02 g/m*3 3.8 C 0 km/h
816 26-12-2014 15:05:00 3.8 C 6.02 g/m*3 3.8 C 1.6 km/h
817 26-12-2014 15:10:00 3.8 C 6.02 g/m*3 3.8 C 1.6 km/h
818 26-12-2014 15:15:00 3.7 C 5.98 g/m*3 3.7 C 1.6 km/h
819 26-12-2014 15:20:00 3.7 C 5.98 g/m*3 3.7 C 0 km/h
820 26-12-2014 15:25:00 3.7 C 5.98 g/m*3 3.7 C 0 km/h
821 26-12-2014 15:30:00 3.7 C 5.98 g/m*3 3.7 C 0 km/h
822 26-12-2014 15:35:00 3.7 C 5.98 g/m*3 3.7 C 0 km/h
823 26-12-2014 15:40:00 3.7 C 5.98 g/m*3 3.7 C 0 km/h
824 26-12-2014 15:45:00 3.7 C 5.98 g/m*3 3.7 C 0 km/h
825 26-12-2014 15:50:00 3.7 C 5.98 g/m*3 3.7 C 0 km/h
Sensor: Nr:Datum:Temp:Abs-Feuchte:Windchill:Wind:
Aussen-T/F 826 26-12-2014 15:55:00 3.6 C 5.94 g/m*3 3.6 C 0 km/h
827 26-12-2014 16:00:00 3.5 C 5.9 g/m*3 3.5 C 0 km/h
828 26-12-2014 16:05:00 3.4 C 5.86 g/m*3 3.4 C 0 km/h
829 26-12-2014 16:10:00 3.3 C 5.82 g/m*3 3.3 C 0 km/h
830 26-12-2014 16:15:00 3.2 C 5.79 g/m*3 3.2 C 0 km/h
831 26-12-2014 16:20:00 3.1 C 5.75 g/m*3 3.1 C 0 km/h
832 26-12-2014 16:25:00 3.1 C 5.75 g/m*3 3.1 C 0 km/h
833 26-12-2014 16:30:00 3 C 5.71 g/m*3 3 C 0 km/h
834 26-12-2014 16:35:00 2.9 C 5.67 g/m*3 2.9 C 1.6 km/h
835 26-12-2014 16:40:00 2.9 C 5.67 g/m*3 2.9 C 1.6 km/h
836 26-12-2014 16:45:00 2.9 C 5.67 g/m*3 2.9 C 0 km/h
837 26-12-2014 16:50:00 2.8 C 5.63 g/m*3 2.8 C 0 km/h
838 26-12-2014 16:55:00 2.8 C 5.69 g/m*3 2.8 C 0 km/h
839 26-12-2014 17:00:00 2.9 C 5.73 g/m*3 2.9 C 0 km/h
840 26-12-2014 17:05:00 2.9 C 5.73 g/m*3 2.9 C 0 km/h
841 26-12-2014 17:10:00 2.9 C 5.73 g/m*3 2.9 C 0 km/h
842 26-12-2014 17:15:00 2.9 C 5.73 g/m*3 2.9 C 0 km/h
843 26-12-2014 17:20:00 2.9 C 5.73 g/m*3 2.9 C 1.6 km/h
844 26-12-2014 17:25:00 3.1 C 5.81 g/m*3 3.1 C 1.6 km/h
845 26-12-2014 17:30:00 3.1 C 5.81 g/m*3 3.1 C 0 km/h
846 26-12-2014 17:35:00 2.9 C 5.73 g/m*3 2.9 C 0 km/h
847 26-12-2014 17:40:00 2.7 C 5.65 g/m*3 2.7 C 0 km/h
848 26-12-2014 17:45:00 2.4 C 5.48 g/m*3 2.4 C 0 km/h
849 26-12-2014 17:50:00 2.3 C 5.44 g/m*3 2.3 C 0 km/h
850 26-12-2014 17:55:00 2.1 C 5.37 g/m*3 2.1 C 0 km/h
Sensor: Nr:Datum:Temp:Abs-Feuchte:Windchill:Wind:
Aussen-T/F 851 26-12-2014 18:00:00 2 C 5.33 g/m*3 2 C 0 km/h
852 26-12-2014 18:05:00 1.9 C 5.35 g/m*3 1.9 C 0 km/h
853 26-12-2014 18:10:00 1.8 C 5.32 g/m*3 1.8 C 0 km/h
854 26-12-2014 18:15:00 1.7 C 5.23 g/m*3 1.7 C 0 km/h
855 26-12-2014 18:20:00 1.7 C 5.28 g/m*3 1.7 C 0 km/h
856 26-12-2014 18:25:00 1.6 C 5.25 g/m*3 1.6 C 0 km/h
857 26-12-2014 18:30:00 1.6 C 5.25 g/m*3 1.6 C 0 km/h
858 26-12-2014 18:35:00 1.6 C 5.25 g/m*3 1.6 C 0 km/h
859 26-12-2014 18:40:00 1.6 C 5.25 g/m*3 1.6 C 0 km/h
860 26-12-2014 18:45:00 1.5 C 5.21 g/m*3 1.5 C 0 km/h
861 26-12-2014 18:50:00 1.5 C 5.21 g/m*3 1.5 C 0 km/h
862 26-12-2014 18:55:00 1.6 C 5.25 g/m*3 1.6 C 0 km/h
863 26-12-2014 19:00:00 1.6 C 5.25 g/m*3 1.6 C 0 km/h
864 26-12-2014 19:05:00 1.5 C 5.21 g/m*3 1.5 C 0 km/h
865 26-12-2014 19:10:00 1.4 C 5.17 g/m*3 1.4 C 0 km/h
866 26-12-2014 19:15:00 1.3 C 5.14 g/m*3 1.3 C 0 km/h
867 26-12-2014 19:20:00 1.3 C 5.14 g/m*3 1.3 C 0 km/h
868 26-12-2014 19:25:00 1.3 C 5.14 g/m*3 1.3 C 0 km/h
869 26-12-2014 19:30:00 1.3 C 5.14 g/m*3 1.3 C 1.6 km/h
870 26-12-2014 19:35:00 1.3 C 5.14 g/m*3 1.3 C 0 km/h
871 26-12-2014 19:40:00 1.4 C 5.17 g/m*3 1.4 C 0 km/h
872 26-12-2014 19:45:00 1.4 C 5.17 g/m*3 1.4 C 1.6 km/h
873 26-12-2014 19:50:00 1.3 C 5.14 g/m*3 1.3 C 0 km/h
874 26-12-2014 19:55:00 1.3 C 5.14 g/m*3 1.3 C 0 km/h
875 26-12-2014 20:00:00 1.3 C 5.14 g/m*3 1.3 C 0 km/h
Sensor: Nr:Datum:Temp:Abs-Feuchte:Windchill:Wind:
Aussen-T/F 876 26-12-2014 20:05:00 1.3 C 5.14 g/m*3 1.3 C 0 km/h
877 26-12-2014 20:10:00 1.3 C 5.14 g/m*3 1.3 C 0 km/h
878 26-12-2014 20:15:00 1.4 C 5.17 g/m*3 1.4 C 1.6 km/h
879 26-12-2014 20:20:00 1.6 C 5.3 g/m*3 1.6 C 0 km/h
880 26-12-2014 20:25:00 1.6 C 5.3 g/m*3 1.6 C 0 km/h
881 26-12-2014 20:30:00 1.6 C 5.3 g/m*3 1.6 C 1.6 km/h
882 26-12-2014 20:35:00 1.6 C 5.3 g/m*3 1.6 C 1.6 km/h
883 26-12-2014 20:40:00 1.6 C 5.3 g/m*3 1.6 C 3.2 km/h
884 26-12-2014 20:45:00 1.6 C 5.3 g/m*3 1.6 C 1.6 km/h
885 26-12-2014 20:50:00 1.5 C 5.26 g/m*3 1.5 C 1.6 km/h
886 26-12-2014 20:55:00 1.5 C 5.26 g/m*3 1.5 C 1.6 km/h
887 26-12-2014 21:00:00 1.6 C 5.3 g/m*3 1.6 C 1.6 km/h
888 26-12-2014 21:05:00 1.6 C 5.3 g/m*3 1.6 C 1.6 km/h
889 26-12-2014 21:10:00 1.7 C 5.34 g/m*3 1.7 C 1.6 km/h
890 26-12-2014 21:15:00 1.7 C 5.34 g/m*3 1.7 C 3.2 km/h
891 26-12-2014 21:20:00 1.7 C 5.34 g/m*3 1.7 C 1.6 km/h
892 26-12-2014 21:25:00 1.8 C 5.37 g/m*3 1.8 C 3.2 km/h
893 26-12-2014 21:30:00 1.8 C 5.37 g/m*3 1.8 C 1.6 km/h
894 26-12-2014 21:35:00 2 C 5.45 g/m*3 2 C 3.2 km/h
895 26-12-2014 21:40:00 2.1 C 5.48 g/m*3 2.1 C 1.6 km/h
896 26-12-2014 21:45:00 2.2 C 5.52 g/m*3 2.2 C 3.2 km/h
897 26-12-2014 21:50:00 2.2 C 5.52 g/m*3 2.2 C 0 km/h
898 26-12-2014 21:55:00 2.2 C 5.52 g/m*3 2.2 C 0 km/h
899 26-12-2014 22:00:00 2.2 C 5.52 g/m*3 2.2 C 0 km/h
900 26-12-2014 22:05:00 2.2 C 5.52 g/m*3 2.2 C 1.6 km/h
Sensor: Nr:Datum:Temp:Abs-Feuchte:Windchill:Wind:
Aussen-T/F 901 26-12-2014 22:10:00 2.2 C 5.52 g/m*3 2.2 C 0 km/h
902 26-12-2014 22:15:00 2.1 C 5.48 g/m*3 2.1 C 3.2 km/h
903 26-12-2014 22:20:00 2.1 C 5.48 g/m*3 2.1 C 1.6 km/h
904 26-12-2014 22:25:00 2.1 C 5.48 g/m*3 2.1 C 0 km/h
905 26-12-2014 22:30:00 2.1 C 5.48 g/m*3 2.1 C 0 km/h
906 26-12-2014 22:35:00 2.1 C 5.48 g/m*3 2.1 C 0 km/h
907 26-12-2014 22:40:00 2 C 5.45 g/m*3 2 C 0 km/h
908 26-12-2014 22:45:00 2 C 5.45 g/m*3 2 C 0 km/h
909 26-12-2014 22:50:00 1.9 C 5.41 g/m*3 1.9 C 0 km/h
910 26-12-2014 22:55:00 1.9 C 5.41 g/m*3 1.9 C 0 km/h
911 26-12-2014 23:00:00 1.9 C 5.41 g/m*3 1.9 C 0 km/h
912 26-12-2014 23:05:00 1.9 C 5.41 g/m*3 1.9 C 0 km/h
913 26-12-2014 23:10:00 1.8 C 5.37 g/m*3 1.8 C 0 km/h
914 26-12-2014 23:15:00 1.8 C 5.37 g/m*3 1.8 C 0 km/h
915 26-12-2014 23:20:00 1.8 C 5.37 g/m*3 1.8 C 0 km/h
916 26-12-2014 23:25:00 1.8 C 5.37 g/m*3 1.8 C 0 km/h
917 26-12-2014 23:30:00 1.8 C 5.37 g/m*3 1.8 C 0 km/h
918 26-12-2014 23:35:00 1.8 C 5.37 g/m*3 1.8 C 0 km/h
919 26-12-2014 23:40:00 1.7 C 5.34 g/m*3 1.7 C 0 km/h
920 26-12-2014 23:45:00 1.7 C 5.34 g/m*3 1.7 C 0 km/h
921 26-12-2014 23:50:00 1.8 C 5.37 g/m*3 1.8 C 3.2 km/h
922 26-12-2014 23:55:00 1.8 C 5.37 g/m*3 1.8 C 0 km/h
923 27-12-2014 00:00:00 1.8 C 5.37 g/m*3 1.8 C 3.2 km/h
924 27-12-2014 00:05:00 1.8 C 5.37 g/m*3 1.8 C 0 km/h
925 27-12-2014 00:10:00 1.8 C 5.37 g/m*3 1.8 C 0 km/h
Sensor: Nr:Datum:Temp:Abs-Feuchte:Windchill:Wind:
Aussen-T/F 926 27-12-2014 00:15:00 1.8 C 5.37 g/m*3 1.8 C 0 km/h
927 27-12-2014 00:20:00 1.8 C 5.37 g/m*3 1.8 C 1.6 km/h
928 27-12-2014 00:25:00 1.8 C 5.37 g/m*3 1.8 C 0 km/h
929 27-12-2014 00:30:00 1.8 C 5.32 g/m*3 1.8 C 0 km/h
930 27-12-2014 00:35:00 1.8 C 5.32 g/m*3 1.8 C 0 km/h
931 27-12-2014 00:40:00 1.8 C 5.32 g/m*3 1.8 C 0 km/h
932 27-12-2014 00:45:00 1.8 C 5.32 g/m*3 1.8 C 1.6 km/h
933 27-12-2014 00:50:00 1.8 C 5.37 g/m*3 1.8 C 0 km/h
934 27-12-2014 00:55:00 1.8 C 5.32 g/m*3 1.8 C 1.6 km/h
935 27-12-2014 01:00:00 1.7 C 5.28 g/m*3 1.7 C 0 km/h
936 27-12-2014 01:05:00 1.7 C 5.28 g/m*3 1.7 C 0 km/h
937 27-12-2014 01:10:00 1.7 C 5.28 g/m*3 1.7 C 3.2 km/h
938 27-12-2014 01:15:00 1.7 C 5.28 g/m*3 1.7 C 1.6 km/h
939 27-12-2014 01:20:00 1.7 C 5.28 g/m*3 1.7 C 0 km/h
940 27-12-2014 01:25:00 1.7 C 5.28 g/m*3 1.7 C 3.2 km/h
941 27-12-2014 01:30:00 1.7 C 5.28 g/m*3 1.7 C 3.2 km/h
942 27-12-2014 01:35:00 1.7 C 5.34 g/m*3 1.7 C 3.2 km/h
943 27-12-2014 01:40:00 1.7 C 5.34 g/m*3 1.7 C 1.6 km/h
944 27-12-2014 01:45:00 1.7 C 5.34 g/m*3 1.7 C 0 km/h
945 27-12-2014 01:50:00 1.7 C 5.28 g/m*3 1.7 C 1.6 km/h
946 27-12-2014 01:55:00 1.8 C 5.37 g/m*3 1.8 C 3.2 km/h
947 27-12-2014 02:00:00 1.8 C 5.37 g/m*3 1.8 C 3.2 km/h
948 27-12-2014 02:05:00 1.8 C 5.32 g/m*3 1.8 C 0 km/h
949 27-12-2014 02:10:00 1.8 C 5.37 g/m*3 1.8 C 1.6 km/h
950 27-12-2014 02:15:00 1.8 C 5.37 g/m*3 1.8 C 0 km/h
Sensor: Nr:Datum:Temp:Abs-Feuchte:Windchill:Wind:
Aussen-T/F 951 27-12-2014 02:20:00 1.8 C 5.37 g/m*3 1.8 C 0 km/h
952 27-12-2014 02:25:00 1.8 C 5.37 g/m*3 1.8 C 3.2 km/h
953 27-12-2014 02:30:00 1.9 C 5.41 g/m*3 1.9 C 1.6 km/h
954 27-12-2014 02:35:00 1.9 C 5.41 g/m*3 1.9 C 1.6 km/h
955 27-12-2014 02:40:00 1.9 C 5.41 g/m*3 1.9 C 4.8 km/h
956 27-12-2014 02:45:00 1.9 C 5.35 g/m*3 1.9 C 4.8 km/h
957 27-12-2014 02:50:00 1.9 C 5.35 g/m*3 1.9 C 1.6 km/h
958 27-12-2014 02:55:00 1.9 C 5.35 g/m*3 1.9 C 0 km/h
959 27-12-2014 03:00:00 1.9 C 5.35 g/m*3 1.9 C 1.6 km/h
960 27-12-2014 03:05:00 1.9 C 5.35 g/m*3 1.9 C 0 km/h
961 27-12-2014 03:10:00 2 C 5.39 g/m*3 2 C 0 km/h
962 27-12-2014 03:15:00 1.9 C 5.35 g/m*3 1.9 C 3.2 km/h
963 27-12-2014 03:20:00 1.9 C 5.35 g/m*3 1.9 C 3.2 km/h
964 27-12-2014 03:25:00 1.9 C 5.35 g/m*3 1.9 C 1.6 km/h
965 27-12-2014 03:30:00 2 C 5.39 g/m*3 2 C 1.6 km/h
966 27-12-2014 03:35:00 2 C 5.39 g/m*3 2 C 0 km/h
967 27-12-2014 03:40:00 2.1 C 5.43 g/m*3 2.1 C 0 km/h
968 27-12-2014 03:45:00 2.1 C 5.43 g/m*3 2.1 C 0 km/h
969 27-12-2014 03:50:00 2.1 C 5.43 g/m*3 2.1 C 1.6 km/h
970 27-12-2014 03:55:00 2.1 C 5.43 g/m*3 2.1 C 1.6 km/h
971 27-12-2014 04:00:00 2.2 C 5.46 g/m*3 2.2 C 3.2 km/h
972 27-12-2014 04:05:00 2.2 C 5.46 g/m*3 2.2 C 1.6 km/h
973 27-12-2014 04:10:00 2.2 C 5.46 g/m*3 2.2 C 0 km/h
974 27-12-2014 04:15:00 2.2 C 5.46 g/m*3 2.2 C 4.8 km/h
975 27-12-2014 04:20:00 2.3 C 5.5 g/m*3 2.3 C 4.8 km/h
Sensor: Nr:Datum:Temp:Abs-Feuchte:Windchill:Wind:
Aussen-T/F 976 27-12-2014 04:25:00 2.3 C 5.5 g/m*3 2.3 C 3.2 km/h
977 27-12-2014 04:30:00 2.3 C 5.5 g/m*3 2.3 C 1.6 km/h
978 27-12-2014 05:45:00 1.8 C 5.21 g/m*3 1.8 C 3.2 km/h
979 27-12-2014 05:50:00 1.8 C 5.21 g/m*3 -0.1 C 6.4 km/h
980 27-12-2014 05:55:00 1.8 C 5.21 g/m*3 -2.11 C 14.5 km/h
981 27-12-2014 06:00:00 1.8 C 5.21 g/m*3 1.8 C 4.8 km/h
982 27-12-2014 06:05:00 1.8 C 5.21 g/m*3 1.8 C 4.8 km/h
983 27-12-2014 06:10:00 1.8 C 5.21 g/m*3 1.8 C 4.8 km/h
984 27-12-2014 06:15:00 1.8 C 5.21 g/m*3 1.8 C 4.8 km/h
985 27-12-2014 06:20:00 1.8 C 5.21 g/m*3 1.8 C 3.2 km/h
986 27-12-2014 06:25:00 1.8 C 5.21 g/m*3 -1.09 C 9.7 km/h
987 27-12-2014 06:30:00 1.8 C 5.21 g/m*3 -0.1 C 6.4 km/h
988 27-12-2014 06:50:00 1.7 C 5.17 g/m*3 -0.22 C 6.4 km/h
989 27-12-2014 06:55:00 1.6 C 5.14 g/m*3 -0.89 C 8.1 km/h
990 27-12-2014 07:00:00 1.6 C 5.14 g/m*3 -0.89 C 8.1 km/h
991 27-12-2014 07:05:00 1.6 C 5.14 g/m*3 -1.33 C 9.7 km/h
992 27-12-2014 07:10:00 1.6 C 5.14 g/m*3 -0.89 C 8.1 km/h
993 27-12-2014 07:30:00 1.4 C 5.07 g/m*3 -0.56 C 6.4 km/h
994 27-12-2014 07:35:00 1.3 C 5.03 g/m*3 -1.69 C 9.7 km/h
995 27-12-2014 07:40:00 1.3 C 5.03 g/m*3 -1.69 C 9.7 km/h
996 27-12-2014 07:45:00 1.3 C 5.03 g/m*3 -2.07 C 11.3 km/h
997 27-12-2014 07:50:00 1.3 C 5.03 g/m*3 -0.68 C 6.4 km/h
998 27-12-2014 07:55:00 1.3 C 5.03 g/m*3 -2.41 C 12.9 km/h
999 27-12-2014 08:00:00 1.3 C 5.03 g/m*3 -2.41 C 12.9 km/h
1000 27-12-2014 08:05:00 1.3 C 5.03 g/m*3 -2.07 C 11.3 km/h
Sensor: Nr:Datum:Temp:Abs-Feuchte:Windchill:Wind:
Aussen-T/F 1001 27-12-2014 08:10:00 1.3 C 5.03 g/m*3 -2.41 C 12.9 km/h
1002 27-12-2014 09:05:00 1.3 C 4.98 g/m*3 -1.69 C 9.7 km/h
1003 27-12-2014 09:10:00 1.3 C 5.03 g/m*3 -1.24 C 8.1 km/h
1004 27-12-2014 09:15:00 1.2 C 5 g/m*3 -2.19 C 11.3 km/h
1005 27-12-2014 09:20:00 1.2 C 5 g/m*3 -1.36 C 8.1 km/h
1006 27-12-2014 09:25:00 1.1 C 4.96 g/m*3 -0.91 C 6.4 km/h
1007 27-12-2014 09:30:00 1.2 C 5 g/m*3 -0.8 C 6.4 km/h
1008 27-12-2014 09:35:00 1.2 C 5.05 g/m*3 -1.8 C 9.7 km/h
1009 27-12-2014 09:40:00 1.2 C 5 g/m*3 -1.36 C 8.1 km/h
1010 27-12-2014 09:45:00 1.2 C 5 g/m*3 -1.8 C 9.7 km/h
1011 27-12-2014 09:50:00 1.2 C 5 g/m*3 -1.36 C 8.1 km/h
1012 27-12-2014 09:55:00 1.3 C 5.03 g/m*3 1.3 C 4.8 km/h
1013 27-12-2014 10:00:00 1.3 C 5.03 g/m*3 1.3 C 4.8 km/h
1014 27-12-2014 10:05:00 1.3 C 5.03 g/m*3 -1.24 C 8.1 km/h
1015 27-12-2014 10:10:00 1.3 C 5.03 g/m*3 -1.24 C 8.1 km/h
1016 27-12-2014 10:15:00 1.3 C 5.03 g/m*3 -0.68 C 6.4 km/h
1017 27-12-2014 10:20:00 1.3 C 5.03 g/m*3 1.3 C 4.8 km/h
1018 27-12-2014 10:25:00 1.3 C 5.03 g/m*3 1.3 C 4.8 km/h
1019 27-12-2014 10:30:00 1.3 C 5.09 g/m*3 -1.24 C 8.1 km/h
1020 27-12-2014 10:35:00 1.3 C 5.09 g/m*3 -0.68 C 6.4 km/h
1021 27-12-2014 10:40:00 1.4 C 5.12 g/m*3 -0.56 C 6.4 km/h
1022 27-12-2014 10:45:00 1.4 C 5.12 g/m*3 -1.12 C 8.1 km/h
1023 27-12-2014 10:50:00 1.4 C 5.12 g/m*3 1.4 C 4.8 km/h
1024 27-12-2014 10:55:00 1.5 C 5.16 g/m*3 -1.45 C 9.7 km/h
1025 27-12-2014 11:00:00 1.5 C 5.16 g/m*3 -0.45 C 6.4 km/h
Sensor: Nr:Datum:Temp:Abs-Feuchte:Windchill:Wind:
Aussen-T/F 1026 27-12-2014 11:05:00 1.5 C 5.16 g/m*3 -1.01 C 8.1 km/h
1027 27-12-2014 11:10:00 1.6 C 5.19 g/m*3 -0.33 C 6.4 km/h
1028 27-12-2014 11:15:00 1.6 C 5.14 g/m*3 -0.33 C 6.4 km/h
1029 27-12-2014 11:20:00 1.6 C 5.14 g/m*3 -0.89 C 8.1 km/h
1030 27-12-2014 11:25:00 1.6 C 5.14 g/m*3 -1.33 C 9.7 km/h
1031 27-12-2014 12:05:00 1.3 C 5.09 g/m*3 1.3 C 4.8 km/h
1032 27-12-2014 12:10:00 1.3 C 5.09 g/m*3 -1.24 C 8.1 km/h
1033 27-12-2014 12:15:00 1.3 C 5.09 g/m*3 1.3 C 3.2 km/h
1034 27-12-2014 12:20:00 1.3 C 5.09 g/m*3 -1.69 C 9.7 km/h
1035 27-12-2014 12:25:00 1.3 C 5.09 g/m*3 -0.68 C 6.4 km/h
1036 27-12-2014 12:30:00 1.3 C 5.09 g/m*3 -1.24 C 8.1 km/h
1037 27-12-2014 12:35:00 1.3 C 5.09 g/m*3 1.3 C 4.8 km/h
1038 27-12-2014 12:40:00 1.3 C 5.09 g/m*3 1.3 C 4.8 km/h
1039 27-12-2014 12:45:00 1.3 C 5.09 g/m*3 -1.24 C 8.1 km/h
1040 27-12-2014 12:50:00 1.5 C 5.16 g/m*3 -1.01 C 8.1 km/h
1041 27-12-2014 12:55:00 1.6 C 5.19 g/m*3 1.6 C 4.8 km/h
1042 27-12-2014 13:00:00 1.6 C 5.19 g/m*3 1.6 C 4.8 km/h
1043 27-12-2014 13:40:00 1.9 C 5.24 g/m*3 -0.54 C 8.1 km/h
1044 27-12-2014 13:45:00 1.9 C 5.24 g/m*3 0.01 C 6.4 km/h
1045 27-12-2014 13:50:00 1.9 C 5.24 g/m*3 1.9 C 3.2 km/h
1046 27-12-2014 13:55:00 1.9 C 5.24 g/m*3 1.9 C 4.8 km/h
1047 27-12-2014 14:00:00 1.9 C 5.24 g/m*3 1.9 C 4.8 km/h
1048 27-12-2014 14:20:00 2.1 C 5.31 g/m*3 2.1 C 3.2 km/h
1049 27-12-2014 14:25:00 2.1 C 5.31 g/m*3 2.1 C 1.6 km/h
1050 27-12-2014 14:30:00 2.1 C 5.31 g/m*3 2.1 C 1.6 km/h
Sensor: Nr:Datum:Temp:Abs-Feuchte:Windchill:Wind:
Aussen-T/F 1051 27-12-2014 14:35:00 2.2 C 5.35 g/m*3 2.2 C 1.6 km/h
1052 27-12-2014 14:40:00 2.2 C 5.35 g/m*3 2.2 C 1.6 km/h
1053 27-12-2014 14:45:00 2.2 C 5.35 g/m*3 2.2 C 1.6 km/h
1054 27-12-2014 14:50:00 2.2 C 5.29 g/m*3 2.2 C 3.2 km/h
1055 27-12-2014 14:55:00 2.2 C 5.29 g/m*3 2.2 C 1.6 km/h
1056 27-12-2014 15:00:00 2.2 C 5.29 g/m*3 -0.18 C 8.1 km/h
1057 27-12-2014 15:05:00 2.2 C 5.29 g/m*3 2.2 C 1.6 km/h
1058 27-12-2014 15:10:00 2.3 C 5.33 g/m*3 2.3 C 4.8 km/h
1059 27-12-2014 15:15:00 2.3 C 5.33 g/m*3 2.3 C 3.2 km/h
1060 27-12-2014 15:20:00 2.3 C 5.33 g/m*3 -0.07 C 8.1 km/h
1061 27-12-2014 15:25:00 2.3 C 5.33 g/m*3 2.3 C 1.6 km/h
1062 27-12-2014 15:30:00 2.3 C 5.33 g/m*3 2.3 C 3.2 km/h
1063 27-12-2014 15:35:00 2.1 C 5.26 g/m*3 2.1 C 3.2 km/h
1064 27-12-2014 15:40:00 2.1 C 5.26 g/m*3 0.24 C 6.4 km/h
1065 27-12-2014 15:45:00 2.1 C 5.26 g/m*3 2.1 C 4.8 km/h
1066 27-12-2014 15:50:00 1.9 C 5.19 g/m*3 1.9 C 4.8 km/h
1067 27-12-2014 15:55:00 1.8 C 5.15 g/m*3 1.8 C 4.8 km/h
1068 27-12-2014 16:00:00 1.8 C 5.21 g/m*3 -0.1 C 6.4 km/h
1069 27-12-2014 16:05:00 1.8 C 5.21 g/m*3 1.8 C 4.8 km/h
1070 27-12-2014 16:10:00 1.7 C 5.17 g/m*3 -0.77 C 8.1 km/h
1071 27-12-2014 16:15:00 1.7 C 5.17 g/m*3 -1.59 C 11.3 km/h
1072 27-12-2014 16:20:00 1.7 C 5.17 g/m*3 -0.22 C 6.4 km/h
1073 27-12-2014 16:25:00 1.7 C 5.17 g/m*3 1.7 C 4.8 km/h
1074 27-12-2014 16:30:00 1.7 C 5.17 g/m*3 -0.22 C 6.4 km/h
1075 27-12-2014 16:35:00 1.7 C 5.17 g/m*3 1.7 C 3.2 km/h
Sensor: Nr:Datum:Temp:Abs-Feuchte:Windchill:Wind:
Aussen-T/F 1076 27-12-2014 18:55:00 0.8 C 4.81 g/m*3 0.8 C 3.2 km/h
1077 27-12-2014 19:00:00 0.8 C 4.76 g/m*3 -3.62 C 16.1 km/h
1078 27-12-2014 19:05:00 0.7 C 4.73 g/m*3 0.7 C 3.2 km/h
1079 27-12-2014 19:10:00 0.7 C 4.73 g/m*3 -3.15 C 12.9 km/h
1080 27-12-2014 19:15:00 0.7 C 4.73 g/m*3 0.7 C 4.8 km/h
1081 27-12-2014 19:20:00 0.6 C 4.65 g/m*3 -1.49 C 6.4 km/h
1082 27-12-2014 19:25:00 0.6 C 4.65 g/m*3 0.6 C 1.6 km/h
1083 27-12-2014 19:30:00 0.6 C 4.65 g/m*3 -2.06 C 8.1 km/h
1084 27-12-2014 19:35:00 0.6 C 4.65 g/m*3 -2.52 C 9.7 km/h
1085 27-12-2014 19:40:00 0.6 C 4.65 g/m*3 -1.49 C 6.4 km/h
1086 27-12-2014 19:45:00 0.6 C 4.65 g/m*3 -1.49 C 6.4 km/h
1087 27-12-2014 19:50:00 0.5 C 4.61 g/m*3 -3.39 C 12.9 km/h
1088 27-12-2014 19:55:00 0.5 C 4.61 g/m*3 -2.18 C 8.1 km/h
1089 27-12-2014 20:00:00 0.4 C 4.53 g/m*3 -3.16 C 11.3 km/h
1090 27-12-2014 20:05:00 0.4 C 4.53 g/m*3 -3.16 C 11.3 km/h
1091 27-12-2014 20:10:00 0.4 C 4.53 g/m*3 -1.72 C 6.4 km/h
1092 27-12-2014 20:15:00 0.4 C 4.53 g/m*3 -2.76 C 9.7 km/h
1093 27-12-2014 20:20:00 0.4 C 4.53 g/m*3 -2.76 C 9.7 km/h
1094 27-12-2014 20:25:00 0.4 C 4.48 g/m*3 -2.76 C 9.7 km/h
1095 27-12-2014 20:30:00 0.4 C 4.48 g/m*3 -2.3 C 8.1 km/h
1096 27-12-2014 20:35:00 0.3 C 4.45 g/m*3 -3.28 C 11.3 km/h
1097 27-12-2014 20:40:00 0.3 C 4.45 g/m*3 -2.42 C 8.1 km/h
1098 27-12-2014 20:45:00 0.3 C 4.45 g/m*3 -2.42 C 8.1 km/h
1099 27-12-2014 20:50:00 0.3 C 4.45 g/m*3 -1.84 C 6.4 km/h
1100 27-12-2014 20:55:00 0.3 C 4.45 g/m*3 -1.84 C 6.4 km/h
Sensor: Nr:Datum:Temp:Abs-Feuchte:Windchill:Wind:
Aussen-T/F 1101 27-12-2014 21:00:00 0.3 C 4.45 g/m*3 0.3 C 4.8 km/h
1102 27-12-2014 21:05:00 0.3 C 4.45 g/m*3 -1.84 C 6.4 km/h
1103 27-12-2014 21:10:00 0.3 C 4.45 g/m*3 -2.42 C 8.1 km/h
1104 27-12-2014 21:15:00 0.3 C 4.45 g/m*3 0.3 C 1.6 km/h
1105 27-12-2014 21:20:00 0.3 C 4.45 g/m*3 -2.42 C 8.1 km/h
1106 27-12-2014 21:25:00 0.3 C 4.45 g/m*3 0.3 C 4.8 km/h
1107 27-12-2014 21:30:00 0.3 C 4.4 g/m*3 -1.84 C 6.4 km/h
1108 27-12-2014 21:35:00 0.3 C 4.4 g/m*3 0.3 C 3.2 km/h
1109 27-12-2014 21:40:00 0.3 C 4.45 g/m*3 0.3 C 1.6 km/h
1110 27-12-2014 21:45:00 0.3 C 4.4 g/m*3 -2.42 C 8.1 km/h
1111 27-12-2014 21:50:00 0.3 C 4.4 g/m*3 0.3 C 4.8 km/h
1112 27-12-2014 21:55:00 0.3 C 4.4 g/m*3 -2.88 C 9.7 km/h
1113 27-12-2014 22:00:00 0.3 C 4.4 g/m*3 -3.28 C 11.3 km/h
1114 28-12-2014 05:40:00 -2 C 3.29 g/m*3 -5.62 C 9.7 km/h
1115 28-12-2014 05:45:00 -2 C 3.29 g/m*3 -5.62 C 9.7 km/h
1116 28-12-2014 05:50:00 -2 C 3.33 g/m*3 -5.62 C 9.7 km/h
1117 28-12-2014 05:55:00 -2 C 3.33 g/m*3 -6.43 C 12.9 km/h
1118 28-12-2014 06:00:00 -2.1 C 3.31 g/m*3 -6.17 C 11.3 km/h
1119 28-12-2014 06:05:00 -2.1 C 3.31 g/m*3 -6.9 C 14.5 km/h
1120 28-12-2014 06:10:00 -2.2 C 3.28 g/m*3 -6.68 C 12.9 km/h
1121 28-12-2014 06:15:00 -2.2 C 3.28 g/m*3 -5.86 C 9.7 km/h
1122 28-12-2014 06:20:00 -2.2 C 3.24 g/m*3 -7.34 C 16.1 km/h
1123 28-12-2014 06:25:00 -2.2 C 3.28 g/m*3 -6.29 C 11.3 km/h
1124 28-12-2014 06:30:00 -2.2 C 3.28 g/m*3 -6.29 C 11.3 km/h
1125 28-12-2014 06:35:00 -2.2 C 3.28 g/m*3 -6.29 C 11.3 km/h
Sensor: Nr:Datum:Temp:Abs-Feuchte:Windchill:Wind:
Aussen-T/F 1126 28-12-2014 06:40:00 -2.3 C 3.26 g/m*3 -6.8 C 12.9 km/h
1127 28-12-2014 06:45:00 -2.3 C 3.26 g/m*3 -7.15 C 14.5 km/h
1128 28-12-2014 06:50:00 -2.3 C 3.26 g/m*3 -6.41 C 11.3 km/h
1129 28-12-2014 06:55:00 -2.3 C 3.26 g/m*3 -5.98 C 9.7 km/h
1130 28-12-2014 07:00:00 -2.3 C 3.26 g/m*3 -5.98 C 9.7 km/h
1131 28-12-2014 07:05:00 -2.3 C 3.3 g/m*3 -6.8 C 12.9 km/h
1132 28-12-2014 07:10:00 -2.3 C 3.3 g/m*3 -5.98 C 9.7 km/h
1133 28-12-2014 07:15:00 -2.4 C 3.28 g/m*3 -6.53 C 11.3 km/h
1134 28-12-2014 07:20:00 -2.4 C 3.28 g/m*3 -4.95 C 6.4 km/h
1135 28-12-2014 07:25:00 -2.4 C 3.28 g/m*3 -5.59 C 8.1 km/h
1136 28-12-2014 07:30:00 -2.5 C 3.26 g/m*3 -5.71 C 8.1 km/h
1137 28-12-2014 07:35:00 -2.5 C 3.3 g/m*3 -7.04 C 12.9 km/h
1138 28-12-2014 07:40:00 -2.6 C 3.27 g/m*3 -7.17 C 12.9 km/h
1139 28-12-2014 07:45:00 -2.7 C 3.25 g/m*3 -6.9 C 11.3 km/h
1140 28-12-2014 07:50:00 -2.8 C 3.23 g/m*3 -7.76 C 14.5 km/h
1141 28-12-2014 07:55:00 -2.9 C 3.2 g/m*3 -6.18 C 8.1 km/h
1142 28-12-2014 08:00:00 -3 C 3.18 g/m*3 -5.65 C 6.4 km/h
1143 28-12-2014 08:05:00 -3 C 3.18 g/m*3 -3 C 4.8 km/h
1144 28-12-2014 08:10:00 -3.2 C 3.18 g/m*3 -5.88 C 6.4 km/h
1145 28-12-2014 08:15:00 -3.2 C 3.18 g/m*3 -3.2 C 3.2 km/h
1146 28-12-2014 08:20:00 -3.3 C 3.15 g/m*3 -7.17 C 9.7 km/h
1147 28-12-2014 08:25:00 -3.3 C 3.15 g/m*3 -5.99 C 6.4 km/h
1148 28-12-2014 08:30:00 -3.4 C 3.13 g/m*3 -6.77 C 8.1 km/h
1149 28-12-2014 08:35:00 -3.4 C 3.13 g/m*3 -3.4 C 4.8 km/h
1150 28-12-2014 08:40:00 -3.5 C 3.11 g/m*3 -3.5 C 1.6 km/h
Sensor: Nr:Datum:Temp:Abs-Feuchte:Windchill:Wind:
Aussen-T/F 1151 28-12-2014 08:45:00 -3.6 C 3.12 g/m*3 -3.6 C 1.6 km/h
1152 28-12-2014 08:50:00 -3.7 C 3.1 g/m*3 -3.7 C 1.6 km/h
1153 28-12-2014 08:55:00 -3.7 C 3.1 g/m*3 -8.1 C 11.3 km/h
1154 28-12-2014 09:00:00 -3.7 C 3.1 g/m*3 -3.7 C 3.2 km/h
1155 28-12-2014 09:05:00 -3.7 C 3.06 g/m*3 -3.7 C 3.2 km/h
1156 28-12-2014 09:10:00 -3.7 C 3.1 g/m*3 -3.7 C 4.8 km/h
1157 28-12-2014 09:15:00 -3.8 C 3.08 g/m*3 -3.8 C 4.8 km/h
1158 28-12-2014 09:20:00 -3.8 C 3.08 g/m*3 -3.8 C 3.2 km/h
1159 28-12-2014 09:25:00 -3.9 C 3.06 g/m*3 -6.69 C 6.4 km/h
1160 28-12-2014 09:30:00 -3.9 C 3.02 g/m*3 -3.9 C 4.8 km/h
1161 28-12-2014 09:35:00 -3.9 C 3.02 g/m*3 -3.9 C 4.8 km/h
1162 28-12-2014 09:40:00 -3.8 C 3.01 g/m*3 -6.57 C 6.4 km/h
1163 28-12-2014 09:45:00 -3.8 C 3.01 g/m*3 -6.57 C 6.4 km/h
1164 28-12-2014 09:50:00 -3.8 C 3.01 g/m*3 -6.57 C 6.4 km/h
1165 28-12-2014 09:55:00 -3.7 C 3.03 g/m*3 -7.12 C 8.1 km/h
1166 28-12-2014 10:00:00 -3.7 C 2.99 g/m*3 -7.12 C 8.1 km/h
1167 28-12-2014 10:05:00 -3.7 C 2.99 g/m*3 -3.7 C 3.2 km/h
1168 28-12-2014 10:10:00 -3.7 C 2.99 g/m*3 -3.7 C 1.6 km/h
1169 28-12-2014 10:15:00 -3.7 C 2.95 g/m*3 -7.12 C 8.1 km/h
1170 28-12-2014 10:20:00 -3.7 C 2.99 g/m*3 -3.7 C 1.6 km/h
1171 28-12-2014 10:25:00 -3.7 C 3.06 g/m*3 -3.7 C 0 km/h
1172 28-12-2014 10:30:00 -3.8 C 3.12 g/m*3 -3.8 C 3.2 km/h
1173 28-12-2014 10:35:00 -3.9 C 3.09 g/m*3 -3.9 C 3.2 km/h
1174 28-12-2014 10:40:00 -3.9 C 3.02 g/m*3 -7.35 C 8.1 km/h
1175 28-12-2014 10:45:00 -3.8 C 3.08 g/m*3 -3.8 C 4.8 km/h
Sensor: Nr:Datum:Temp:Abs-Feuchte:Windchill:Wind:
Aussen-T/F 1176 28-12-2014 10:50:00 -3.9 C 3.02 g/m*3 -3.9 C 3.2 km/h
1177 28-12-2014 10:55:00 -3.8 C 2.97 g/m*3 -3.8 C 3.2 km/h
1178 28-12-2014 11:00:00 -3.8 C 3.08 g/m*3 -3.8 C 4.8 km/h
1179 28-12-2014 11:05:00 -3.8 C 3.01 g/m*3 -6.57 C 6.4 km/h
1180 28-12-2014 11:10:00 -3.7 C 2.84 g/m*3 -7.12 C 8.1 km/h
1181 28-12-2014 11:15:00 -3.5 C 2.81 g/m*3 -6.22 C 6.4 km/h
1182 28-12-2014 11:20:00 -3.4 C 2.83 g/m*3 -7.74 C 11.3 km/h
1183 28-12-2014 11:25:00 -3.3 C 2.85 g/m*3 -8.02 C 12.9 km/h
1184 28-12-2014 11:30:00 -3.2 C 2.79 g/m*3 -7.5 C 11.3 km/h
1185 28-12-2014 11:35:00 -3.1 C 2.81 g/m*3 -7.78 C 12.9 km/h
1186 28-12-2014 11:40:00 -3.1 C 2.77 g/m*3 -6.93 C 9.7 km/h
1187 28-12-2014 11:45:00 -3 C 2.75 g/m*3 -6.3 C 8.1 km/h
1188 28-12-2014 11:50:00 -2.9 C 2.81 g/m*3 -6.18 C 8.1 km/h
1189 28-12-2014 11:55:00 -2.9 C 2.77 g/m*3 -7.89 C 14.5 km/h
1190 28-12-2014 12:00:00 -2.9 C 2.77 g/m*3 -6.18 C 8.1 km/h
1191 28-12-2014 12:05:00 -2.8 C 2.79 g/m*3 -6.57 C 9.7 km/h
1192 28-12-2014 12:10:00 -2.8 C 2.79 g/m*3 -7.41 C 12.9 km/h
1193 28-12-2014 12:15:00 -2.7 C 2.77 g/m*3 -6.45 C 9.7 km/h
1194 28-12-2014 12:20:00 -2.6 C 2.67 g/m*3 -6.77 C 11.3 km/h
1195 28-12-2014 12:25:00 -2.5 C 2.65 g/m*3 -6.65 C 11.3 km/h
1196 28-12-2014 12:30:00 -2.4 C 2.7 g/m*3 -5.59 C 8.1 km/h
1197 28-12-2014 12:35:00 -2.3 C 2.64 g/m*3 -6.41 C 11.3 km/h
1198 28-12-2014 12:40:00 -2.3 C 2.6 g/m*3 -5.98 C 9.7 km/h
1199 28-12-2014 12:45:00 -2.2 C 2.62 g/m*3 -6.29 C 11.3 km/h
1200 28-12-2014 12:50:00 -2.2 C 2.66 g/m*3 -4.72 C 6.4 km/h
Sensor: Nr:Datum:Temp:Abs-Feuchte:Windchill:Wind:
Aussen-T/F 1201 28-12-2014 12:55:00 -2.2 C 2.7 g/m*3 -5.86 C 9.7 km/h
1202 28-12-2014 13:00:00 -2.1 C 2.72 g/m*3 -5.24 C 8.1 km/h
1203 28-12-2014 13:05:00 -2.1 C 2.76 g/m*3 -5.74 C 9.7 km/h
1204 28-12-2014 13:10:00 -2 C 2.78 g/m*3 -6.43 C 12.9 km/h
1205 28-12-2014 13:15:00 -2 C 2.78 g/m*3 -5.62 C 9.7 km/h
1206 28-12-2014 13:20:00 -1.9 C 2.8 g/m*3 -5.5 C 9.7 km/h
1207 28-12-2014 13:25:00 -1.9 C 2.76 g/m*3 -5 C 8.1 km/h
1208 28-12-2014 13:30:00 -1.9 C 2.84 g/m*3 -4.38 C 6.4 km/h
1209 28-12-2014 13:35:00 -1.9 C 2.8 g/m*3 -5.5 C 9.7 km/h
1210 28-12-2014 13:40:00 -1.9 C 2.89 g/m*3 -5 C 8.1 km/h
1211 28-12-2014 13:45:00 -1.9 C 2.84 g/m*3 -5 C 8.1 km/h
1212 28-12-2014 13:50:00 -1.9 C 2.84 g/m*3 -4.38 C 6.4 km/h
1213 28-12-2014 13:55:00 -1.8 C 2.82 g/m*3 -5.38 C 9.7 km/h
1214 28-12-2014 14:00:00 -1.7 C 2.84 g/m*3 -4.15 C 6.4 km/h
1215 28-12-2014 14:05:00 -1.7 C 2.84 g/m*3 -1.7 C 4.8 km/h
1216 28-12-2014 14:10:00 -1.6 C 2.86 g/m*3 -1.6 C 4.8 km/h
1217 28-12-2014 14:15:00 -1.6 C 2.86 g/m*3 -4.03 C 6.4 km/h
1218 28-12-2014 14:20:00 -1.6 C 2.9 g/m*3 -4.03 C 6.4 km/h
1219 28-12-2014 14:25:00 -1.5 C 2.88 g/m*3 -4.53 C 8.1 km/h
1220 28-12-2014 14:30:00 -1.5 C 2.92 g/m*3 -3.91 C 6.4 km/h
1221 28-12-2014 14:35:00 -1.5 C 2.92 g/m*3 -1.5 C 1.6 km/h
1222 28-12-2014 14:40:00 -1.5 C 3.14 g/m*3 -1.5 C 4.8 km/h
1223 28-12-2014 14:45:00 -1.7 C 3.27 g/m*3 -1.7 C 1.6 km/h
1224 28-12-2014 14:50:00 -1.8 C 3.08 g/m*3 -1.8 C 4.8 km/h
1225 28-12-2014 14:55:00 -1.7 C 2.97 g/m*3 -5.69 C 11.3 km/h
Sensor: Nr:Datum:Temp:Abs-Feuchte:Windchill:Wind:
Aussen-T/F 1226 28-12-2014 15:00:00 -1.6 C 3.03 g/m*3 -4.65 C 8.1 km/h
1227 28-12-2014 15:05:00 -1.5 C 3.06 g/m*3 -4.53 C 8.1 km/h
1228 28-12-2014 15:10:00 -1.4 C 3.08 g/m*3 -4.42 C 8.1 km/h
1229 28-12-2014 15:15:00 -1.4 C 3.03 g/m*3 -5.33 C 11.3 km/h
1230 28-12-2014 15:20:00 -1.3 C 3.01 g/m*3 -4.78 C 9.7 km/h
1231 28-12-2014 15:25:00 -1.3 C 3.05 g/m*3 -5.58 C 12.9 km/h
1232 28-12-2014 15:30:00 -1.2 C 3.08 g/m*3 -3.57 C 6.4 km/h
1233 28-12-2014 15:35:00 -1.2 C 3.03 g/m*3 -5.09 C 11.3 km/h
1234 28-12-2014 15:40:00 -1.2 C 3.03 g/m*3 -5.09 C 11.3 km/h
1235 28-12-2014 15:45:00 -1.2 C 2.99 g/m*3 -5.46 C 12.9 km/h
1236 28-12-2014 15:50:00 -1.2 C 2.99 g/m*3 -5.46 C 12.9 km/h
1237 28-12-2014 15:55:00 -1.2 C 2.94 g/m*3 -5.09 C 11.3 km/h
1238 28-12-2014 16:00:00 -1.3 C 2.97 g/m*3 -3.68 C 6.4 km/h
1239 28-12-2014 16:05:00 -1.3 C 3.01 g/m*3 -1.3 C 4.8 km/h
1240 28-12-2014 16:10:00 -1.4 C 3.08 g/m*3 -1.4 C 3.2 km/h
1241 28-12-2014 16:15:00 -1.5 C 3.01 g/m*3 -4.53 C 8.1 km/h
1242 28-12-2014 16:20:00 -1.6 C 3.08 g/m*3 -1.6 C 4.8 km/h
1243 28-12-2014 16:25:00 -1.7 C 3.01 g/m*3 -4.15 C 6.4 km/h
1244 28-12-2014 16:30:00 -1.7 C 3.06 g/m*3 -1.7 C 3.2 km/h
1245 28-12-2014 16:35:00 -1.7 C 3.06 g/m*3 -4.15 C 6.4 km/h
1246 28-12-2014 16:40:00 -1.8 C 3.12 g/m*3 -1.8 C 3.2 km/h
1247 28-12-2014 16:45:00 -1.8 C 3.16 g/m*3 -1.8 C 1.6 km/h
1248 28-12-2014 16:50:00 -1.9 C 3.1 g/m*3 -1.9 C 3.2 km/h
1249 28-12-2014 16:55:00 -2 C 3.16 g/m*3 -2 C 3.2 km/h
1250 28-12-2014 17:00:00 -2.2 C 3.24 g/m*3 -2.2 C 3.2 km/h
Sensor: Nr:Datum:Temp:Abs-Feuchte:Windchill:Wind:
Aussen-T/F 1251 28-12-2014 17:05:00 -2.4 C 3.28 g/m*3 -2.4 C 1.6 km/h
1252 28-12-2014 17:10:00 -2.6 C 3.27 g/m*3 -2.6 C 3.2 km/h
1253 28-12-2014 17:15:00 -2.7 C 3.25 g/m*3 -2.7 C 3.2 km/h
1254 28-12-2014 17:20:00 -2.8 C 3.27 g/m*3 -2.8 C 1.6 km/h
1255 28-12-2014 17:25:00 -2.8 C 3.27 g/m*3 -2.8 C 0 km/h
1256 28-12-2014 17:30:00 -2.9 C 3.28 g/m*3 -2.9 C 0 km/h
1257 28-12-2014 17:35:00 -2.9 C 3.28 g/m*3 -2.9 C 0 km/h
1258 28-12-2014 17:40:00 -3.1 C 3.28 g/m*3 -3.1 C 0 km/h
1259 28-12-2014 17:45:00 -3.1 C 3.32 g/m*3 -3.1 C 0 km/h
1260 28-12-2014 17:50:00 -3.2 C 3.29 g/m*3 -3.2 C 0 km/h
1261 28-12-2014 17:55:00 -3.3 C 3.27 g/m*3 -3.3 C 0 km/h
1262 28-12-2014 18:00:00 -3.4 C 3.28 g/m*3 -3.4 C 4.8 km/h
1263 28-12-2014 18:05:00 -3.4 C 3.32 g/m*3 -6.11 C 6.4 km/h
1264 28-12-2014 18:10:00 -3.4 C 3.32 g/m*3 -6.11 C 6.4 km/h
1265 28-12-2014 18:15:00 -3.4 C 3.32 g/m*3 -6.11 C 6.4 km/h
1266 28-12-2014 18:20:00 -3.4 C 3.28 g/m*3 -3.4 C 4.8 km/h
1267 28-12-2014 18:25:00 -3.4 C 3.28 g/m*3 -6.11 C 6.4 km/h
1268 28-12-2014 18:30:00 -3.3 C 3.31 g/m*3 -3.3 C 4.8 km/h
1269 28-12-2014 18:35:00 -3.3 C 3.31 g/m*3 -5.99 C 6.4 km/h
1270 28-12-2014 18:40:00 -3.2 C 3.29 g/m*3 -7.05 C 9.7 km/h
1271 28-12-2014 18:45:00 -3.1 C 3.28 g/m*3 -3.1 C 3.2 km/h
1272 28-12-2014 18:50:00 -3.1 C 3.24 g/m*3 -3.1 C 4.8 km/h
1273 28-12-2014 18:55:00 -3 C 3.26 g/m*3 -3 C 1.6 km/h
1274 28-12-2014 19:00:00 -3.2 C 3.25 g/m*3 -3.2 C 3.2 km/h
1275 28-12-2014 19:05:00 -3.3 C 3.27 g/m*3 -3.3 C 4.8 km/h
Sensor: Nr:Datum:Temp:Abs-Feuchte:Windchill:Wind:
Aussen-T/F 1276 28-12-2014 19:10:00 -3.4 C 3.25 g/m*3 -3.4 C 3.2 km/h
1277 28-12-2014 19:15:00 -3.5 C 3.26 g/m*3 -3.5 C 4.8 km/h
1278 28-12-2014 19:20:00 -3.6 C 3.27 g/m*3 -3.6 C 1.6 km/h
1279 28-12-2014 19:25:00 -3.7 C 3.25 g/m*3 -3.7 C 1.6 km/h
1280 28-12-2014 19:30:00 -3.8 C 3.23 g/m*3 -3.8 C 1.6 km/h
1281 28-12-2014 19:35:00 -3.9 C 3.24 g/m*3 -3.9 C 4.8 km/h
1282 28-12-2014 19:40:00 -3.9 C 3.24 g/m*3 -3.9 C 1.6 km/h
1283 28-12-2014 19:45:00 -3.9 C 3.24 g/m*3 -3.9 C 3.2 km/h
1284 28-12-2014 19:50:00 -3.9 C 3.28 g/m*3 -3.9 C 4.8 km/h
1285 28-12-2014 19:55:00 -3.9 C 3.28 g/m*3 -6.69 C 6.4 km/h
1286 28-12-2014 20:00:00 -4.1 C 3.23 g/m*3 -4.1 C 3.2 km/h
1287 28-12-2014 20:05:00 -4.2 C 3.21 g/m*3 -4.2 C 3.2 km/h
1288 28-12-2014 20:10:00 -4.2 C 3.21 g/m*3 -4.2 C 4.8 km/h
1289 28-12-2014 20:15:00 -4.2 C 3.25 g/m*3 -4.2 C 4.8 km/h
1290 28-12-2014 20:20:00 -4.3 C 3.22 g/m*3 -4.3 C 4.8 km/h
1291 28-12-2014 20:25:00 -4.2 C 3.25 g/m*3 -4.2 C 1.6 km/h
1292 28-12-2014 20:30:00 -4.2 C 3.25 g/m*3 -4.2 C 4.8 km/h
1293 28-12-2014 20:35:00 -4.3 C 3.22 g/m*3 -4.3 C 4.8 km/h
1294 28-12-2014 20:40:00 -4.3 C 3.22 g/m*3 -4.3 C 4.8 km/h
1295 28-12-2014 20:45:00 -4.3 C 3.26 g/m*3 -4.3 C 4.8 km/h
1296 28-12-2014 20:50:00 -4.3 C 3.26 g/m*3 -7.15 C 6.4 km/h
1297 28-12-2014 20:55:00 -4.3 C 3.26 g/m*3 -4.3 C 4.8 km/h
1298 28-12-2014 21:00:00 -4.3 C 3.26 g/m*3 -4.3 C 3.2 km/h
1299 28-12-2014 21:05:00 -4.3 C 3.26 g/m*3 -4.3 C 4.8 km/h
1300 28-12-2014 21:10:00 -4.4 C 3.24 g/m*3 -4.4 C 4.8 km/h
Sensor: Nr:Datum:Temp:Abs-Feuchte:Windchill:Wind:
Aussen-T/F 1301 28-12-2014 21:15:00 -4.4 C 3.24 g/m*3 -4.4 C 4.8 km/h
1302 28-12-2014 21:20:00 -4.5 C 3.21 g/m*3 -4.5 C 4.8 km/h
1303 28-12-2014 21:25:00 -4.5 C 3.21 g/m*3 -4.5 C 4.8 km/h
1304 28-12-2014 21:30:00 -4.5 C 3.21 g/m*3 -4.5 C 4.8 km/h
1305 28-12-2014 21:35:00 -4.5 C 3.21 g/m*3 -4.5 C 1.6 km/h
1306 28-12-2014 21:40:00 -4.6 C 3.19 g/m*3 -4.6 C 3.2 km/h
1307 28-12-2014 21:45:00 -4.6 C 3.19 g/m*3 -4.6 C 3.2 km/h
1308 28-12-2014 21:50:00 -4.7 C 3.17 g/m*3 -4.7 C 4.8 km/h
1309 28-12-2014 21:55:00 -4.8 C 3.14 g/m*3 -4.8 C 3.2 km/h
1310 28-12-2014 22:00:00 -4.8 C 3.14 g/m*3 -4.8 C 3.2 km/h
1311 28-12-2014 22:05:00 -4.8 C 3.14 g/m*3 -4.8 C 3.2 km/h
1312 28-12-2014 22:10:00 -4.8 C 3.14 g/m*3 -4.8 C 1.6 km/h
1313 28-12-2014 22:15:00 -4.9 C 3.12 g/m*3 -4.9 C 3.2 km/h
1314 28-12-2014 22:20:00 -4.9 C 3.12 g/m*3 -4.9 C 0 km/h
1315 28-12-2014 22:25:00 -5.1 C 3.08 g/m*3 -5.1 C 1.6 km/h
1316 28-12-2014 22:30:00 -5.2 C 3.05 g/m*3 -5.2 C 3.2 km/h
1317 28-12-2014 22:35:00 -5.2 C 3.05 g/m*3 -5.2 C 0 km/h
1318 28-12-2014 22:40:00 -5.3 C 3.03 g/m*3 -5.3 C 0 km/h
1319 28-12-2014 22:45:00 -5.3 C 3.03 g/m*3 -5.3 C 0 km/h
1320 28-12-2014 22:50:00 -5.3 C 3.07 g/m*3 -5.3 C 1.6 km/h
1321 28-12-2014 22:55:00 -5.2 C 3.09 g/m*3 -5.2 C 1.6 km/h
1322 28-12-2014 23:00:00 -5.1 C 3.11 g/m*3 -5.1 C 1.6 km/h
1323 28-12-2014 23:05:00 -4.8 C 3.21 g/m*3 -4.8 C 1.6 km/h
1324 28-12-2014 23:10:00 -4.7 C 3.24 g/m*3 -4.7 C 3.2 km/h
1325 28-12-2014 23:15:00 -4.6 C 3.22 g/m*3 -4.6 C 1.6 km/h
Sensor: Nr:Datum:Temp:Abs-Feuchte:Windchill:Wind:
Aussen-T/F 1326 28-12-2014 23:20:00 -4.6 C 3.22 g/m*3 -4.6 C 1.6 km/h
1327 28-12-2014 23:25:00 -4.5 C 3.25 g/m*3 -4.5 C 1.6 km/h
1328 28-12-2014 23:30:00 -4.4 C 3.27 g/m*3 -4.4 C 1.6 km/h
1329 28-12-2014 23:35:00 -4.4 C 3.27 g/m*3 -4.4 C 3.2 km/h
1330 28-12-2014 23:40:00 -4.4 C 3.27 g/m*3 -4.4 C 1.6 km/h
1331 28-12-2014 23:45:00 -4.3 C 3.29 g/m*3 -4.3 C 4.8 km/h
1332 28-12-2014 23:50:00 -4.3 C 3.26 g/m*3 -4.3 C 0 km/h
1333 28-12-2014 23:55:00 -4.3 C 3.26 g/m*3 -4.3 C 3.2 km/h
1334 29-12-2014 00:00:00 -4.2 C 3.28 g/m*3 -4.2 C 3.2 km/h
1335 29-12-2014 00:05:00 -4.2 C 3.28 g/m*3 -7.03 C 6.4 km/h
1336 29-12-2014 00:10:00 -4.1 C 3.31 g/m*3 -6.92 C 6.4 km/h
1337 29-12-2014 00:15:00 -4.1 C 3.27 g/m*3 -4.1 C 4.8 km/h
1338 29-12-2014 00:20:00 -4 C 3.33 g/m*3 -4 C 3.2 km/h
1339 29-12-2014 00:25:00 -3.9 C 3.32 g/m*3 -3.9 C 1.6 km/h
1340 29-12-2014 00:30:00 -3.9 C 3.32 g/m*3 -3.9 C 4.8 km/h
1341 29-12-2014 00:35:00 -3.8 C 3.34 g/m*3 -3.8 C 1.6 km/h
1342 29-12-2014 00:40:00 -3.8 C 3.34 g/m*3 -3.8 C 3.2 km/h
1343 29-12-2014 00:45:00 -3.7 C 3.36 g/m*3 -3.7 C 1.6 km/h
1344 29-12-2014 00:50:00 -3.6 C 3.35 g/m*3 -3.6 C 1.6 km/h
1345 29-12-2014 00:55:00 -3.6 C 3.35 g/m*3 -6.34 C 6.4 km/h
1346 29-12-2014 01:00:00 -3.6 C 3.35 g/m*3 -3.6 C 4.8 km/h
1347 29-12-2014 01:05:00 -3.5 C 3.37 g/m*3 -6.88 C 8.1 km/h
1348 29-12-2014 01:10:00 -3.6 C 3.35 g/m*3 -3.6 C 4.8 km/h
1349 29-12-2014 01:15:00 -3.6 C 3.35 g/m*3 -7.53 C 9.7 km/h
1350 29-12-2014 01:20:00 -3.5 C 3.34 g/m*3 -7.41 C 9.7 km/h
Sensor: Nr:Datum:Temp:Abs-Feuchte:Windchill:Wind:
Aussen-T/F 1351 29-12-2014 01:25:00 -3.4 C 3.36 g/m*3 -7.29 C 9.7 km/h
1352 29-12-2014 01:30:00 -3.4 C 3.36 g/m*3 -3.4 C 3.2 km/h
1353 29-12-2014 01:35:00 -3.5 C 3.34 g/m*3 -3.5 C 1.6 km/h
1354 29-12-2014 01:40:00 -3.6 C 3.31 g/m*3 -3.6 C 0 km/h
1355 29-12-2014 01:45:00 -3.7 C 3.29 g/m*3 -3.7 C 0 km/h
1356 29-12-2014 01:50:00 -3.9 C 3.28 g/m*3 -7.35 C 8.1 km/h
1357 29-12-2014 01:55:00 -4 C 3.26 g/m*3 -7.47 C 8.1 km/h
1358 29-12-2014 02:00:00 -4.1 C 3.23 g/m*3 -8.12 C 9.7 km/h
1359 29-12-2014 02:05:00 -4.1 C 3.23 g/m*3 -4.1 C 4.8 km/h
1360 29-12-2014 02:10:00 -4.1 C 3.23 g/m*3 -4.1 C 4.8 km/h
1361 29-12-2014 02:15:00 -4.1 C 3.23 g/m*3 -4.1 C 4.8 km/h
1362 29-12-2014 02:20:00 -4.2 C 3.21 g/m*3 -7.03 C 6.4 km/h
1363 29-12-2014 02:25:00 -4.3 C 3.19 g/m*3 -4.3 C 4.8 km/h
1364 29-12-2014 02:30:00 -4.3 C 3.19 g/m*3 -4.3 C 0 km/h
1365 29-12-2014 02:35:00 -4.4 C 3.2 g/m*3 -4.4 C 4.8 km/h
1366 29-12-2014 02:40:00 -4.4 C 3.24 g/m*3 -4.4 C 3.2 km/h
1367 29-12-2014 02:45:00 -4.2 C 3.28 g/m*3 -7.71 C 8.1 km/h
1368 29-12-2014 02:50:00 -4.1 C 3.27 g/m*3 -4.1 C 4.8 km/h
1369 29-12-2014 02:55:00 -3.9 C 3.32 g/m*3 -6.69 C 6.4 km/h
1370 29-12-2014 03:00:00 -3.8 C 3.34 g/m*3 -7.24 C 8.1 km/h
1371 29-12-2014 03:05:00 -3.7 C 3.33 g/m*3 -7.12 C 8.1 km/h
1372 29-12-2014 03:10:00 -3.6 C 3.35 g/m*3 -7.98 C 11.3 km/h
1373 29-12-2014 03:15:00 -3.6 C 3.35 g/m*3 -7.53 C 9.7 km/h
1374 29-12-2014 03:20:00 -3.4 C 3.36 g/m*3 -8.14 C 12.9 km/h
1375 29-12-2014 03:25:00 -3.3 C 3.38 g/m*3 -8.02 C 12.9 km/h
Sensor: Nr:Datum:Temp:Abs-Feuchte:Windchill:Wind:
Aussen-T/F 1376 29-12-2014 03:30:00 -3.2 C 3.41 g/m*3 -7.9 C 12.9 km/h
1377 29-12-2014 03:35:00 -3.2 C 3.41 g/m*3 -7.9 C 12.9 km/h
1378 29-12-2014 03:40:00 -3.2 C 3.37 g/m*3 -8.26 C 14.5 km/h
1379 29-12-2014 03:45:00 -3.2 C 3.37 g/m*3 -8.26 C 14.5 km/h
1380 29-12-2014 03:50:00 -3.2 C 3.37 g/m*3 -7.5 C 11.3 km/h
1381 29-12-2014 03:55:00 -3.1 C 3.39 g/m*3 -8.46 C 16.1 km/h
1382 29-12-2014 04:00:00 -3.1 C 3.39 g/m*3 -6.41 C 8.1 km/h
1383 29-12-2014 04:05:00 -3.1 C 3.35 g/m*3 -8.13 C 14.5 km/h
1384 29-12-2014 04:10:00 -2.9 C 3.4 g/m*3 -7.14 C 11.3 km/h
1385 29-12-2014 04:15:00 -2.8 C 3.43 g/m*3 -7.41 C 12.9 km/h
1386 29-12-2014 04:20:00 -2.8 C 3.43 g/m*3 -7.76 C 14.5 km/h
1387 29-12-2014 04:25:00 -2.7 C 3.45 g/m*3 -7.29 C 12.9 km/h
1388 29-12-2014 04:30:00 -2.7 C 3.41 g/m*3 -7.29 C 12.9 km/h
1389 29-12-2014 04:35:00 -2.7 C 3.45 g/m*3 -7.96 C 16.1 km/h
1390 29-12-2014 04:40:00 -2.7 C 3.53 g/m*3 -7.64 C 14.5 km/h
1391 29-12-2014 04:45:00 -2.8 C 3.55 g/m*3 -7.41 C 12.9 km/h
1392 29-12-2014 04:50:00 -2.9 C 3.6 g/m*3 -8.21 C 16.1 km/h
1393 29-12-2014 04:55:00 -3 C 3.61 g/m*3 -7.65 C 12.9 km/h
1394 29-12-2014 05:00:00 -3.1 C 3.63 g/m*3 -7.38 C 11.3 km/h
1395 29-12-2014 05:05:00 -3.1 C 3.63 g/m*3 -8.13 C 14.5 km/h
1396 29-12-2014 05:10:00 -3.1 C 3.63 g/m*3 -8.13 C 14.5 km/h
1397 29-12-2014 05:15:00 -3.1 C 3.63 g/m*3 -7.78 C 12.9 km/h
1398 29-12-2014 05:20:00 -3.1 C 3.63 g/m*3 -6.41 C 8.1 km/h
1399 29-12-2014 05:25:00 -3 C 3.65 g/m*3 -6.81 C 9.7 km/h
1400 29-12-2014 05:30:00 -2.8 C 3.71 g/m*3 -7.76 C 14.5 km/h
Sensor: Nr:Datum:Temp:Abs-Feuchte:Windchill:Wind:
Aussen-T/F 1401 29-12-2014 05:35:00 -2.8 C 3.71 g/m*3 -7.02 C 11.3 km/h
1402 29-12-2014 05:40:00 -2.8 C 3.71 g/m*3 -7.41 C 12.9 km/h
1403 29-12-2014 05:45:00 -2.8 C 3.71 g/m*3 -7.41 C 12.9 km/h
1404 29-12-2014 05:50:00 -2.9 C 3.72 g/m*3 -6.69 C 9.7 km/h
1405 29-12-2014 05:55:00 -2.8 C 3.75 g/m*3 -7.76 C 14.5 km/h
1406 29-12-2014 06:00:00 -2.8 C 3.75 g/m*3 -6.06 C 8.1 km/h
1407 29-12-2014 06:05:00 -2.8 C 3.75 g/m*3 -7.02 C 11.3 km/h
1408 29-12-2014 06:10:00 -2.8 C 3.75 g/m*3 -7.02 C 11.3 km/h
1409 29-12-2014 06:15:00 -2.7 C 3.77 g/m*3 -6.9 C 11.3 km/h
1410 29-12-2014 06:20:00 -2.8 C 3.75 g/m*3 -6.57 C 9.7 km/h
1411 29-12-2014 06:25:00 -2.8 C 3.75 g/m*3 -6.57 C 9.7 km/h
1412 29-12-2014 06:30:00 -2.7 C 3.77 g/m*3 -6.9 C 11.3 km/h
1413 29-12-2014 06:35:00 -2.6 C 3.8 g/m*3 -5.83 C 8.1 km/h
1414 29-12-2014 06:40:00 -2.5 C 3.83 g/m*3 -5.71 C 8.1 km/h
1415 29-12-2014 06:45:00 -2.4 C 3.85 g/m*3 -6.1 C 9.7 km/h
1416 29-12-2014 06:50:00 -2.3 C 3.88 g/m*3 -7.15 C 14.5 km/h
1417 29-12-2014 06:55:00 -2.3 C 3.88 g/m*3 -5.47 C 8.1 km/h
1418 29-12-2014 07:00:00 -2.2 C 3.91 g/m*3 -4.72 C 6.4 km/h
1419 29-12-2014 07:05:00 -2.2 C 3.91 g/m*3 -5.86 C 9.7 km/h
1420 29-12-2014 07:10:00 -2.1 C 3.93 g/m*3 -2.1 C 4.8 km/h
1421 29-12-2014 07:15:00 -2 C 3.96 g/m*3 -5.12 C 8.1 km/h
1422 29-12-2014 07:20:00 -1.9 C 4.03 g/m*3 -5.5 C 9.7 km/h
1423 29-12-2014 07:25:00 -1.9 C 4.03 g/m*3 -4.38 C 6.4 km/h
1424 29-12-2014 07:30:00 -1.8 C 4.06 g/m*3 -1.8 C 4.8 km/h
1425 29-12-2014 07:35:00 -1.8 C 4.06 g/m*3 -1.8 C 3.2 km/h
Sensor: Nr:Datum:Temp:Abs-Feuchte:Windchill:Wind:
Aussen-T/F 1426 29-12-2014 07:40:00 -1.8 C 4.06 g/m*3 -1.8 C 0 km/h
1427 29-12-2014 07:45:00 -1.8 C 4.06 g/m*3 -1.8 C 0 km/h
1428 29-12-2014 07:50:00 -1.8 C 4.06 g/m*3 -1.8 C 0 km/h
1429 29-12-2014 07:55:00 -1.8 C 4.06 g/m*3 -1.8 C 0 km/h
1430 29-12-2014 08:00:00 -1.7 C 4.09 g/m*3 -1.7 C 3.2 km/h
1431 29-12-2014 08:05:00 -1.7 C 4.09 g/m*3 -1.7 C 4.8 km/h
1432 29-12-2014 08:10:00 -1.6 C 4.16 g/m*3 -1.6 C 3.2 km/h
1433 29-12-2014 08:15:00 -1.6 C 4.16 g/m*3 -1.6 C 1.6 km/h
1434 29-12-2014 08:20:00 -1.6 C 4.16 g/m*3 -1.6 C 1.6 km/h
1435 29-12-2014 08:25:00 -1.5 C 4.19 g/m*3 -1.5 C 3.2 km/h
1436 29-12-2014 08:30:00 -1.5 C 4.19 g/m*3 -1.5 C 3.2 km/h
1437 29-12-2014 08:35:00 -1.4 C 4.18 g/m*3 -1.4 C 1.6 km/h
1438 29-12-2014 08:40:00 -1.4 C 4.18 g/m*3 -1.4 C 1.6 km/h
1439 29-12-2014 08:45:00 -1.4 C 4.22 g/m*3 -1.4 C 1.6 km/h
1440 29-12-2014 08:50:00 -1.3 C 4.25 g/m*3 -1.3 C 1.6 km/h
1441 29-12-2014 08:55:00 -1.3 C 4.25 g/m*3 -1.3 C 0 km/h
1442 29-12-2014 09:00:00 -1.3 C 4.25 g/m*3 -1.3 C 0 km/h
1443 29-12-2014 09:05:00 -1.3 C 4.25 g/m*3 -1.3 C 3.2 km/h
1444 29-12-2014 09:10:00 -1.3 C 4.21 g/m*3 -1.3 C 3.2 km/h
1445 29-12-2014 09:15:00 -1.4 C 4.18 g/m*3 -3.8 C 6.4 km/h
1446 29-12-2014 09:20:00 -1.4 C 4.18 g/m*3 -1.4 C 3.2 km/h
1447 29-12-2014 09:25:00 -1.3 C 4.21 g/m*3 -1.3 C 1.6 km/h
1448 29-12-2014 09:30:00 -1.3 C 4.21 g/m*3 -1.3 C 4.8 km/h
1449 29-12-2014 09:35:00 -1.3 C 4.25 g/m*3 -1.3 C 4.8 km/h
1450 29-12-2014 09:40:00 -1.3 C 4.25 g/m*3 -1.3 C 1.6 km/h
Sensor: Nr:Datum:Temp:Abs-Feuchte:Windchill:Wind:
Aussen-T/F 1451 29-12-2014 09:45:00 -1.3 C 4.25 g/m*3 -1.3 C 3.2 km/h
1452 29-12-2014 09:50:00 -1.2 C 4.28 g/m*3 -1.2 C 1.6 km/h
1453 29-12-2014 09:55:00 -1.2 C 4.28 g/m*3 -1.2 C 0 km/h
1454 29-12-2014 10:00:00 -1.1 C 4.31 g/m*3 -1.1 C 3.2 km/h
1455 29-12-2014 10:05:00 -0.9 C 4.37 g/m*3 -0.9 C 3.2 km/h
1456 29-12-2014 10:10:00 -0.9 C 4.37 g/m*3 -0.9 C 1.6 km/h
1457 29-12-2014 10:15:00 -0.8 C 4.4 g/m*3 -0.8 C 3.2 km/h
1458 29-12-2014 10:20:00 -0.8 C 4.4 g/m*3 -0.8 C 4.8 km/h
1459 29-12-2014 10:25:00 -0.7 C 4.43 g/m*3 -0.7 C 0 km/h
1460 29-12-2014 10:30:00 -0.6 C 4.46 g/m*3 -2.88 C 6.4 km/h
1461 29-12-2014 10:35:00 -0.5 C 4.49 g/m*3 -2.76 C 6.4 km/h
1462 29-12-2014 10:40:00 -0.5 C 4.45 g/m*3 -0.5 C 3.2 km/h
1463 29-12-2014 10:45:00 -0.4 C 4.48 g/m*3 -0.4 C 4.8 km/h
1464 29-12-2014 10:50:00 -0.4 C 4.48 g/m*3 -0.4 C 4.8 km/h
1465 29-12-2014 10:55:00 -0.3 C 4.51 g/m*3 -0.3 C 3.2 km/h
1466 29-12-2014 11:00:00 -0.3 C 4.51 g/m*3 -0.3 C 4.8 km/h
1467 29-12-2014 11:05:00 -0.3 C 4.51 g/m*3 -2.53 C 6.4 km/h
1468 29-12-2014 11:10:00 -0.3 C 4.51 g/m*3 -0.3 C 3.2 km/h
1469 29-12-2014 11:15:00 -0.2 C 4.54 g/m*3 -0.2 C 3.2 km/h
1470 29-12-2014 11:20:00 -0.1 C 4.62 g/m*3 -0.1 C 3.2 km/h
1471 29-12-2014 11:25:00 0.1 C 4.68 g/m*3 0.1 C 4.8 km/h
1472 29-12-2014 11:30:00 0.4 C 4.78 g/m*3 -1.72 C 6.4 km/h
1473 29-12-2014 11:35:00 0.6 C 4.85 g/m*3 0.6 C 3.2 km/h
1474 29-12-2014 11:40:00 0.7 C 4.88 g/m*3 0.7 C 3.2 km/h
1475 29-12-2014 11:45:00 0.8 C 4.91 g/m*3 0.8 C 3.2 km/h
Sensor: Nr:Datum:Temp:Abs-Feuchte:Windchill:Wind:
Aussen-T/F 1476 29-12-2014 11:50:00 0.9 C 4.95 g/m*3 -1.14 C 6.4 km/h
1477 29-12-2014 11:55:00 1.2 C 5.05 g/m*3 1.2 C 4.8 km/h
1478 29-12-2014 12:00:00 1.2 C 5.05 g/m*3 -1.8 C 9.7 km/h
1479 29-12-2014 12:05:00 1.7 C 5.23 g/m*3 -0.22 C 6.4 km/h
1480 29-12-2014 12:10:00 1.8 C 5.26 g/m*3 -0.1 C 6.4 km/h
1481 29-12-2014 12:15:00 1.9 C 5.3 g/m*3 -0.54 C 8.1 km/h
1482 29-12-2014 12:20:00 1.9 C 5.3 g/m*3 1.9 C 3.2 km/h
1483 29-12-2014 13:15:00 2.7 C 5.42 g/m*3 0.4 C 8.1 km/h
1484 29-12-2014 13:20:00 2.7 C 5.42 g/m*3 0.4 C 8.1 km/h
1485 29-12-2014 13:25:00 2.7 C 5.42 g/m*3 -0.38 C 11.3 km/h
1486 29-12-2014 13:30:00 2.7 C 5.42 g/m*3 -0.02 C 9.7 km/h
1487 29-12-2014 13:35:00 2.8 C 5.46 g/m*3 0.52 C 8.1 km/h
1488 29-12-2014 13:40:00 2.8 C 5.46 g/m*3 0.52 C 8.1 km/h
1489 29-12-2014 13:45:00 2.8 C 5.46 g/m*3 0.52 C 8.1 km/h
1490 29-12-2014 13:50:00 2.8 C 5.46 g/m*3 0.1 C 9.7 km/h
1491 29-12-2014 13:55:00 2.8 C 5.46 g/m*3 -0.59 C 12.9 km/h
1492 29-12-2014 14:00:00 2.8 C 5.46 g/m*3 1.05 C 6.4 km/h
1493 29-12-2014 14:40:00 2.9 C 5.43 g/m*3 2.9 C 3.2 km/h
1494 29-12-2014 14:45:00 3 C 5.47 g/m*3 3 C 3.2 km/h
1495 29-12-2014 14:50:00 3 C 5.41 g/m*3 3 C 4.8 km/h
1496 29-12-2014 14:55:00 2.9 C 5.37 g/m*3 0.22 C 9.7 km/h
1497 29-12-2014 15:00:00 2.9 C 5.37 g/m*3 2.9 C 4.8 km/h
1498 29-12-2014 15:05:00 2.9 C 5.37 g/m*3 2.9 C 3.2 km/h
1499 29-12-2014 15:25:00 2.9 C 5.26 g/m*3 0.22 C 9.7 km/h
1500 29-12-2014 15:30:00 2.9 C 5.26 g/m*3 0.22 C 9.7 km/h
Sensor: Nr:Datum:Temp:Abs-Feuchte:Windchill:Wind:
Aussen-T/F 1501 29-12-2014 15:35:00 2.9 C 5.26 g/m*3 2.9 C 4.8 km/h
1502 29-12-2014 15:40:00 2.8 C 5.22 g/m*3 -0.59 C 12.9 km/h
1503 29-12-2014 15:45:00 2.8 C 5.22 g/m*3 -0.26 C 11.3 km/h
1504 29-12-2014 15:50:00 2.8 C 5.22 g/m*3 -0.59 C 12.9 km/h
1505 29-12-2014 15:55:00 2.8 C 5.22 g/m*3 -0.59 C 12.9 km/h
1506 29-12-2014 16:00:00 2.8 C 5.22 g/m*3 -0.26 C 11.3 km/h
1507 29-12-2014 16:05:00 2.7 C 5.13 g/m*3 -0.71 C 12.9 km/h
1508 29-12-2014 16:10:00 2.7 C 5.07 g/m*3 -1.27 C 16.1 km/h
1509 29-12-2014 16:15:00 2.7 C 5.01 g/m*3 -1 C 14.5 km/h
1510 29-12-2014 16:20:00 2.7 C 4.95 g/m*3 -1.74 C 19.3 km/h
1511 29-12-2014 16:25:00 2.7 C 4.95 g/m*3 -0.38 C 11.3 km/h
1512 29-12-2014 16:30:00 2.6 C 4.92 g/m*3 -1.39 C 16.1 km/h
1513 29-12-2014 16:35:00 2.6 C 4.86 g/m*3 -0.5 C 11.3 km/h
1514 29-12-2014 16:40:00 2.5 C 4.83 g/m*3 -0.26 C 9.7 km/h
1515 29-12-2014 16:45:00 2.5 C 4.83 g/m*3 -0.26 C 9.7 km/h
1516 29-12-2014 16:50:00 2.4 C 4.8 g/m*3 0.05 C 8.1 km/h
1517 29-12-2014 16:55:00 2.4 C 4.8 g/m*3 0.05 C 8.1 km/h
1518 29-12-2014 17:00:00 2.4 C 4.85 g/m*3 2.4 C 4.8 km/h
1519 29-12-2014 17:05:00 2.3 C 4.88 g/m*3 2.3 C 3.2 km/h
1520 29-12-2014 17:10:00 2.3 C 4.88 g/m*3 2.3 C 3.2 km/h
1521 29-12-2014 17:15:00 2.3 C 4.88 g/m*3 2.3 C 3.2 km/h
1522 29-12-2014 17:20:00 2.3 C 4.88 g/m*3 -0.07 C 8.1 km/h
1523 29-12-2014 17:25:00 2.3 C 4.88 g/m*3 2.3 C 4.8 km/h
1524 29-12-2014 17:30:00 2.2 C 4.84 g/m*3 -0.18 C 8.1 km/h
1525 29-12-2014 17:35:00 2.2 C 4.84 g/m*3 0.36 C 6.4 km/h
Sensor: Nr:Datum:Temp:Abs-Feuchte:Windchill:Wind:
Aussen-T/F 1526 29-12-2014 17:40:00 2.1 C 4.81 g/m*3 -0.3 C 8.1 km/h
1527 29-12-2014 17:45:00 2.1 C 4.81 g/m*3 -0.73 C 9.7 km/h
1528 29-12-2014 17:50:00 2.1 C 4.81 g/m*3 2.1 C 4.8 km/h
1529 29-12-2014 17:55:00 2 C 4.78 g/m*3 0.13 C 6.4 km/h
1530 29-12-2014 18:00:00 1.9 C 4.75 g/m*3 -1.35 C 11.3 km/h
1531 29-12-2014 18:05:00 1.9 C 4.75 g/m*3 -0.54 C 8.1 km/h
1532 29-12-2014 18:10:00 1.9 C 4.69 g/m*3 0.01 C 6.4 km/h
1533 29-12-2014 18:15:00 1.9 C 4.69 g/m*3 -0.54 C 8.1 km/h
1534 29-12-2014 18:20:00 1.9 C 4.69 g/m*3 0.01 C 6.4 km/h
1535 29-12-2014 18:25:00 1.9 C 4.69 g/m*3 1.9 C 4.8 km/h
1536 29-12-2014 18:30:00 1.9 C 4.69 g/m*3 1.9 C 1.6 km/h
1537 29-12-2014 18:35:00 1.8 C 4.66 g/m*3 -1.47 C 11.3 km/h
1538 29-12-2014 18:40:00 1.8 C 4.6 g/m*3 -0.1 C 6.4 km/h
1539 29-12-2014 18:45:00 1.8 C 4.55 g/m*3 -1.09 C 9.7 km/h
1540 29-12-2014 18:50:00 1.9 C 4.58 g/m*3 -1.35 C 11.3 km/h
1541 29-12-2014 18:55:00 1.9 C 4.58 g/m*3 -0.54 C 8.1 km/h
1542 29-12-2014 19:00:00 1.9 C 4.58 g/m*3 0.01 C 6.4 km/h
1543 29-12-2014 19:05:00 1.8 C 4.6 g/m*3 -1.09 C 9.7 km/h
1544 29-12-2014 19:10:00 1.8 C 4.55 g/m*3 -0.1 C 6.4 km/h
1545 29-12-2014 19:15:00 1.8 C 4.55 g/m*3 -0.1 C 6.4 km/h
1546 29-12-2014 19:20:00 1.8 C 4.55 g/m*3 1.8 C 3.2 km/h
1547 29-12-2014 19:25:00 1.8 C 4.55 g/m*3 1.8 C 4.8 km/h
1548 29-12-2014 19:30:00 1.8 C 4.55 g/m*3 -1.09 C 9.7 km/h
1549 29-12-2014 19:35:00 1.7 C 4.52 g/m*3 -0.77 C 8.1 km/h
1550 29-12-2014 19:40:00 1.7 C 4.52 g/m*3 1.7 C 3.2 km/h
Sensor: Nr:Datum:Temp:Abs-Feuchte:Windchill:Wind:
Aussen-T/F 1551 29-12-2014 19:45:00 1.7 C 4.46 g/m*3 1.7 C 4.8 km/h
1552 29-12-2014 19:50:00 1.7 C 4.52 g/m*3 -0.22 C 6.4 km/h
1553 29-12-2014 19:55:00 1.7 C 4.52 g/m*3 1.7 C 3.2 km/h
1554 29-12-2014 20:00:00 1.6 C 4.49 g/m*3 1.6 C 3.2 km/h
1555 29-12-2014 20:05:00 1.6 C 4.49 g/m*3 -1.33 C 9.7 km/h
1556 29-12-2014 20:10:00 1.6 C 4.49 g/m*3 -0.33 C 6.4 km/h
1557 29-12-2014 20:15:00 1.6 C 4.49 g/m*3 -0.33 C 6.4 km/h
1558 29-12-2014 20:20:00 1.5 C 4.4 g/m*3 -0.45 C 6.4 km/h
1559 29-12-2014 20:25:00 1.5 C 4.4 g/m*3 -1.45 C 9.7 km/h
1560 29-12-2014 20:30:00 1.5 C 4.46 g/m*3 1.5 C 1.6 km/h
1561 29-12-2014 20:35:00 1.5 C 4.46 g/m*3 1.5 C 3.2 km/h
1562 29-12-2014 20:40:00 1.4 C 4.43 g/m*3 1.4 C 4.8 km/h
1563 29-12-2014 20:45:00 1.4 C 4.43 g/m*3 1.4 C 4.8 km/h
1564 29-12-2014 20:50:00 1.5 C 4.4 g/m*3 1.5 C 3.2 km/h
1565 29-12-2014 20:55:00 1.5 C 4.46 g/m*3 1.5 C 3.2 km/h
1566 29-12-2014 21:00:00 1.5 C 4.4 g/m*3 -1.01 C 8.1 km/h
1567 29-12-2014 21:05:00 1.5 C 4.4 g/m*3 1.5 C 4.8 km/h
1568 29-12-2014 21:10:00 1.5 C 4.4 g/m*3 -0.45 C 6.4 km/h
1569 29-12-2014 21:15:00 1.5 C 4.4 g/m*3 -0.45 C 6.4 km/h
1570 29-12-2014 21:20:00 1.4 C 4.43 g/m*3 1.4 C 4.8 km/h
1571 29-12-2014 21:25:00 1.4 C 4.43 g/m*3 -0.56 C 6.4 km/h
1572 29-12-2014 21:30:00 1.4 C 4.43 g/m*3 1.4 C 4.8 km/h
1573 29-12-2014 21:35:00 1.4 C 4.43 g/m*3 1.4 C 3.2 km/h
1574 29-12-2014 21:40:00 1.4 C 4.43 g/m*3 1.4 C 3.2 km/h
1575 29-12-2014 21:45:00 1.3 C 4.34 g/m*3 -0.68 C 6.4 km/h
Sensor: Nr:Datum:Temp:Abs-Feuchte:Windchill:Wind:
Aussen-T/F 1576 29-12-2014 21:50:00 1.3 C 4.34 g/m*3 1.3 C 3.2 km/h
1577 29-12-2014 21:55:00 1.3 C 4.4 g/m*3 1.3 C 3.2 km/h
1578 29-12-2014 22:00:00 1.3 C 4.4 g/m*3 1.3 C 1.6 km/h
1579 29-12-2014 22:05:00 1.3 C 4.4 g/m*3 1.3 C 1.6 km/h
1580 29-12-2014 22:10:00 1.2 C 4.42 g/m*3 1.2 C 1.6 km/h
1581 29-12-2014 22:15:00 1.1 C 4.34 g/m*3 1.1 C 3.2 km/h
1582 29-12-2014 22:20:00 0.9 C 4.43 g/m*3 0.9 C 1.6 km/h
1583 29-12-2014 22:25:00 0.7 C 4.37 g/m*3 0.7 C 1.6 km/h
1584 29-12-2014 22:30:00 0.6 C 4.34 g/m*3 0.6 C 0 km/h
1585 29-12-2014 22:35:00 0.4 C 4.38 g/m*3 0.4 C 1.6 km/h
1586 29-12-2014 22:40:00 0.3 C 4.4 g/m*3 0.3 C 4.8 km/h
1587 29-12-2014 22:45:00 0.3 C 4.45 g/m*3 0.3 C 4.8 km/h
1588 29-12-2014 22:50:00 0.2 C 4.42 g/m*3 0.2 C 3.2 km/h
1589 29-12-2014 22:55:00 0.2 C 4.47 g/m*3 0.2 C 4.8 km/h
1590 29-12-2014 23:00:00 0.1 C 4.44 g/m*3 0.1 C 1.6 km/h
1591 29-12-2014 23:05:00 0.1 C 4.39 g/m*3 0.1 C 1.6 km/h
1592 29-12-2014 23:10:00 0 C 4.36 g/m*3 0 C 0 km/h
1593 29-12-2014 23:15:00 -0.1 C 4.38 g/m*3 -0.1 C 1.6 km/h
1594 29-12-2014 23:20:00 -0.1 C 4.33 g/m*3 -0.1 C 0 km/h
1595 29-12-2014 23:25:00 -0.1 C 4.33 g/m*3 -0.1 C 0 km/h
1596 29-12-2014 23:30:00 0 C 4.41 g/m*3 0 C 0 km/h
1597 29-12-2014 23:35:00 0.1 C 4.39 g/m*3 0.1 C 0 km/h
1598 29-12-2014 23:40:00 0.1 C 4.39 g/m*3 0.1 C 0 km/h
1599 29-12-2014 23:45:00 0.1 C 4.39 g/m*3 0.1 C 0 km/h
1600 29-12-2014 23:50:00 0.2 C 4.42 g/m*3 0.2 C 0 km/h
Sensor: Nr:Datum:Temp:Abs-Feuchte:Windchill:Wind:
Aussen-T/F 1601 29-12-2014 23:55:00 0.2 C 4.42 g/m*3 0.2 C 0 km/h
1602 30-12-2014 00:00:00 0.3 C 4.45 g/m*3 0.3 C 0 km/h
1603 30-12-2014 00:05:00 0.3 C 4.45 g/m*3 0.3 C 0 km/h
1604 30-12-2014 00:10:00 0.3 C 4.45 g/m*3 0.3 C 0 km/h
1605 30-12-2014 00:15:00 0.3 C 4.45 g/m*3 0.3 C 0 km/h
1606 30-12-2014 00:55:00 0.4 C 4.48 g/m*3 0.4 C 1.6 km/h
1607 30-12-2014 01:00:00 0.3 C 4.45 g/m*3 0.3 C 3.2 km/h
1608 30-12-2014 01:05:00 0.3 C 4.5 g/m*3 0.3 C 1.6 km/h
1609 30-12-2014 01:10:00 0.3 C 4.5 g/m*3 0.3 C 0 km/h
1610 30-12-2014 09:25:00 1.2 C 5.05 g/m*3 1.2 C 3.2 km/h
1611 30-12-2014 09:30:00 1.2 C 5.05 g/m*3 1.2 C 1.6 km/h
1612 30-12-2014 09:35:00 1.3 C 5.09 g/m*3 1.3 C 1.6 km/h
1613 30-12-2014 09:40:00 1.3 C 5.09 g/m*3 1.3 C 1.6 km/h
1614 30-12-2014 09:45:00 1.4 C 5.12 g/m*3 1.4 C 0 km/h
1615 30-12-2014 09:50:00 1.4 C 5.12 g/m*3 1.4 C 1.6 km/h
1616 30-12-2014 09:55:00 1.5 C 5.16 g/m*3 1.5 C 1.6 km/h
1617 30-12-2014 10:00:00 1.6 C 5.19 g/m*3 1.6 C 0 km/h
1618 30-12-2014 10:05:00 1.7 C 5.23 g/m*3 1.7 C 1.6 km/h
1619 30-12-2014 10:10:00 1.7 C 5.23 g/m*3 1.7 C 1.6 km/h
1620 30-12-2014 10:15:00 1.8 C 5.26 g/m*3 1.8 C 1.6 km/h
1621 30-12-2014 10:20:00 1.8 C 5.26 g/m*3 1.8 C 3.2 km/h
1622 30-12-2014 10:25:00 1.8 C 5.26 g/m*3 1.8 C 1.6 km/h
1623 30-12-2014 10:30:00 1.9 C 5.3 g/m*3 1.9 C 1.6 km/h
1624 30-12-2014 10:35:00 2 C 5.33 g/m*3 2 C 3.2 km/h
1625 30-12-2014 10:40:00 2.2 C 5.41 g/m*3 2.2 C 3.2 km/h
Sensor: Nr:Datum:Temp:Abs-Feuchte:Windchill:Wind:
Aussen-T/F 1626 30-12-2014 10:45:00 2.2 C 5.41 g/m*3 2.2 C 3.2 km/h
1627 30-12-2014 10:50:00 2.3 C 5.44 g/m*3 2.3 C 3.2 km/h
1628 30-12-2014 10:55:00 2.3 C 5.44 g/m*3 2.3 C 3.2 km/h
1629 30-12-2014 11:00:00 2.4 C 5.48 g/m*3 2.4 C 3.2 km/h
1630 30-12-2014 11:05:00 2.5 C 5.52 g/m*3 2.5 C 0 km/h
1631 30-12-2014 11:10:00 2.6 C 5.56 g/m*3 2.6 C 4.8 km/h
1632 30-12-2014 11:15:00 2.8 C 5.57 g/m*3 2.8 C 3.2 km/h
1633 30-12-2014 11:20:00 2.9 C 5.61 g/m*3 2.9 C 1.6 km/h
1634 30-12-2014 11:25:00 3 C 5.59 g/m*3 1.28 C 6.4 km/h
1635 30-12-2014 11:30:00 2.9 C 5.55 g/m*3 2.9 C 0 km/h
1636 30-12-2014 11:35:00 2.9 C 5.55 g/m*3 2.9 C 4.8 km/h
1637 30-12-2014 11:40:00 3 C 5.59 g/m*3 3 C 3.2 km/h
1638 30-12-2014 11:45:00 3.1 C 5.63 g/m*3 3.1 C 0 km/h
1639 30-12-2014 11:50:00 3.2 C 5.6 g/m*3 3.2 C 1.6 km/h
1640 30-12-2014 11:55:00 3.2 C 5.6 g/m*3 3.2 C 3.2 km/h
1641 30-12-2014 12:00:00 3.3 C 5.64 g/m*3 3.3 C 3.2 km/h
1642 30-12-2014 12:05:00 3.4 C 5.62 g/m*3 3.4 C 1.6 km/h
1643 30-12-2014 12:10:00 3.4 C 5.62 g/m*3 3.4 C 3.2 km/h
1644 30-12-2014 12:15:00 3.6 C 5.69 g/m*3 3.6 C 1.6 km/h
1645 30-12-2014 12:20:00 3.6 C 5.63 g/m*3 3.6 C 3.2 km/h
1646 30-12-2014 12:25:00 3.7 C 5.67 g/m*3 3.7 C 3.2 km/h
1647 30-12-2014 12:30:00 3.7 C 5.67 g/m*3 3.7 C 1.6 km/h
1648 30-12-2014 12:35:00 3.7 C 5.67 g/m*3 3.7 C 3.2 km/h
1649 30-12-2014 12:40:00 3.7 C 5.61 g/m*3 3.7 C 0 km/h
1650 30-12-2014 12:45:00 3.6 C 5.57 g/m*3 3.6 C 0 km/h
Sensor: Nr:Datum:Temp:Abs-Feuchte:Windchill:Wind:
Aussen-T/F 1651 30-12-2014 12:50:00 3.6 C 5.63 g/m*3 3.6 C 3.2 km/h
1652 30-12-2014 12:55:00 3.6 C 5.63 g/m*3 3.6 C 0 km/h
1653 30-12-2014 13:00:00 3.5 C 5.6 g/m*3 3.5 C 0 km/h
1654 30-12-2014 13:05:00 3.3 C 5.52 g/m*3 3.3 C 0 km/h
1655 30-12-2014 13:10:00 3.3 C 5.52 g/m*3 3.3 C 1.6 km/h
1656 30-12-2014 13:15:00 3.2 C 5.54 g/m*3 3.2 C 0 km/h
1657 30-12-2014 13:20:00 3.2 C 5.54 g/m*3 3.2 C 0 km/h
1658 30-12-2014 13:25:00 3.2 C 5.54 g/m*3 3.2 C 1.6 km/h
1659 30-12-2014 13:30:00 3.2 C 5.54 g/m*3 3.2 C 1.6 km/h
1660 30-12-2014 13:35:00 3.3 C 5.58 g/m*3 3.3 C 0 km/h
1661 30-12-2014 13:40:00 3.3 C 5.58 g/m*3 3.3 C 0 km/h
1662 30-12-2014 13:45:00 3.3 C 5.58 g/m*3 3.3 C 0 km/h
1663 30-12-2014 13:50:00 3.2 C 5.54 g/m*3 3.2 C 0 km/h
1664 30-12-2014 13:55:00 3.2 C 5.54 g/m*3 3.2 C 0 km/h
1665 30-12-2014 14:00:00 3.4 C 5.62 g/m*3 3.4 C 4.8 km/h
1666 30-12-2014 14:05:00 3.7 C 5.67 g/m*3 2.09 C 6.4 km/h
1667 30-12-2014 14:10:00 3.8 C 5.65 g/m*3 2.21 C 6.4 km/h
1668 30-12-2014 14:15:00 4.1 C 5.7 g/m*3 2.55 C 6.4 km/h
1669 30-12-2014 14:20:00 4.2 C 5.67 g/m*3 0.84 C 14.5 km/h
1670 30-12-2014 14:25:00 4.3 C 5.71 g/m*3 0.97 C 14.5 km/h
1671 30-12-2014 14:30:00 4.3 C 5.71 g/m*3 4.3 C 4.8 km/h
1672 30-12-2014 14:35:00 4.3 C 5.64 g/m*3 2.29 C 8.1 km/h
1673 30-12-2014 14:40:00 4.3 C 5.64 g/m*3 4.3 C 4.8 km/h
1674 30-12-2014 14:45:00 4.3 C 5.64 g/m*3 2.78 C 6.4 km/h
1675 30-12-2014 14:50:00 4.2 C 5.61 g/m*3 4.2 C 3.2 km/h
Sensor: Nr:Datum:Temp:Abs-Feuchte:Windchill:Wind:
Aussen-T/F 1676 30-12-2014 14:55:00 4.2 C 5.67 g/m*3 4.2 C 3.2 km/h
1677 30-12-2014 15:00:00 4.1 C 5.63 g/m*3 2.05 C 8.1 km/h
1678 30-12-2014 15:05:00 4 C 5.59 g/m*3 2.44 C 6.4 km/h
1679 30-12-2014 15:10:00 4.1 C 5.63 g/m*3 1.65 C 9.7 km/h
1680 30-12-2014 15:15:00 4.2 C 5.67 g/m*3 2.17 C 8.1 km/h
1681 30-12-2014 15:20:00 4.2 C 5.67 g/m*3 1.43 C 11.3 km/h
1682 30-12-2014 15:25:00 4.3 C 5.71 g/m*3 2.78 C 6.4 km/h
1683 30-12-2014 15:30:00 4.3 C 5.77 g/m*3 4.3 C 3.2 km/h
1684 30-12-2014 15:35:00 4.3 C 5.77 g/m*3 4.3 C 4.8 km/h
1685 30-12-2014 15:40:00 4.3 C 5.77 g/m*3 4.3 C 4.8 km/h
1686 30-12-2014 15:45:00 4.2 C 5.73 g/m*3 4.2 C 3.2 km/h
1687 30-12-2014 15:50:00 4.1 C 5.76 g/m*3 4.1 C 4.8 km/h
1688 30-12-2014 15:55:00 4.1 C 5.76 g/m*3 2.05 C 8.1 km/h
1689 30-12-2014 16:00:00 4.1 C 5.76 g/m*3 4.1 C 3.2 km/h
1690 30-12-2014 16:05:00 3.9 C 5.68 g/m*3 3.9 C 4.8 km/h
1691 30-12-2014 16:10:00 3.8 C 5.65 g/m*3 3.8 C 1.6 km/h
1692 30-12-2014 16:15:00 3.7 C 5.67 g/m*3 3.7 C 1.6 km/h
1693 30-12-2014 16:20:00 3.6 C 5.63 g/m*3 3.6 C 1.6 km/h
1694 30-12-2014 16:25:00 3.5 C 5.6 g/m*3 3.5 C 1.6 km/h
1695 30-12-2014 16:30:00 3.3 C 5.58 g/m*3 3.3 C 1.6 km/h
1696 30-12-2014 16:35:00 3.3 C 5.58 g/m*3 3.3 C 3.2 km/h
1697 30-12-2014 16:40:00 3.3 C 5.58 g/m*3 3.3 C 1.6 km/h
1698 30-12-2014 16:45:00 3.2 C 5.54 g/m*3 3.2 C 4.8 km/h
1699 30-12-2014 16:50:00 3.3 C 5.58 g/m*3 1.11 C 8.1 km/h
1700 30-12-2014 16:55:00 3.3 C 5.64 g/m*3 1.63 C 6.4 km/h
Sensor: Nr:Datum:Temp:Abs-Feuchte:Windchill:Wind:
Aussen-T/F 1701 30-12-2014 17:00:00 3.3 C 5.58 g/m*3 3.3 C 1.6 km/h
1702 30-12-2014 17:05:00 3.3 C 5.58 g/m*3 3.3 C 4.8 km/h
1703 30-12-2014 17:10:00 3.3 C 5.58 g/m*3 3.3 C 4.8 km/h
1704 30-12-2014 17:15:00 3.3 C 5.58 g/m*3 3.3 C 3.2 km/h
1705 30-12-2014 17:20:00 3.2 C 5.54 g/m*3 3.2 C 1.6 km/h
1706 30-12-2014 17:25:00 3.1 C 5.51 g/m*3 3.1 C 3.2 km/h
1707 30-12-2014 17:30:00 3 C 5.53 g/m*3 3 C 1.6 km/h
1708 30-12-2014 17:35:00 3.1 C 5.57 g/m*3 3.1 C 1.6 km/h
1709 30-12-2014 17:40:00 3.2 C 5.6 g/m*3 3.2 C 3.2 km/h
1710 30-12-2014 17:45:00 3.2 C 5.54 g/m*3 3.2 C 3.2 km/h
1711 30-12-2014 17:50:00 3.2 C 5.54 g/m*3 3.2 C 3.2 km/h
1712 30-12-2014 17:55:00 3.2 C 5.54 g/m*3 3.2 C 0 km/h
1713 30-12-2014 18:00:00 3 C 5.47 g/m*3 3 C 3.2 km/h
1714 30-12-2014 18:05:00 2.9 C 5.49 g/m*3 2.9 C 0 km/h
1715 30-12-2014 18:10:00 2.8 C 5.46 g/m*3 2.8 C 3.2 km/h
1716 30-12-2014 18:15:00 2.7 C 5.42 g/m*3 2.7 C 1.6 km/h
1717 30-12-2014 18:20:00 2.6 C 5.38 g/m*3 2.6 C 3.2 km/h
1718 30-12-2014 18:25:00 2.5 C 5.35 g/m*3 2.5 C 3.2 km/h
1719 30-12-2014 18:30:00 2.4 C 5.31 g/m*3 2.4 C 3.2 km/h
1720 30-12-2014 18:35:00 2.4 C 5.37 g/m*3 2.4 C 3.2 km/h
1721 30-12-2014 18:40:00 2.3 C 5.33 g/m*3 2.3 C 1.6 km/h
1722 30-12-2014 18:45:00 2.3 C 5.33 g/m*3 2.3 C 3.2 km/h
1723 30-12-2014 18:50:00 2.2 C 5.29 g/m*3 2.2 C 3.2 km/h
1724 30-12-2014 18:55:00 2.3 C 5.33 g/m*3 2.3 C 3.2 km/h
1725 30-12-2014 19:00:00 2.2 C 5.29 g/m*3 2.2 C 1.6 km/h
Sensor: Nr:Datum:Temp:Abs-Feuchte:Windchill:Wind:
Aussen-T/F 1726 30-12-2014 19:05:00 2.2 C 5.35 g/m*3 2.2 C 1.6 km/h
1727 30-12-2014 19:10:00 2.2 C 5.35 g/m*3 2.2 C 1.6 km/h
1728 30-12-2014 19:15:00 2.2 C 5.29 g/m*3 2.2 C 3.2 km/h
1729 30-12-2014 19:20:00 2.1 C 5.31 g/m*3 2.1 C 1.6 km/h
1730 30-12-2014 19:25:00 2.2 C 5.35 g/m*3 2.2 C 1.6 km/h
1731 30-12-2014 19:30:00 2.2 C 5.35 g/m*3 2.2 C 1.6 km/h
1732 30-12-2014 19:35:00 2.2 C 5.35 g/m*3 2.2 C 1.6 km/h
1733 30-12-2014 19:40:00 2.2 C 5.35 g/m*3 2.2 C 1.6 km/h
1734 30-12-2014 19:45:00 2.2 C 5.29 g/m*3 2.2 C 3.2 km/h
1735 30-12-2014 19:50:00 2.2 C 5.29 g/m*3 2.2 C 4.8 km/h
1736 30-12-2014 19:55:00 2.3 C 5.33 g/m*3 2.3 C 4.8 km/h
1737 30-12-2014 20:00:00 2.4 C 5.31 g/m*3 2.4 C 3.2 km/h
1738 30-12-2014 20:05:00 2.5 C 5.35 g/m*3 2.5 C 1.6 km/h
1739 30-12-2014 20:10:00 2.4 C 5.25 g/m*3 2.4 C 0 km/h
1740 30-12-2014 20:15:00 2.4 C 5.25 g/m*3 2.4 C 0 km/h
1741 30-12-2014 20:20:00 2.3 C 5.27 g/m*3 2.3 C 4.8 km/h
1742 30-12-2014 20:25:00 2.3 C 5.27 g/m*3 2.3 C 4.8 km/h
1743 30-12-2014 20:30:00 2.7 C 5.3 g/m*3 2.7 C 1.6 km/h
1744 30-12-2014 20:35:00 2.7 C 5.3 g/m*3 2.7 C 3.2 km/h
1745 30-12-2014 20:40:00 2.5 C 5.23 g/m*3 2.5 C 3.2 km/h
1746 30-12-2014 20:45:00 2.4 C 5.25 g/m*3 2.4 C 4.8 km/h
1747 30-12-2014 20:50:00 2.4 C 5.25 g/m*3 0.59 C 6.4 km/h
1748 30-12-2014 20:55:00 2.4 C 5.25 g/m*3 2.4 C 3.2 km/h
1749 30-12-2014 21:00:00 2.3 C 5.22 g/m*3 2.3 C 1.6 km/h
1750 30-12-2014 21:05:00 2.3 C 5.27 g/m*3 2.3 C 1.6 km/h
Sensor: Nr:Datum:Temp:Abs-Feuchte:Windchill:Wind:
Aussen-T/F 1751 30-12-2014 21:10:00 2.3 C 5.27 g/m*3 2.3 C 1.6 km/h
1752 30-12-2014 21:15:00 2.2 C 5.24 g/m*3 2.2 C 1.6 km/h
1753 30-12-2014 21:20:00 2.1 C 5.2 g/m*3 2.1 C 1.6 km/h
1754 30-12-2014 21:25:00 2.1 C 5.2 g/m*3 2.1 C 0 km/h
1755 30-12-2014 21:30:00 2.1 C 5.2 g/m*3 2.1 C 1.6 km/h
1756 30-12-2014 21:35:00 2 C 5.22 g/m*3 2 C 3.2 km/h
1757 30-12-2014 21:40:00 2 C 5.22 g/m*3 2 C 3.2 km/h
1758 30-12-2014 21:45:00 2.1 C 5.26 g/m*3 2.1 C 4.8 km/h
1759 30-12-2014 21:50:00 2.1 C 5.2 g/m*3 2.1 C 1.6 km/h
1760 30-12-2014 21:55:00 2.1 C 5.2 g/m*3 2.1 C 1.6 km/h
1761 30-12-2014 22:00:00 2 C 5.17 g/m*3 2 C 1.6 km/h
1762 30-12-2014 22:05:00 2 C 5.22 g/m*3 2 C 3.2 km/h
1763 30-12-2014 22:10:00 1.9 C 5.19 g/m*3 1.9 C 1.6 km/h
1764 30-12-2014 22:15:00 1.9 C 5.19 g/m*3 1.9 C 1.6 km/h
1765 30-12-2014 22:20:00 1.9 C 5.19 g/m*3 1.9 C 1.6 km/h
1766 30-12-2014 22:25:00 1.9 C 5.19 g/m*3 1.9 C 0 km/h
1767 30-12-2014 22:30:00 1.9 C 5.19 g/m*3 1.9 C 0 km/h
1768 30-12-2014 22:35:00 1.9 C 5.19 g/m*3 1.9 C 0 km/h
1769 30-12-2014 22:40:00 1.9 C 5.19 g/m*3 1.9 C 1.6 km/h
1770 30-12-2014 22:45:00 2 C 5.22 g/m*3 2 C 1.6 km/h
1771 30-12-2014 22:50:00 2 C 5.22 g/m*3 2 C 1.6 km/h
1772 30-12-2014 22:55:00 2 C 5.22 g/m*3 2 C 3.2 km/h
1773 30-12-2014 23:00:00 2 C 5.22 g/m*3 2 C 1.6 km/h
1774 30-12-2014 23:05:00 1.9 C 5.19 g/m*3 1.9 C 1.6 km/h
1775 30-12-2014 23:10:00 1.9 C 5.19 g/m*3 1.9 C 1.6 km/h
Sensor: Nr:Datum:Temp:Abs-Feuchte:Windchill:Wind:
Aussen-T/F 1776 30-12-2014 23:15:00 1.9 C 5.19 g/m*3 1.9 C 0 km/h
1777 30-12-2014 23:20:00 1.9 C 5.19 g/m*3 1.9 C 0 km/h
1778 30-12-2014 23:25:00 1.9 C 5.19 g/m*3 1.9 C 3.2 km/h
1779 30-12-2014 23:30:00 1.9 C 5.19 g/m*3 1.9 C 3.2 km/h
1780 30-12-2014 23:35:00 1.9 C 5.19 g/m*3 1.9 C 0 km/h
1781 30-12-2014 23:40:00 1.9 C 5.19 g/m*3 1.9 C 1.6 km/h
1782 30-12-2014 23:45:00 1.9 C 5.19 g/m*3 1.9 C 0 km/h
1783 30-12-2014 23:50:00 1.9 C 5.19 g/m*3 1.9 C 1.6 km/h
1784 30-12-2014 23:55:00 1.9 C 5.19 g/m*3 1.9 C 1.6 km/h
1785 31-12-2014 00:00:00 1.9 C 5.24 g/m*3 1.9 C 1.6 km/h
1786 31-12-2014 00:05:00 1.9 C 5.19 g/m*3 1.9 C 1.6 km/h
1787 31-12-2014 00:10:00 1.9 C 5.19 g/m*3 1.9 C 0 km/h
1788 31-12-2014 00:15:00 1.9 C 5.19 g/m*3 1.9 C 0 km/h
1789 31-12-2014 00:20:00 1.9 C 5.19 g/m*3 1.9 C 0 km/h
1790 31-12-2014 00:25:00 1.9 C 5.19 g/m*3 1.9 C 1.6 km/h
1791 31-12-2014 00:30:00 1.9 C 5.24 g/m*3 1.9 C 0 km/h
1792 31-12-2014 00:35:00 1.8 C 5.15 g/m*3 1.8 C 0 km/h
1793 31-12-2014 00:40:00 1.9 C 5.24 g/m*3 1.9 C 0 km/h
1794 31-12-2014 00:45:00 1.8 C 5.21 g/m*3 1.8 C 0 km/h
1795 31-12-2014 00:50:00 1.9 C 5.24 g/m*3 1.9 C 1.6 km/h
1796 31-12-2014 00:55:00 1.8 C 5.21 g/m*3 1.8 C 1.6 km/h
1797 31-12-2014 01:00:00 1.8 C 5.21 g/m*3 1.8 C 0 km/h
1798 31-12-2014 01:05:00 1.8 C 5.21 g/m*3 1.8 C 1.6 km/h
1799 31-12-2014 01:10:00 1.8 C 5.21 g/m*3 1.8 C 0 km/h
1800 31-12-2014 01:15:00 1.9 C 5.24 g/m*3 1.9 C 4.8 km/h
Sensor: Nr:Datum:Temp:Abs-Feuchte:Windchill:Wind:
Aussen-T/F 1801 31-12-2014 01:20:00 1.9 C 5.24 g/m*3 1.9 C 1.6 km/h
1802 31-12-2014 01:25:00 1.9 C 5.24 g/m*3 1.9 C 0 km/h
1803 31-12-2014 01:30:00 2 C 5.22 g/m*3 2 C 1.6 km/h
1804 31-12-2014 01:35:00 2.1 C 5.26 g/m*3 2.1 C 1.6 km/h
1805 31-12-2014 01:40:00 2.1 C 5.26 g/m*3 2.1 C 1.6 km/h
1806 31-12-2014 01:45:00 2.1 C 5.26 g/m*3 2.1 C 1.6 km/h
1807 31-12-2014 01:50:00 2.1 C 5.26 g/m*3 2.1 C 0 km/h
1808 31-12-2014 01:55:00 2.1 C 5.26 g/m*3 2.1 C 0 km/h
1809 31-12-2014 02:00:00 2.1 C 5.26 g/m*3 2.1 C 1.6 km/h
1810 31-12-2014 02:05:00 2.1 C 5.26 g/m*3 2.1 C 0 km/h
1811 31-12-2014 02:10:00 2.1 C 5.26 g/m*3 2.1 C 1.6 km/h
1812 31-12-2014 02:15:00 2.1 C 5.26 g/m*3 2.1 C 1.6 km/h
1813 31-12-2014 02:20:00 2.1 C 5.26 g/m*3 2.1 C 0 km/h
1814 31-12-2014 02:25:00 2.1 C 5.26 g/m*3 2.1 C 0 km/h
1815 31-12-2014 02:30:00 2.1 C 5.26 g/m*3 2.1 C 1.6 km/h
1816 31-12-2014 02:35:00 2.1 C 5.26 g/m*3 2.1 C 0 km/h
1817 31-12-2014 02:40:00 2.1 C 5.26 g/m*3 2.1 C 0 km/h
1818 31-12-2014 02:45:00 2.1 C 5.26 g/m*3 2.1 C 0 km/h
1819 31-12-2014 02:50:00 2.1 C 5.26 g/m*3 2.1 C 1.6 km/h
1820 31-12-2014 02:55:00 2.1 C 5.26 g/m*3 2.1 C 1.6 km/h
1821 31-12-2014 03:00:00 2.1 C 5.26 g/m*3 2.1 C 1.6 km/h
1822 31-12-2014 03:05:00 2.1 C 5.26 g/m*3 2.1 C 1.6 km/h
1823 31-12-2014 03:10:00 2.1 C 5.26 g/m*3 2.1 C 1.6 km/h
1824 31-12-2014 03:15:00 2.1 C 5.31 g/m*3 2.1 C 1.6 km/h
1825 31-12-2014 03:20:00 2.1 C 5.26 g/m*3 2.1 C 3.2 km/h
Sensor: Nr:Datum:Temp:Abs-Feuchte:Windchill:Wind:
Aussen-T/F 1826 31-12-2014 03:25:00 2.1 C 5.26 g/m*3 2.1 C 0 km/h
1827 31-12-2014 03:30:00 2.1 C 5.26 g/m*3 2.1 C 1.6 km/h
1828 31-12-2014 03:35:00 2.1 C 5.31 g/m*3 2.1 C 0 km/h
1829 31-12-2014 03:40:00 2.1 C 5.31 g/m*3 2.1 C 0 km/h
1830 31-12-2014 03:45:00 2.1 C 5.31 g/m*3 2.1 C 1.6 km/h
1831 31-12-2014 03:50:00 2.1 C 5.31 g/m*3 2.1 C 0 km/h
1832 31-12-2014 03:55:00 2.1 C 5.31 g/m*3 2.1 C 0 km/h
1833 31-12-2014 04:00:00 2.1 C 5.31 g/m*3 2.1 C 0 km/h
1834 31-12-2014 04:05:00 2.1 C 5.31 g/m*3 2.1 C 0 km/h
1835 31-12-2014 04:10:00 2.1 C 5.31 g/m*3 2.1 C 0 km/h
1836 31-12-2014 04:15:00 2.1 C 5.31 g/m*3 2.1 C 0 km/h
1837 31-12-2014 04:20:00 2.1 C 5.31 g/m*3 2.1 C 0 km/h
1838 31-12-2014 04:25:00 2.1 C 5.31 g/m*3 2.1 C 0 km/h
1839 31-12-2014 04:30:00 2.1 C 5.31 g/m*3 2.1 C 0 km/h
1840 31-12-2014 04:35:00 2.2 C 5.35 g/m*3 2.2 C 1.6 km/h
1841 31-12-2014 04:40:00 2.2 C 5.35 g/m*3 2.2 C 0 km/h
1842 31-12-2014 04:45:00 2.2 C 5.35 g/m*3 2.2 C 0 km/h
1843 31-12-2014 04:50:00 2.2 C 5.35 g/m*3 2.2 C 0 km/h
1844 31-12-2014 04:55:00 2.1 C 5.26 g/m*3 2.1 C 1.6 km/h
1845 31-12-2014 05:00:00 2.2 C 5.35 g/m*3 2.2 C 1.6 km/h
1846 31-12-2014 05:05:00 2.2 C 5.35 g/m*3 2.2 C 1.6 km/h
1847 31-12-2014 05:10:00 2.2 C 5.35 g/m*3 2.2 C 1.6 km/h
1848 31-12-2014 05:15:00 2.2 C 5.29 g/m*3 2.2 C 3.2 km/h
1849 31-12-2014 05:20:00 2.3 C 5.33 g/m*3 2.3 C 3.2 km/h
1850 31-12-2014 05:25:00 2.3 C 5.33 g/m*3 2.3 C 4.8 km/h
Sensor: Nr:Datum:Temp:Abs-Feuchte:Windchill:Wind:
Aussen-T/F 1851 31-12-2014 05:30:00 2.3 C 5.33 g/m*3 2.3 C 1.6 km/h
1852 31-12-2014 05:35:00 2.3 C 5.33 g/m*3 2.3 C 1.6 km/h
1853 31-12-2014 05:40:00 2.3 C 5.33 g/m*3 2.3 C 1.6 km/h
1854 31-12-2014 05:45:00 2.3 C 5.33 g/m*3 2.3 C 1.6 km/h
1855 31-12-2014 05:50:00 2.3 C 5.33 g/m*3 2.3 C 0 km/h
1856 31-12-2014 05:55:00 2.3 C 5.33 g/m*3 2.3 C 0 km/h
1857 31-12-2014 06:00:00 2.3 C 5.33 g/m*3 2.3 C 3.2 km/h
1858 31-12-2014 06:05:00 2.3 C 5.33 g/m*3 2.3 C 0 km/h
1859 31-12-2014 06:10:00 2.3 C 5.33 g/m*3 2.3 C 0 km/h
1860 31-12-2014 06:15:00 2.3 C 5.33 g/m*3 2.3 C 0 km/h
1861 31-12-2014 06:20:00 2.3 C 5.33 g/m*3 2.3 C 3.2 km/h
1862 31-12-2014 06:25:00 2.3 C 5.33 g/m*3 2.3 C 1.6 km/h
1863 31-12-2014 06:30:00 2.2 C 5.29 g/m*3 2.2 C 1.6 km/h
1864 31-12-2014 06:35:00 2.2 C 5.29 g/m*3 2.2 C 0 km/h
1865 31-12-2014 06:40:00 2.2 C 5.29 g/m*3 2.2 C 1.6 km/h
1866 31-12-2014 06:45:00 2.3 C 5.33 g/m*3 2.3 C 3.2 km/h
1867 31-12-2014 06:50:00 2.3 C 5.33 g/m*3 2.3 C 3.2 km/h
1868 31-12-2014 06:55:00 2.3 C 5.33 g/m*3 2.3 C 1.6 km/h
1869 31-12-2014 07:00:00 2.3 C 5.33 g/m*3 2.3 C 3.2 km/h
1870 31-12-2014 07:05:00 2.4 C 5.37 g/m*3 2.4 C 4.8 km/h
1871 31-12-2014 07:10:00 2.4 C 5.37 g/m*3 2.4 C 3.2 km/h
1872 31-12-2014 07:15:00 2.4 C 5.37 g/m*3 2.4 C 4.8 km/h
1873 31-12-2014 07:20:00 2.5 C 5.4 g/m*3 2.5 C 1.6 km/h
1874 31-12-2014 07:25:00 2.5 C 5.35 g/m*3 2.5 C 4.8 km/h
1875 31-12-2014 07:30:00 2.6 C 5.44 g/m*3 2.6 C 3.2 km/h
Sensor: Nr:Datum:Temp:Abs-Feuchte:Windchill:Wind:
Aussen-T/F 1876 31-12-2014 07:35:00 2.6 C 5.38 g/m*3 2.6 C 3.2 km/h
1877 31-12-2014 07:40:00 2.6 C 5.38 g/m*3 2.6 C 3.2 km/h
1878 31-12-2014 07:45:00 2.6 C 5.38 g/m*3 2.6 C 0 km/h
1879 31-12-2014 07:50:00 2.5 C 5.35 g/m*3 2.5 C 3.2 km/h
1880 31-12-2014 07:55:00 2.4 C 5.37 g/m*3 2.4 C 1.6 km/h
1881 31-12-2014 08:00:00 2.5 C 5.35 g/m*3 2.5 C 3.2 km/h
1882 31-12-2014 08:05:00 2.4 C 5.37 g/m*3 2.4 C 3.2 km/h
1883 31-12-2014 08:10:00 2.4 C 5.37 g/m*3 2.4 C 3.2 km/h
1884 31-12-2014 08:15:00 2.5 C 5.4 g/m*3 2.5 C 4.8 km/h
1885 31-12-2014 08:20:00 2.6 C 5.44 g/m*3 0.82 C 6.4 km/h
1886 31-12-2014 08:25:00 2.6 C 5.44 g/m*3 0.82 C 6.4 km/h
1887 31-12-2014 08:30:00 2.6 C 5.44 g/m*3 2.6 C 1.6 km/h
1888 31-12-2014 08:35:00 2.6 C 5.44 g/m*3 2.6 C 3.2 km/h
1889 31-12-2014 08:40:00 2.6 C 5.38 g/m*3 0.29 C 8.1 km/h
1890 31-12-2014 08:45:00 2.7 C 5.42 g/m*3 0.4 C 8.1 km/h
1891 31-12-2014 08:50:00 2.7 C 5.42 g/m*3 2.7 C 4.8 km/h
1892 31-12-2014 08:55:00 2.6 C 5.38 g/m*3 2.6 C 3.2 km/h
1893 31-12-2014 09:00:00 2.7 C 5.42 g/m*3 0.4 C 8.1 km/h
1894 31-12-2014 09:05:00 2.7 C 5.42 g/m*3 0.4 C 8.1 km/h
1895 31-12-2014 09:10:00 2.7 C 5.42 g/m*3 0.94 C 6.4 km/h
1896 31-12-2014 09:15:00 2.7 C 5.42 g/m*3 0.4 C 8.1 km/h
1897 31-12-2014 09:20:00 2.7 C 5.42 g/m*3 -0.38 C 11.3 km/h
1898 31-12-2014 09:25:00 2.8 C 5.4 g/m*3 0.52 C 8.1 km/h
1899 31-12-2014 09:30:00 2.8 C 5.4 g/m*3 0.52 C 8.1 km/h
1900 31-12-2014 09:35:00 2.8 C 5.4 g/m*3 0.52 C 8.1 km/h
Sensor: Nr:Datum:Temp:Abs-Feuchte:Windchill:Wind:
Aussen-T/F 1901 31-12-2014 09:40:00 2.8 C 5.4 g/m*3 0.1 C 9.7 km/h
1902 31-12-2014 09:45:00 2.8 C 5.4 g/m*3 1.05 C 6.4 km/h
1903 31-12-2014 09:50:00 2.8 C 5.4 g/m*3 0.1 C 9.7 km/h
1904 31-12-2014 09:55:00 2.9 C 5.43 g/m*3 0.64 C 8.1 km/h
1905 31-12-2014 10:00:00 2.9 C 5.43 g/m*3 1.17 C 6.4 km/h
1906 31-12-2014 10:05:00 2.9 C 5.43 g/m*3 1.17 C 6.4 km/h
1907 31-12-2014 10:10:00 2.9 C 5.43 g/m*3 1.17 C 6.4 km/h
1908 31-12-2014 10:15:00 3 C 5.47 g/m*3 0.34 C 9.7 km/h
1909 31-12-2014 10:20:00 3 C 5.47 g/m*3 0.76 C 8.1 km/h
1910 31-12-2014 10:25:00 3.1 C 5.51 g/m*3 0.46 C 9.7 km/h
1911 31-12-2014 10:30:00 3.1 C 5.51 g/m*3 0.1 C 11.3 km/h
1912 31-12-2014 10:35:00 3.1 C 5.45 g/m*3 0.87 C 8.1 km/h
1913 31-12-2014 10:40:00 3.2 C 5.48 g/m*3 0.22 C 11.3 km/h
1914 31-12-2014 10:45:00 3.2 C 5.48 g/m*3 0.22 C 11.3 km/h
1915 31-12-2014 10:50:00 3.2 C 5.48 g/m*3 0.99 C 8.1 km/h
1916 31-12-2014 10:55:00 3.3 C 5.52 g/m*3 0.34 C 11.3 km/h
1917 31-12-2014 11:00:00 3.2 C 5.48 g/m*3 0.99 C 8.1 km/h
1918 31-12-2014 11:05:00 3.2 C 5.48 g/m*3 0.58 C 9.7 km/h
1919 31-12-2014 11:10:00 3.2 C 5.48 g/m*3 0.58 C 9.7 km/h
1920 31-12-2014 11:15:00 3.3 C 5.52 g/m*3 1.11 C 8.1 km/h
1921 31-12-2014 11:20:00 3.3 C 5.52 g/m*3 1.11 C 8.1 km/h
1922 31-12-2014 11:25:00 3.3 C 5.52 g/m*3 1.63 C 6.4 km/h
1923 31-12-2014 11:30:00 3.4 C 5.56 g/m*3 1.23 C 8.1 km/h
1924 31-12-2014 11:35:00 3.4 C 5.56 g/m*3 1.75 C 6.4 km/h
1925 31-12-2014 11:40:00 3.5 C 5.6 g/m*3 1.34 C 8.1 km/h
Sensor: Nr:Datum:Temp:Abs-Feuchte:Windchill:Wind:
Aussen-T/F 1926 31-12-2014 11:45:00 3.6 C 5.63 g/m*3 1.46 C 8.1 km/h
1927 31-12-2014 11:50:00 3.6 C 5.63 g/m*3 3.6 C 4.8 km/h
1928 31-12-2014 11:55:00 3.6 C 5.63 g/m*3 3.6 C 4.8 km/h
1929 31-12-2014 12:00:00 3.6 C 5.63 g/m*3 3.6 C 4.8 km/h
1930 31-12-2014 17:10:00 3.3 C 6.07 g/m*3 3.3 C 1.6 km/h
1931 31-12-2014 17:15:00 3.2 C 6.03 g/m*3 3.2 C 3.2 km/h
1932 31-12-2014 17:20:00 3.2 C 6.03 g/m*3 3.2 C 1.6 km/h
1933 31-12-2014 17:25:00 3.2 C 6.03 g/m*3 3.2 C 3.2 km/h
1934 31-12-2014 17:30:00 3.2 C 6.03 g/m*3 0.58 C 9.7 km/h
1935 31-12-2014 17:35:00 3.2 C 6.03 g/m*3 3.2 C 3.2 km/h
1936 31-12-2014 17:40:00 3.2 C 6.03 g/m*3 3.2 C 3.2 km/h
1937 01-01-2015 00:15:00 2.6 C 5.79 g/m*3 2.6 C 0 km/h
1938 01-01-2015 00:20:00 2.6 C 5.79 g/m*3 2.6 C 0 km/h
1939 01-01-2015 00:25:00 2.6 C 5.79 g/m*3 2.6 C 0 km/h
1940 01-01-2015 00:30:00 2.6 C 5.79 g/m*3 2.6 C 1.6 km/h
1941 01-01-2015 00:35:00 2.7 C 5.59 g/m*3 2.7 C 0 km/h
1942 01-01-2015 00:40:00 2.7 C 5.59 g/m*3 2.7 C 0 km/h
1943 01-01-2015 00:45:00 2.7 C 5.59 g/m*3 2.7 C 1.6 km/h
1944 01-01-2015 00:50:00 2.7 C 5.59 g/m*3 2.7 C 0 km/h
1945 01-01-2015 00:55:00 2.7 C 5.59 g/m*3 2.7 C 0 km/h
1946 01-01-2015 01:00:00 2.7 C 5.59 g/m*3 2.7 C 1.6 km/h
1947 01-01-2015 01:05:00 2.8 C 5.63 g/m*3 2.8 C 1.6 km/h
1948 01-01-2015 01:10:00 2.8 C 5.63 g/m*3 2.8 C 0 km/h
1949 01-01-2015 01:15:00 2.8 C 5.63 g/m*3 2.8 C 0 km/h
1950 01-01-2015 01:20:00 2.8 C 5.63 g/m*3 2.8 C 1.6 km/h
Sensor: Nr:Datum:Temp:Abs-Feuchte:Windchill:Wind:
Aussen-T/F 1951 01-01-2015 01:25:00 2.9 C 5.67 g/m*3 2.9 C 0 km/h
1952 01-01-2015 01:30:00 2.9 C 5.67 g/m*3 2.9 C 1.6 km/h
1953 01-01-2015 01:35:00 2.9 C 5.67 g/m*3 2.9 C 0 km/h
1954 01-01-2015 01:40:00 2.9 C 5.67 g/m*3 2.9 C 0 km/h
1955 01-01-2015 01:45:00 2.9 C 5.67 g/m*3 2.9 C 1.6 km/h
1956 01-01-2015 01:50:00 2.9 C 5.67 g/m*3 2.9 C 0 km/h
1957 01-01-2015 01:55:00 2.9 C 5.67 g/m*3 2.9 C 0 km/h
1958 01-01-2015 02:00:00 2.8 C 5.63 g/m*3 2.8 C 0 km/h
1959 01-01-2015 02:05:00 2.8 C 5.63 g/m*3 2.8 C 0 km/h
1960 01-01-2015 02:10:00 2.8 C 5.63 g/m*3 2.8 C 0 km/h
1961 01-01-2015 02:15:00 2.8 C 5.63 g/m*3 2.8 C 0 km/h
1962 01-01-2015 02:20:00 2.8 C 5.63 g/m*3 2.8 C 0 km/h
1963 01-01-2015 02:25:00 2.8 C 5.63 g/m*3 2.8 C 0 km/h
1964 01-01-2015 02:30:00 2.8 C 5.63 g/m*3 2.8 C 0 km/h
1965 01-01-2015 02:35:00 2.8 C 5.63 g/m*3 2.8 C 0 km/h
1966 01-01-2015 02:40:00 2.7 C 5.59 g/m*3 2.7 C 0 km/h
1967 01-01-2015 02:45:00 2.7 C 5.59 g/m*3 2.7 C 0 km/h
1968 01-01-2015 02:50:00 2.7 C 5.59 g/m*3 2.7 C 0 km/h
1969 01-01-2015 02:55:00 2.6 C 5.56 g/m*3 2.6 C 0 km/h
1970 01-01-2015 03:00:00 2.5 C 5.52 g/m*3 2.5 C 0 km/h
1971 01-01-2015 03:05:00 2.4 C 5.42 g/m*3 2.4 C 0 km/h
1972 01-01-2015 03:10:00 2.2 C 5.35 g/m*3 2.2 C 3.2 km/h
1973 01-01-2015 03:15:00 1.9 C 5.24 g/m*3 1.9 C 3.2 km/h
1974 01-01-2015 03:20:00 1.8 C 5.21 g/m*3 1.8 C 3.2 km/h
1975 01-01-2015 03:25:00 1.8 C 5.26 g/m*3 1.8 C 3.2 km/h
Sensor: Nr:Datum:Temp:Abs-Feuchte:Windchill:Wind:
Aussen-T/F 1976 01-01-2015 03:30:00 1.7 C 5.23 g/m*3 1.7 C 0 km/h
1977 01-01-2015 03:35:00 1.6 C 5.19 g/m*3 1.6 C 1.6 km/h
1978 01-01-2015 03:40:00 1.6 C 5.19 g/m*3 1.6 C 1.6 km/h
1979 01-01-2015 03:45:00 1.4 C 5.12 g/m*3 1.4 C 3.2 km/h
1980 01-01-2015 03:50:00 1.4 C 5.12 g/m*3 1.4 C 3.2 km/h
1981 01-01-2015 03:55:00 1.3 C 5.09 g/m*3 1.3 C 0 km/h
1982 01-01-2015 04:00:00 1.3 C 5.09 g/m*3 1.3 C 1.6 km/h
1983 01-01-2015 04:05:00 1.3 C 5.09 g/m*3 1.3 C 0 km/h
1984 01-01-2015 04:10:00 1.2 C 5.05 g/m*3 1.2 C 3.2 km/h
1985 01-01-2015 04:15:00 1.1 C 5.02 g/m*3 1.1 C 1.6 km/h
1986 01-01-2015 04:20:00 1 C 4.98 g/m*3 1 C 1.6 km/h
1987 01-01-2015 04:25:00 0.9 C 4.95 g/m*3 0.9 C 4.8 km/h
1988 01-01-2015 04:30:00 0.9 C 4.95 g/m*3 0.9 C 4.8 km/h
1989 01-01-2015 04:35:00 0.9 C 4.95 g/m*3 0.9 C 1.6 km/h
1990 01-01-2015 04:40:00 0.9 C 5 g/m*3 0.9 C 3.2 km/h
1991 01-01-2015 04:45:00 0.9 C 5 g/m*3 0.9 C 1.6 km/h
1992 01-01-2015 04:50:00 0.9 C 5 g/m*3 0.9 C 3.2 km/h
1993 01-01-2015 04:55:00 1 C 5.03 g/m*3 1 C 1.6 km/h
1994 01-01-2015 05:00:00 1.1 C 5.07 g/m*3 1.1 C 1.6 km/h
1995 01-01-2015 05:05:00 1.2 C 5.1 g/m*3 1.2 C 3.2 km/h
1996 01-01-2015 05:10:00 1.3 C 5.14 g/m*3 1.3 C 0 km/h
1997 01-01-2015 05:15:00 1.4 C 5.17 g/m*3 1.4 C 1.6 km/h
1998 01-01-2015 05:20:00 1.5 C 5.21 g/m*3 1.5 C 0 km/h
1999 01-01-2015 05:25:00 1.5 C 5.21 g/m*3 1.5 C 0 km/h
2000 01-01-2015 05:30:00 1.5 C 5.21 g/m*3 1.5 C 1.6 km/h
Sensor: Nr:Datum:Temp:Abs-Feuchte:Windchill:Wind:
Aussen-T/F 2001 01-01-2015 05:35:00 1.6 C 5.25 g/m*3 1.6 C 0 km/h
2002 01-01-2015 05:40:00 1.7 C 5.28 g/m*3 1.7 C 3.2 km/h
2003 01-01-2015 05:45:00 1.7 C 5.28 g/m*3 1.7 C 0 km/h
2004 01-01-2015 05:50:00 1.8 C 5.32 g/m*3 1.8 C 4.8 km/h
2005 01-01-2015 05:55:00 1.8 C 5.32 g/m*3 1.8 C 3.2 km/h
2006 01-01-2015 06:00:00 1.8 C 5.32 g/m*3 -0.1 C 6.4 km/h
2007 01-01-2015 06:05:00 1.8 C 5.32 g/m*3 -0.1 C 6.4 km/h
2008 01-01-2015 06:10:00 1.8 C 5.32 g/m*3 1.8 C 4.8 km/h
2009 01-01-2015 06:15:00 1.8 C 5.32 g/m*3 1.8 C 3.2 km/h
2010 01-01-2015 06:20:00 1.8 C 5.32 g/m*3 1.8 C 4.8 km/h
2011 01-01-2015 06:25:00 1.8 C 5.32 g/m*3 1.8 C 3.2 km/h
2012 01-01-2015 06:30:00 1.8 C 5.32 g/m*3 1.8 C 4.8 km/h
2013 01-01-2015 06:35:00 1.8 C 5.32 g/m*3 -0.65 C 8.1 km/h
2014 01-01-2015 06:40:00 1.8 C 5.32 g/m*3 1.8 C 4.8 km/h
2015 01-01-2015 06:45:00 1.8 C 5.32 g/m*3 -0.1 C 6.4 km/h
2016 01-01-2015 06:50:00 1.8 C 5.32 g/m*3 -0.65 C 8.1 km/h
2017 01-01-2015 06:55:00 1.8 C 5.32 g/m*3 1.8 C 4.8 km/h
2018 01-01-2015 07:00:00 1.8 C 5.32 g/m*3 -0.1 C 6.4 km/h
2019 01-01-2015 07:05:00 1.8 C 5.32 g/m*3 1.8 C 1.6 km/h
2020 01-01-2015 07:10:00 1.8 C 5.32 g/m*3 1.8 C 3.2 km/h
2021 01-01-2015 07:15:00 1.8 C 5.32 g/m*3 1.8 C 3.2 km/h
2022 01-01-2015 07:20:00 1.7 C 5.28 g/m*3 1.7 C 0 km/h
2023 01-01-2015 07:25:00 1.7 C 5.28 g/m*3 1.7 C 3.2 km/h
2024 01-01-2015 07:30:00 1.7 C 5.28 g/m*3 1.7 C 4.8 km/h
2025 01-01-2015 07:35:00 1.7 C 5.28 g/m*3 1.7 C 1.6 km/h
Sensor: Nr:Datum:Temp:Abs-Feuchte:Windchill:Wind:
Aussen-T/F 2026 01-01-2015 07:40:00 1.7 C 5.28 g/m*3 1.7 C 4.8 km/h
2027 01-01-2015 07:45:00 1.6 C 5.25 g/m*3 1.6 C 3.2 km/h
2028 01-01-2015 07:50:00 1.6 C 5.25 g/m*3 1.6 C 0 km/h
2029 01-01-2015 07:55:00 1.6 C 5.25 g/m*3 1.6 C 3.2 km/h
2030 01-01-2015 08:00:00 1.6 C 5.25 g/m*3 1.6 C 3.2 km/h
2031 01-01-2015 08:05:00 1.6 C 5.25 g/m*3 1.6 C 1.6 km/h
2032 01-01-2015 08:10:00 1.6 C 5.25 g/m*3 1.6 C 3.2 km/h
2033 01-01-2015 08:15:00 1.6 C 5.25 g/m*3 1.6 C 1.6 km/h
2034 01-01-2015 08:20:00 1.6 C 5.25 g/m*3 1.6 C 0 km/h
2035 01-01-2015 08:25:00 1.5 C 5.21 g/m*3 1.5 C 1.6 km/h
2036 01-01-2015 08:30:00 1.5 C 5.21 g/m*3 1.5 C 0 km/h
2037 01-01-2015 08:35:00 1.5 C 5.21 g/m*3 1.5 C 0 km/h
2038 01-01-2015 16:40:00 1.8 C 5.48 g/m*3 1.8 C 1.6 km/h
2039 01-01-2015 16:45:00 1.8 C 5.48 g/m*3 1.8 C 3.2 km/h
2040 01-01-2015 18:30:00 1.9 C 5.24 g/m*3 1.9 C 3.2 km/h
2041 01-01-2015 18:35:00 1.8 C 5.15 g/m*3 1.8 C 1.6 km/h
2042 01-01-2015 18:40:00 1.7 C 5.17 g/m*3 1.7 C 3.2 km/h
2043 01-01-2015 18:45:00 1.6 C 5.14 g/m*3 1.6 C 0 km/h
2044 01-01-2015 18:50:00 1.6 C 5.14 g/m*3 1.6 C 0 km/h
2045 01-01-2015 18:55:00 1.5 C 5.1 g/m*3 1.5 C 0 km/h
2046 01-01-2015 19:00:00 1.3 C 5.03 g/m*3 1.3 C 0 km/h
2047 01-01-2015 19:05:00 1.2 C 5 g/m*3 1.2 C 1.6 km/h
2048 01-01-2015 19:10:00 1.2 C 5 g/m*3 1.2 C 3.2 km/h
2049 01-01-2015 19:15:00 1.2 C 5.05 g/m*3 1.2 C 3.2 km/h
2050 01-01-2015 19:20:00 1.1 C 4.96 g/m*3 1.1 C 1.6 km/h
Sensor: Nr:Datum:Temp:Abs-Feuchte:Windchill:Wind:
Aussen-T/F 2051 01-01-2015 19:25:00 1.1 C 4.96 g/m*3 1.1 C 3.2 km/h
2052 01-01-2015 19:30:00 1.1 C 4.96 g/m*3 1.1 C 1.6 km/h
2053 02-01-2015 03:25:00 2.2 C 4.96 g/m*3 -0.99 C 11.3 km/h
2054 02-01-2015 03:30:00 2.2 C 4.96 g/m*3 2.2 C 1.6 km/h
2055 02-01-2015 03:35:00 2.2 C 4.96 g/m*3 -0.61 C 9.7 km/h
2056 02-01-2015 05:05:00 3.2 C 4.94 g/m*3 -0.1 C 12.9 km/h
2057 02-01-2015 05:10:00 3.2 C 4.94 g/m*3 0.22 C 11.3 km/h
2058 02-01-2015 05:15:00 3.2 C 4.94 g/m*3 -1.32 C 20.9 km/h
2059 02-01-2015 05:20:00 3.2 C 4.94 g/m*3 0.22 C 11.3 km/h
2060 02-01-2015 05:25:00 3.2 C 4.94 g/m*3 0.22 C 11.3 km/h
2061 02-01-2015 05:30:00 3.2 C 4.94 g/m*3 -0.39 C 14.5 km/h
2062 02-01-2015 06:25:00 3.6 C 4.95 g/m*3 -0.15 C 16.1 km/h
2063 02-01-2015 06:30:00 3.4 C 4.95 g/m*3 -0.14 C 14.5 km/h
2064 02-01-2015 06:35:00 3.3 C 4.97 g/m*3 -1.57 C 24.1 km/h
2065 02-01-2015 06:40:00 3.3 C 4.97 g/m*3 -0.76 C 17.7 km/h
2066 02-01-2015 06:45:00 3.3 C 5.04 g/m*3 -1.19 C 20.9 km/h
2067 02-01-2015 06:50:00 3.2 C 5 g/m*3 -1.11 C 19.3 km/h
2068 02-01-2015 06:55:00 3.2 C 5 g/m*3 -1.87 C 25.7 km/h
2069 02-01-2015 07:00:00 3.3 C 5.04 g/m*3 -1.74 C 25.7 km/h
2070 02-01-2015 07:05:00 3.2 C 5 g/m*3 -1.51 C 22.5 km/h
2071 02-01-2015 07:10:00 3.2 C 5 g/m*3 -0.89 C 17.7 km/h
2072 02-01-2015 07:15:00 3.2 C 5.06 g/m*3 0.22 C 11.3 km/h
2073 02-01-2015 07:20:00 3.1 C 5.03 g/m*3 -1.64 C 22.5 km/h
2074 02-01-2015 07:25:00 3.1 C 5.09 g/m*3 -1.45 C 20.9 km/h
2075 02-01-2015 07:30:00 3.1 C 5.09 g/m*3 -2.18 C 27.4 km/h
Sensor: Nr:Datum:Temp:Abs-Feuchte:Windchill:Wind:
Aussen-T/F 2076 02-01-2015 07:35:00 3 C 5.05 g/m*3 -0.9 C 16.1 km/h
2077 02-01-2015 07:40:00 3 C 5.05 g/m*3 -0.34 C 12.9 km/h
2078 02-01-2015 07:45:00 2.9 C 5.08 g/m*3 -0.76 C 14.5 km/h
2079 02-01-2015 07:50:00 2.9 C 5.08 g/m*3 -0.46 C 12.9 km/h
2080 02-01-2015 07:55:00 2.9 C 5.08 g/m*3 -0.76 C 14.5 km/h
2081 02-01-2015 08:00:00 2.8 C 5.1 g/m*3 -2.02 C 22.5 km/h
2082 02-01-2015 08:05:00 2.8 C 5.1 g/m*3 0.52 C 8.1 km/h
2083 02-01-2015 08:10:00 2.8 C 5.1 g/m*3 -0.26 C 11.3 km/h
2084 02-01-2015 08:15:00 2.8 C 5.1 g/m*3 -1.61 C 19.3 km/h
2085 02-01-2015 08:20:00 2.7 C 5.13 g/m*3 -2.34 C 24.1 km/h
2086 02-01-2015 08:25:00 2.8 C 5.16 g/m*3 -1.61 C 19.3 km/h
2087 02-01-2015 08:30:00 2.8 C 5.16 g/m*3 -0.88 C 14.5 km/h
2088 02-01-2015 08:35:00 2.8 C 5.16 g/m*3 -1.39 C 17.7 km/h
2089 02-01-2015 08:40:00 2.7 C 5.13 g/m*3 -1.95 C 20.9 km/h
2090 02-01-2015 08:45:00 2.8 C 5.16 g/m*3 -2.57 C 27.4 km/h
2091 02-01-2015 08:50:00 2.8 C 5.22 g/m*3 -1.39 C 17.7 km/h
2092 02-01-2015 08:55:00 2.7 C 5.19 g/m*3 -1.74 C 19.3 km/h
2093 02-01-2015 09:00:00 2.7 C 5.19 g/m*3 -1.51 C 17.7 km/h
2094 02-01-2015 09:05:00 2.7 C 5.24 g/m*3 -1.27 C 16.1 km/h
2095 02-01-2015 09:10:00 2.7 C 5.24 g/m*3 -2.15 C 22.5 km/h
2096 02-01-2015 09:15:00 2.7 C 5.24 g/m*3 -2.15 C 22.5 km/h
2097 02-01-2015 09:20:00 2.7 C 5.24 g/m*3 -1.95 C 20.9 km/h
2098 02-01-2015 09:25:00 2.7 C 5.24 g/m*3 -2.34 C 24.1 km/h
2099 02-01-2015 09:30:00 2.7 C 5.3 g/m*3 -2.34 C 24.1 km/h
2100 02-01-2015 09:35:00 2.7 C 5.3 g/m*3 -1.27 C 16.1 km/h
Sensor: Nr:Datum:Temp:Abs-Feuchte:Windchill:Wind:
Aussen-T/F 2101 02-01-2015 09:40:00 2.7 C 5.24 g/m*3 -2.34 C 24.1 km/h
2102 02-01-2015 09:45:00 2.8 C 5.28 g/m*3 -2.39 C 25.7 km/h
2103 02-01-2015 09:50:00 2.8 C 5.28 g/m*3 -1.39 C 17.7 km/h
2104 02-01-2015 09:55:00 2.8 C 5.28 g/m*3 -1.83 C 20.9 km/h
2105 02-01-2015 10:00:00 2.9 C 5.32 g/m*3 -1.02 C 16.1 km/h
2106 02-01-2015 10:05:00 2.9 C 5.32 g/m*3 -2.26 C 25.7 km/h
2107 02-01-2015 10:10:00 3 C 5.35 g/m*3 -1.77 C 22.5 km/h
2108 02-01-2015 10:15:00 3.1 C 5.39 g/m*3 -1.83 C 24.1 km/h
2109 02-01-2015 10:20:00 3.1 C 5.39 g/m*3 -1.45 C 20.9 km/h
2110 02-01-2015 10:25:00 3.2 C 5.42 g/m*3 -1.7 C 24.1 km/h
2111 02-01-2015 10:30:00 3.2 C 5.42 g/m*3 -0.89 C 17.7 km/h
2112 02-01-2015 10:35:00 3.3 C 5.4 g/m*3 -0.76 C 17.7 km/h
2113 02-01-2015 10:40:00 3.3 C 5.4 g/m*3 -1.19 C 20.9 km/h
2114 02-01-2015 10:45:00 3.3 C 5.4 g/m*3 -0.99 C 19.3 km/h
2115 02-01-2015 10:50:00 3.3 C 5.4 g/m*3 -0.76 C 17.7 km/h
2116 02-01-2015 10:55:00 3.4 C 5.44 g/m*3 -1.44 C 24.1 km/h
2117 02-01-2015 11:00:00 3.4 C 5.44 g/m*3 -0.64 C 17.7 km/h
2118 02-01-2015 11:05:00 3.5 C 5.47 g/m*3 -0.28 C 16.1 km/h
2119 02-01-2015 11:10:00 3.5 C 5.47 g/m*3 -1.49 C 25.7 km/h
2120 02-01-2015 11:15:00 3.5 C 5.47 g/m*3 0.58 C 11.3 km/h
2121 02-01-2015 11:20:00 3.6 C 5.51 g/m*3 -1.01 C 22.5 km/h
2122 02-01-2015 11:25:00 3.6 C 5.51 g/m*3 -1.19 C 24.1 km/h
2123 02-01-2015 11:30:00 3.7 C 5.55 g/m*3 -0.88 C 22.5 km/h
2124 02-01-2015 11:35:00 3.7 C 5.55 g/m*3 -1.23 C 25.7 km/h
2125 02-01-2015 11:40:00 3.7 C 5.55 g/m*3 -0.69 C 20.9 km/h
Sensor: Nr:Datum:Temp:Abs-Feuchte:Windchill:Wind:
Aussen-T/F 2126 02-01-2015 11:45:00 3.8 C 5.58 g/m*3 -0.75 C 22.5 km/h
2127 02-01-2015 11:50:00 3.8 C 5.58 g/m*3 -0.56 C 20.9 km/h
2128 02-01-2015 11:55:00 3.9 C 5.62 g/m*3 -0.97 C 25.7 km/h
2129 02-01-2015 12:00:00 3.9 C 5.62 g/m*3 -0.23 C 19.3 km/h
2130 02-01-2015 12:05:00 4.1 C 5.7 g/m*3 0.47 C 16.1 km/h
2131 02-01-2015 12:10:00 4.1 C 5.7 g/m*3 0.47 C 16.1 km/h
2132 02-01-2015 12:15:00 4.1 C 5.7 g/m*3 0.02 C 19.3 km/h
2133 02-01-2015 12:20:00 4.2 C 5.73 g/m*3 0.15 C 19.3 km/h
2134 02-01-2015 12:25:00 4.2 C 5.73 g/m*3 0.36 C 17.7 km/h
2135 02-01-2015 12:30:00 4.2 C 5.73 g/m*3 0.36 C 17.7 km/h
2136 02-01-2015 12:35:00 4.3 C 5.77 g/m*3 0.49 C 17.7 km/h
2137 02-01-2015 12:40:00 4.3 C 5.77 g/m*3 -0.11 C 22.5 km/h
2138 02-01-2015 12:45:00 4.4 C 5.81 g/m*3 0.61 C 17.7 km/h
2139 02-01-2015 12:50:00 4.5 C 5.85 g/m*3 0.74 C 17.7 km/h
2140 02-01-2015 12:55:00 4.6 C 5.89 g/m*3 0.86 C 17.7 km/h
2141 02-01-2015 13:00:00 4.6 C 5.89 g/m*3 0.45 C 20.9 km/h
2142 02-01-2015 13:05:00 4.5 C 5.85 g/m*3 0.33 C 20.9 km/h
2143 02-01-2015 13:10:00 4.5 C 5.85 g/m*3 0.96 C 16.1 km/h
2144 02-01-2015 13:15:00 4.6 C 5.89 g/m*3 0.86 C 17.7 km/h
2145 02-01-2015 13:20:00 4.6 C 5.96 g/m*3 0.86 C 17.7 km/h
2146 02-01-2015 13:25:00 4.7 C 5.93 g/m*3 0.22 C 24.1 km/h
2147 02-01-2015 13:30:00 4.7 C 5.93 g/m*3 0.78 C 19.3 km/h
2148 02-01-2015 13:35:00 4.6 C 5.89 g/m*3 0.65 C 19.3 km/h
2149 02-01-2015 13:40:00 4.6 C 5.96 g/m*3 1.34 C 14.5 km/h
2150 02-01-2015 13:45:00 4.6 C 5.96 g/m*3 0.45 C 20.9 km/h
Sensor: Nr:Datum:Temp:Abs-Feuchte:Windchill:Wind:
Aussen-T/F 2151 02-01-2015 13:50:00 4.6 C 5.96 g/m*3 0.65 C 19.3 km/h
2152 02-01-2015 13:55:00 4.6 C 5.96 g/m*3 1.09 C 16.1 km/h
2153 02-01-2015 14:00:00 4.5 C 5.92 g/m*3 1.21 C 14.5 km/h
2154 02-01-2015 14:05:00 4.5 C 5.92 g/m*3 1.79 C 11.3 km/h
2155 02-01-2015 14:10:00 4.5 C 5.92 g/m*3 0.96 C 16.1 km/h
2156 02-01-2015 14:15:00 4.5 C 5.92 g/m*3 0.14 C 22.5 km/h
2157 02-01-2015 14:20:00 4.5 C 5.98 g/m*3 1.79 C 11.3 km/h
2158 02-01-2015 14:25:00 4.5 C 5.98 g/m*3 0.52 C 19.3 km/h
2159 02-01-2015 14:30:00 4.6 C 6.02 g/m*3 1.09 C 16.1 km/h
2160 02-01-2015 14:35:00 4.6 C 6.02 g/m*3 0.1 C 24.1 km/h
2161 02-01-2015 14:40:00 4.6 C 6.02 g/m*3 0.45 C 20.9 km/h
2162 02-01-2015 14:45:00 4.6 C 6.02 g/m*3 1.09 C 16.1 km/h
2163 02-01-2015 14:50:00 4.6 C 6.02 g/m*3 1.34 C 14.5 km/h
2164 02-01-2015 14:55:00 4.5 C 5.98 g/m*3 1.21 C 14.5 km/h
2165 02-01-2015 15:00:00 4.5 C 6.05 g/m*3 0.96 C 16.1 km/h
2166 02-01-2015 15:05:00 4.4 C 6.07 g/m*3 1.09 C 14.5 km/h
2167 02-01-2015 15:10:00 4.4 C 6.07 g/m*3 0.84 C 16.1 km/h
2168 02-01-2015 15:15:00 4.4 C 6.07 g/m*3 1.36 C 12.9 km/h
2169 02-01-2015 15:20:00 4.4 C 6.07 g/m*3 2.01 C 9.7 km/h
2170 02-01-2015 15:25:00 4.4 C 6.14 g/m*3 0.84 C 16.1 km/h
2171 02-01-2015 15:30:00 4.4 C 6.14 g/m*3 1.09 C 14.5 km/h
2172 02-01-2015 15:35:00 4.4 C 6.07 g/m*3 1.67 C 11.3 km/h
2173 02-01-2015 15:40:00 4.4 C 6.14 g/m*3 0.61 C 17.7 km/h
2174 02-01-2015 15:45:00 4.4 C 6.14 g/m*3 1.09 C 14.5 km/h
2175 02-01-2015 15:50:00 4.4 C 6.14 g/m*3 2.01 C 9.7 km/h
Sensor: Nr:Datum:Temp:Abs-Feuchte:Windchill:Wind:
Aussen-T/F 2176 02-01-2015 15:55:00 4.4 C 6.14 g/m*3 1.67 C 11.3 km/h
2177 02-01-2015 16:00:00 4.3 C 6.1 g/m*3 0.97 C 14.5 km/h
2178 02-01-2015 16:05:00 4.3 C 6.1 g/m*3 1.24 C 12.9 km/h
2179 02-01-2015 16:10:00 4.3 C 6.1 g/m*3 1.89 C 9.7 km/h
2180 02-01-2015 16:15:00 4.3 C 6.1 g/m*3 2.29 C 8.1 km/h
2181 02-01-2015 16:20:00 4.3 C 6.1 g/m*3 0.97 C 14.5 km/h
2182 02-01-2015 16:25:00 4.3 C 6.1 g/m*3 0.72 C 16.1 km/h
2183 02-01-2015 16:30:00 4.4 C 6.14 g/m*3 0.2 C 20.9 km/h
2184 02-01-2015 16:35:00 4.5 C 6.18 g/m*3 1.21 C 14.5 km/h
2185 02-01-2015 16:40:00 4.5 C 6.11 g/m*3 0.74 C 17.7 km/h
2186 02-01-2015 16:45:00 4.4 C 6.07 g/m*3 1.36 C 12.9 km/h
2187 02-01-2015 16:50:00 4.4 C 6.07 g/m*3 1.36 C 12.9 km/h
2188 02-01-2015 16:55:00 4.3 C 6.03 g/m*3 1.24 C 12.9 km/h
2189 02-01-2015 17:00:00 4.3 C 6.1 g/m*3 0.07 C 20.9 km/h
2190 02-01-2015 17:05:00 4.3 C 6.1 g/m*3 0.97 C 14.5 km/h
2191 02-01-2015 17:10:00 4.3 C 6.1 g/m*3 2.29 C 8.1 km/h
2192 02-01-2015 17:15:00 4.3 C 6.1 g/m*3 2.29 C 8.1 km/h
2193 02-01-2015 23:30:00 2.4 C 5.2 g/m*3 2.4 C 3.2 km/h
2194 02-01-2015 23:35:00 2.5 C 5.23 g/m*3 0.71 C 6.4 km/h
2195 02-01-2015 23:40:00 2.6 C 5.27 g/m*3 0.82 C 6.4 km/h
2196 02-01-2015 23:45:00 2.6 C 5.27 g/m*3 2.6 C 4.8 km/h
2197 02-01-2015 23:50:00 2.4 C 5.14 g/m*3 0.59 C 6.4 km/h
2198 02-01-2015 23:55:00 2.4 C 5.14 g/m*3 2.4 C 1.6 km/h
2199 03-01-2015 00:00:00 2.2 C 5.13 g/m*3 2.2 C 1.6 km/h
2200 03-01-2015 00:05:00 2 C 5.06 g/m*3 2 C 1.6 km/h
Sensor: Nr:Datum:Temp:Abs-Feuchte:Windchill:Wind:
Aussen-T/F 2201 03-01-2015 00:10:00 1.8 C 5.04 g/m*3 1.8 C 4.8 km/h
2202 03-01-2015 00:15:00 1.8 C 5.04 g/m*3 1.8 C 3.2 km/h
2203 03-01-2015 00:20:00 1.8 C 5.1 g/m*3 1.8 C 3.2 km/h
2204 03-01-2015 00:25:00 1.9 C 5.13 g/m*3 0.01 C 6.4 km/h
2205 03-01-2015 00:30:00 2.1 C 5.2 g/m*3 0.24 C 6.4 km/h
2206 03-01-2015 00:35:00 2.2 C 5.18 g/m*3 0.36 C 6.4 km/h
2207 03-01-2015 00:40:00 2.3 C 5.16 g/m*3 2.3 C 4.8 km/h
2208 03-01-2015 00:45:00 2.5 C 5.23 g/m*3 -0.62 C 11.3 km/h
2209 03-01-2015 00:50:00 2.6 C 5.21 g/m*3 0.82 C 6.4 km/h
2210 03-01-2015 00:55:00 2.5 C 5.17 g/m*3 2.5 C 4.8 km/h
2211 03-01-2015 01:00:00 2.4 C 5.14 g/m*3 2.4 C 3.2 km/h
2212 03-01-2015 01:05:00 2.4 C 5.14 g/m*3 0.59 C 6.4 km/h
2213 03-01-2015 01:10:00 2.3 C 5.1 g/m*3 2.3 C 4.8 km/h
2214 03-01-2015 01:15:00 2.4 C 5.2 g/m*3 0.59 C 6.4 km/h
2215 03-01-2015 01:20:00 2.5 C 5.17 g/m*3 -0.62 C 11.3 km/h
2216 03-01-2015 01:25:00 2.5 C 5.17 g/m*3 0.17 C 8.1 km/h
2217 03-01-2015 01:30:00 2.4 C 5.14 g/m*3 0.59 C 6.4 km/h
2218 03-01-2015 01:35:00 2.4 C 5.14 g/m*3 -0.37 C 9.7 km/h
2219 03-01-2015 01:40:00 2.5 C 5.17 g/m*3 -0.62 C 11.3 km/h
2220 03-01-2015 01:45:00 2.5 C 5.17 g/m*3 0.71 C 6.4 km/h
2221 03-01-2015 01:50:00 2.5 C 5.17 g/m*3 0.17 C 8.1 km/h
2222 03-01-2015 01:55:00 2.6 C 5.21 g/m*3 -0.14 C 9.7 km/h
2223 03-01-2015 02:00:00 2.6 C 5.21 g/m*3 0.29 C 8.1 km/h
2224 03-01-2015 02:05:00 2.7 C 5.24 g/m*3 -0.71 C 12.9 km/h
2225 03-01-2015 02:10:00 2.7 C 5.24 g/m*3 0.4 C 8.1 km/h
Sensor: Nr:Datum:Temp:Abs-Feuchte:Windchill:Wind:
Aussen-T/F 2226 03-01-2015 02:15:00 2.7 C 5.24 g/m*3 -0.02 C 9.7 km/h
2227 03-01-2015 02:20:00 2.7 C 5.24 g/m*3 -0.02 C 9.7 km/h
2228 03-01-2015 02:25:00 2.7 C 5.24 g/m*3 0.4 C 8.1 km/h
2229 03-01-2015 02:30:00 2.7 C 5.24 g/m*3 -0.02 C 9.7 km/h
2230 03-01-2015 02:35:00 2.8 C 5.28 g/m*3 -0.26 C 11.3 km/h
2231 03-01-2015 02:40:00 2.8 C 5.28 g/m*3 0.1 C 9.7 km/h
2232 03-01-2015 02:45:00 2.8 C 5.22 g/m*3 0.1 C 9.7 km/h
2233 03-01-2015 02:50:00 2.8 C 5.22 g/m*3 -0.26 C 11.3 km/h
2234 03-01-2015 02:55:00 2.8 C 5.22 g/m*3 0.1 C 9.7 km/h
2235 03-01-2015 03:00:00 2.8 C 5.22 g/m*3 0.1 C 9.7 km/h
2236 03-01-2015 04:30:00 2.5 C 5.29 g/m*3 -0.62 C 11.3 km/h
2237 03-01-2015 04:35:00 2.5 C 5.29 g/m*3 -0.26 C 9.7 km/h
2238 03-01-2015 04:40:00 2.5 C 5.29 g/m*3 -0.95 C 12.9 km/h
2239 03-01-2015 04:45:00 2.4 C 5.25 g/m*3 -0.74 C 11.3 km/h
2240 03-01-2015 04:50:00 2.4 C 5.25 g/m*3 -1.07 C 12.9 km/h
2241 03-01-2015 04:55:00 2.4 C 5.25 g/m*3 -1.37 C 14.5 km/h
2242 03-01-2015 05:00:00 2.4 C 5.31 g/m*3 -1.07 C 12.9 km/h
2243 03-01-2015 05:05:00 2.4 C 5.31 g/m*3 -0.74 C 11.3 km/h
2244 03-01-2015 05:10:00 2.5 C 5.35 g/m*3 -0.26 C 9.7 km/h
2245 03-01-2015 05:15:00 2.5 C 5.35 g/m*3 -0.95 C 12.9 km/h
2246 03-01-2015 05:20:00 2.5 C 5.35 g/m*3 -0.62 C 11.3 km/h
2247 03-01-2015 05:25:00 2.6 C 5.38 g/m*3 -0.14 C 9.7 km/h
2248 03-01-2015 05:30:00 2.6 C 5.38 g/m*3 0.29 C 8.1 km/h
2249 03-01-2015 05:35:00 2.6 C 5.38 g/m*3 0.29 C 8.1 km/h
2250 03-01-2015 06:00:00 2.6 C 5.79 g/m*3 2.6 C 1.6 km/h
Sensor: Nr:Datum:Temp:Abs-Feuchte:Windchill:Wind:
Aussen-T/F 2251 03-01-2015 06:05:00 2.6 C 5.38 g/m*3 2.6 C 0 km/h
2252 03-01-2015 06:10:00 2.6 C 5.38 g/m*3 2.6 C 4.8 km/h
2253 03-01-2015 06:15:00 2.6 C 5.38 g/m*3 2.6 C 0 km/h
2254 03-01-2015 06:20:00 2.5 C 5.35 g/m*3 2.5 C 0 km/h
2255 03-01-2015 06:25:00 2.5 C 5.4 g/m*3 2.5 C 0 km/h
2256 03-01-2015 06:30:00 2.5 C 5.4 g/m*3 2.5 C 1.6 km/h
2257 03-01-2015 07:45:00 3 C 5.59 g/m*3 3 C 0 km/h
2258 03-01-2015 07:50:00 3.1 C 5.63 g/m*3 3.1 C 0 km/h
2259 03-01-2015 07:55:00 3.1 C 5.63 g/m*3 3.1 C 0 km/h
2260 03-01-2015 11:25:00 4.2 C 5.86 g/m*3 0.84 C 14.5 km/h
2261 03-01-2015 11:30:00 4.2 C 5.86 g/m*3 1.77 C 9.7 km/h
2262 03-01-2015 11:35:00 4.2 C 5.86 g/m*3 4.2 C 4.8 km/h
2263 03-01-2015 11:40:00 4.2 C 5.86 g/m*3 1.43 C 11.3 km/h
2264 03-01-2015 11:45:00 4.2 C 5.86 g/m*3 1.77 C 9.7 km/h
2265 03-01-2015 12:45:00 3.6 C 5.76 g/m*3 3.6 C 0 km/h
2266 03-01-2015 12:50:00 3.6 C 5.76 g/m*3 3.6 C 1.6 km/h
2267 03-01-2015 14:05:00 2.1 C 5.31 g/m*3 2.1 C 0 km/h
2268 03-01-2015 14:10:00 2 C 5.28 g/m*3 2 C 0 km/h
2269 03-01-2015 14:15:00 1.9 C 5.24 g/m*3 1.9 C 0 km/h
2270 03-01-2015 14:20:00 1.8 C 5.21 g/m*3 1.8 C 0 km/h
2271 03-01-2015 14:25:00 1.8 C 5.21 g/m*3 1.8 C 0 km/h
2272 03-01-2015 14:30:00 1.7 C 5.17 g/m*3 1.7 C 0 km/h
2273 03-01-2015 14:35:00 1.6 C 5.14 g/m*3 1.6 C 0 km/h
2274 03-01-2015 14:40:00 1.6 C 5.14 g/m*3 1.6 C 0 km/h
2275 03-01-2015 14:45:00 1.5 C 5.16 g/m*3 1.5 C 0 km/h
Sensor: Nr:Datum:Temp:Abs-Feuchte:Windchill:Wind:
Aussen-T/F 2276 03-01-2015 14:50:00 1.6 C 5.19 g/m*3 1.6 C 0 km/h
2277 03-01-2015 14:55:00 1.6 C 5.19 g/m*3 1.6 C 0 km/h
2278 03-01-2015 15:00:00 1.6 C 5.19 g/m*3 1.6 C 0 km/h
2279 03-01-2015 15:05:00 1.7 C 5.23 g/m*3 1.7 C 0 km/h
2280 03-01-2015 15:10:00 1.7 C 5.23 g/m*3 1.7 C 0 km/h
2281 03-01-2015 15:15:00 1.7 C 5.23 g/m*3 1.7 C 0 km/h
2282 03-01-2015 15:20:00 1.7 C 5.23 g/m*3 1.7 C 0 km/h
2283 03-01-2015 17:40:00 1.8 C 5.26 g/m*3 1.8 C 0 km/h
2284 03-01-2015 17:45:00 1.6 C 5.19 g/m*3 1.6 C 0 km/h
2285 03-01-2015 17:50:00 1.6 C 5.25 g/m*3 1.6 C 0 km/h
2286 03-01-2015 17:55:00 1.6 C 5.25 g/m*3 1.6 C 0 km/h
2287 03-01-2015 18:00:00 1.6 C 5.25 g/m*3 1.6 C 0 km/h
2288 03-01-2015 18:05:00 1.6 C 5.25 g/m*3 1.6 C 1.6 km/h
2289 03-01-2015 18:10:00 1.7 C 5.28 g/m*3 1.7 C 0 km/h
2290 03-01-2015 18:15:00 1.7 C 5.28 g/m*3 1.7 C 3.2 km/h
2291 03-01-2015 18:20:00 1.7 C 5.28 g/m*3 1.7 C 0 km/h
2292 03-01-2015 18:25:00 1.6 C 5.25 g/m*3 1.6 C 0 km/h
2293 03-01-2015 18:30:00 1.4 C 5.17 g/m*3 1.4 C 0 km/h
2294 03-01-2015 18:35:00 1.3 C 5.14 g/m*3 1.3 C 0 km/h
2295 03-01-2015 18:40:00 1.3 C 5.14 g/m*3 1.3 C 0 km/h
2296 03-01-2015 18:45:00 1.2 C 5.1 g/m*3 1.2 C 0 km/h
2297 03-01-2015 18:50:00 1.2 C 5.1 g/m*3 1.2 C 0 km/h
2298 03-01-2015 18:55:00 1.2 C 5.1 g/m*3 1.2 C 0 km/h
2299 03-01-2015 19:00:00 1.1 C 5.07 g/m*3 1.1 C 0 km/h
2300 03-01-2015 19:05:00 1.1 C 5.07 g/m*3 1.1 C 0 km/h
Sensor: Nr:Datum:Temp:Abs-Feuchte:Windchill:Wind:
Aussen-T/F 2301 03-01-2015 19:10:00 1.1 C 5.07 g/m*3 1.1 C 0 km/h
2302 03-01-2015 19:15:00 1 C 5.03 g/m*3 1 C 0 km/h
2303 03-01-2015 19:20:00 1 C 5.03 g/m*3 1 C 0 km/h
2304 03-01-2015 19:25:00 1 C 5.03 g/m*3 1 C 0 km/h
2305 03-01-2015 19:30:00 0.9 C 5 g/m*3 0.9 C 0 km/h
2306 03-01-2015 19:35:00 1 C 5.03 g/m*3 1 C 0 km/h
2307 03-01-2015 19:40:00 1 C 5.03 g/m*3 1 C 0 km/h
2308 03-01-2015 19:45:00 1 C 5.03 g/m*3 1 C 0 km/h
2309 03-01-2015 19:50:00 1 C 5.03 g/m*3 1 C 0 km/h
2310 03-01-2015 19:55:00 1 C 5.03 g/m*3 1 C 0 km/h
2311 03-01-2015 20:00:00 1 C 5.03 g/m*3 1 C 0 km/h
2312 03-01-2015 20:05:00 1 C 5.03 g/m*3 1 C 0 km/h
2313 03-01-2015 20:10:00 0.9 C 5 g/m*3 0.9 C 0 km/h
2314 03-01-2015 20:15:00 0.9 C 5 g/m*3 0.9 C 0 km/h
2315 03-01-2015 20:20:00 0.9 C 5 g/m*3 0.9 C 0 km/h
2316 03-01-2015 20:25:00 0.9 C 5 g/m*3 0.9 C 0 km/h
2317 03-01-2015 20:30:00 0.9 C 5 g/m*3 0.9 C 0 km/h
2318 03-01-2015 20:35:00 0.8 C 4.97 g/m*3 0.8 C 0 km/h
2319 03-01-2015 20:40:00 0.9 C 5 g/m*3 0.9 C 0 km/h
2320 03-01-2015 20:45:00 0.8 C 5.02 g/m*3 0.8 C 0 km/h
2321 03-01-2015 20:50:00 0.9 C 5.05 g/m*3 0.9 C 0 km/h
2322 03-01-2015 20:55:00 0.9 C 5.05 g/m*3 0.9 C 0 km/h
2323 03-01-2015 21:00:00 0.9 C 5.05 g/m*3 0.9 C 1.6 km/h
2324 03-01-2015 21:05:00 0.9 C 5.05 g/m*3 0.9 C 3.2 km/h
2325 03-01-2015 21:10:00 0.9 C 5.05 g/m*3 -1.14 C 6.4 km/h
Sensor: Nr:Datum:Temp:Abs-Feuchte:Windchill:Wind:
Aussen-T/F 2326 03-01-2015 21:15:00 0.9 C 5.05 g/m*3 0.9 C 3.2 km/h
2327 03-01-2015 21:20:00 1 C 5.09 g/m*3 1 C 3.2 km/h
2328 03-01-2015 21:25:00 1.1 C 5.12 g/m*3 1.1 C 0 km/h
2329 03-01-2015 21:30:00 1.2 C 5.16 g/m*3 1.2 C 4.8 km/h
2330 03-01-2015 21:35:00 1.3 C 5.19 g/m*3 -0.68 C 6.4 km/h
2331 03-01-2015 21:40:00 1.3 C 5.19 g/m*3 1.3 C 4.8 km/h
2332 03-01-2015 21:45:00 1.3 C 5.19 g/m*3 1.3 C 4.8 km/h
2333 03-01-2015 21:50:00 1.3 C 5.19 g/m*3 1.3 C 3.2 km/h
2334 03-01-2015 21:55:00 1.3 C 5.19 g/m*3 1.3 C 1.6 km/h
2335 03-01-2015 22:00:00 1.3 C 5.19 g/m*3 1.3 C 4.8 km/h
2336 03-01-2015 22:05:00 1.3 C 5.19 g/m*3 1.3 C 1.6 km/h
2337 03-01-2015 22:10:00 1.3 C 5.19 g/m*3 1.3 C 4.8 km/h
2338 03-01-2015 22:15:00 1.4 C 5.23 g/m*3 1.4 C 4.8 km/h
2339 03-01-2015 22:20:00 1.5 C 5.26 g/m*3 1.5 C 3.2 km/h
2340 03-01-2015 22:25:00 1.4 C 5.23 g/m*3 1.4 C 4.8 km/h
2341 03-01-2015 22:30:00 1.4 C 5.23 g/m*3 1.4 C 3.2 km/h
2342 03-01-2015 22:35:00 1.6 C 5.3 g/m*3 1.6 C 4.8 km/h
2343 03-01-2015 22:40:00 1.6 C 5.3 g/m*3 1.6 C 1.6 km/h
2344 03-01-2015 22:45:00 1.7 C 5.34 g/m*3 1.7 C 4.8 km/h
2345 03-01-2015 22:50:00 1.8 C 5.37 g/m*3 -0.65 C 8.1 km/h
2346 03-01-2015 22:55:00 1.8 C 5.37 g/m*3 -0.65 C 8.1 km/h
2347 03-01-2015 23:00:00 1.9 C 5.41 g/m*3 0.01 C 6.4 km/h
2348 03-01-2015 23:05:00 1.9 C 5.41 g/m*3 -0.54 C 8.1 km/h
2349 03-01-2015 23:10:00 2 C 5.39 g/m*3 2 C 4.8 km/h
2350 03-01-2015 23:15:00 2 C 5.39 g/m*3 2 C 3.2 km/h
Sensor: Nr:Datum:Temp:Abs-Feuchte:Windchill:Wind:
Aussen-T/F 2351 03-01-2015 23:20:00 2 C 5.39 g/m*3 2 C 0 km/h
2352 03-01-2015 23:25:00 1.9 C 5.35 g/m*3 1.9 C 4.8 km/h
2353 03-01-2015 23:30:00 1.9 C 5.35 g/m*3 1.9 C 0 km/h
2354 03-01-2015 23:35:00 2 C 5.39 g/m*3 0.13 C 6.4 km/h
2355 03-01-2015 23:40:00 2 C 5.39 g/m*3 2 C 1.6 km/h
2356 03-01-2015 23:45:00 2 C 5.39 g/m*3 2 C 4.8 km/h
2357 03-01-2015 23:50:00 2 C 5.39 g/m*3 0.13 C 6.4 km/h
2358 03-01-2015 23:55:00 2 C 5.39 g/m*3 2 C 3.2 km/h
2359 04-01-2015 00:00:00 2 C 5.39 g/m*3 2 C 1.6 km/h
2360 04-01-2015 00:05:00 2 C 5.39 g/m*3 2 C 3.2 km/h
2361 04-01-2015 00:10:00 2 C 5.39 g/m*3 2 C 3.2 km/h
2362 04-01-2015 00:15:00 2.1 C 5.43 g/m*3 0.24 C 6.4 km/h
2363 04-01-2015 00:20:00 2.2 C 5.46 g/m*3 2.2 C 1.6 km/h
2364 04-01-2015 00:25:00 2.1 C 5.43 g/m*3 2.1 C 4.8 km/h
2365 04-01-2015 00:30:00 2.1 C 5.43 g/m*3 2.1 C 4.8 km/h
2366 04-01-2015 00:35:00 2 C 5.39 g/m*3 2 C 3.2 km/h
2367 04-01-2015 00:40:00 2 C 5.39 g/m*3 0.13 C 6.4 km/h
2368 04-01-2015 00:45:00 2.1 C 5.43 g/m*3 0.24 C 6.4 km/h
2369 04-01-2015 00:50:00 2.1 C 5.43 g/m*3 2.1 C 3.2 km/h
2370 04-01-2015 00:55:00 2.1 C 5.43 g/m*3 2.1 C 4.8 km/h
2371 04-01-2015 01:00:00 2.2 C 5.52 g/m*3 2.2 C 3.2 km/h
2372 04-01-2015 01:05:00 2.2 C 5.52 g/m*3 2.2 C 1.6 km/h
2373 04-01-2015 01:10:00 2.2 C 5.52 g/m*3 2.2 C 1.6 km/h
2374 04-01-2015 01:15:00 2.2 C 5.52 g/m*3 2.2 C 0 km/h
2375 04-01-2015 01:20:00 2.2 C 5.52 g/m*3 2.2 C 1.6 km/h
Sensor: Nr:Datum:Temp:Abs-Feuchte:Windchill:Wind:
Aussen-T/F 2376 04-01-2015 01:25:00 2.2 C 5.52 g/m*3 2.2 C 4.8 km/h
2377 04-01-2015 01:30:00 2.2 C 5.52 g/m*3 2.2 C 3.2 km/h
2378 04-01-2015 01:35:00 2.3 C 5.56 g/m*3 2.3 C 4.8 km/h
2379 04-01-2015 01:40:00 2.4 C 5.6 g/m*3 2.4 C 3.2 km/h
2380 04-01-2015 01:45:00 2.7 C 5.71 g/m*3 2.7 C 4.8 km/h
2381 04-01-2015 01:50:00 2.8 C 5.75 g/m*3 0.1 C 9.7 km/h
2382 04-01-2015 01:55:00 2.9 C 5.79 g/m*3 2.9 C 4.8 km/h
2383 04-01-2015 02:00:00 3.1 C 5.87 g/m*3 0.46 C 9.7 km/h
2384 04-01-2015 02:05:00 3.3 C 5.95 g/m*3 3.3 C 4.8 km/h
2385 04-01-2015 02:10:00 3.4 C 5.99 g/m*3 3.4 C 4.8 km/h
2386 04-01-2015 02:15:00 3.4 C 5.92 g/m*3 3.4 C 4.8 km/h
2387 04-01-2015 02:20:00 3.6 C 6 g/m*3 1.46 C 8.1 km/h
2388 04-01-2015 02:25:00 3.7 C 6.04 g/m*3 1.58 C 8.1 km/h
2389 04-01-2015 02:30:00 3.7 C 6.04 g/m*3 3.7 C 1.6 km/h
2390 04-01-2015 02:35:00 3.7 C 5.98 g/m*3 3.7 C 3.2 km/h
2391 04-01-2015 02:40:00 3.8 C 6.02 g/m*3 0.63 C 12.9 km/h
2392 04-01-2015 02:45:00 3.9 C 6.06 g/m*3 1.06 C 11.3 km/h
2393 04-01-2015 02:50:00 4.1 C 6.08 g/m*3 2.55 C 6.4 km/h
2394 04-01-2015 02:55:00 4.1 C 6.08 g/m*3 2.55 C 6.4 km/h
2395 04-01-2015 03:00:00 4.1 C 6.08 g/m*3 2.55 C 6.4 km/h
2396 04-01-2015 03:05:00 4.1 C 6.08 g/m*3 0.72 C 14.5 km/h
2397 04-01-2015 03:10:00 4.1 C 6.02 g/m*3 2.05 C 8.1 km/h
2398 04-01-2015 03:15:00 4.1 C 6.02 g/m*3 4.1 C 4.8 km/h
2399 04-01-2015 03:20:00 4.1 C 6.02 g/m*3 2.55 C 6.4 km/h
2400 04-01-2015 03:25:00 4.1 C 5.95 g/m*3 2.05 C 8.1 km/h
Sensor: Nr:Datum:Temp:Abs-Feuchte:Windchill:Wind:
Aussen-T/F 2401 04-01-2015 03:30:00 4.1 C 5.95 g/m*3 0.72 C 14.5 km/h
2402 04-01-2015 03:35:00 4.1 C 5.95 g/m*3 1.65 C 9.7 km/h
2403 04-01-2015 03:40:00 4.1 C 5.95 g/m*3 2.05 C 8.1 km/h
2404 04-01-2015 03:45:00 4 C 5.91 g/m*3 1.93 C 8.1 km/h
2405 04-01-2015 03:50:00 4 C 5.91 g/m*3 1.93 C 8.1 km/h
2406 04-01-2015 03:55:00 4 C 5.91 g/m*3 1.53 C 9.7 km/h
2407 04-01-2015 04:00:00 3.9 C 5.87 g/m*3 1.82 C 8.1 km/h
2408 04-01-2015 04:05:00 3.9 C 5.87 g/m*3 3.9 C 4.8 km/h
2409 04-01-2015 04:10:00 3.9 C 5.87 g/m*3 1.82 C 8.1 km/h
2410 04-01-2015 04:50:00 2.9 C 5.55 g/m*3 2.9 C 4.8 km/h
2411 04-01-2015 04:55:00 2.8 C 5.51 g/m*3 2.8 C 4.8 km/h
2412 04-01-2015 05:00:00 2.6 C 5.44 g/m*3 2.6 C 0 km/h
2413 04-01-2015 05:05:00 2.4 C 5.37 g/m*3 2.4 C 4.8 km/h
2414 04-01-2015 05:10:00 2.2 C 5.29 g/m*3 2.2 C 4.8 km/h
2415 04-01-2015 05:15:00 2.1 C 5.31 g/m*3 -0.3 C 8.1 km/h
2416 04-01-2015 05:20:00 2.1 C 5.31 g/m*3 2.1 C 3.2 km/h
2417 04-01-2015 05:25:00 2.1 C 5.37 g/m*3 2.1 C 3.2 km/h
2418 04-01-2015 05:30:00 2 C 5.33 g/m*3 2 C 4.8 km/h
2419 04-01-2015 05:35:00 2 C 5.33 g/m*3 2 C 3.2 km/h
2420 04-01-2015 05:40:00 1.9 C 5.3 g/m*3 1.9 C 4.8 km/h
2421 04-01-2015 05:45:00 1.8 C 5.26 g/m*3 1.8 C 4.8 km/h
2422 04-01-2015 05:50:00 1.7 C 5.23 g/m*3 1.7 C 3.2 km/h
2423 04-01-2015 05:55:00 1.7 C 5.23 g/m*3 -0.22 C 6.4 km/h
2424 04-01-2015 06:00:00 1.6 C 5.19 g/m*3 1.6 C 4.8 km/h
2425 04-01-2015 06:05:00 1.6 C 5.25 g/m*3 1.6 C 4.8 km/h
Sensor: Nr:Datum:Temp:Abs-Feuchte:Windchill:Wind:
Aussen-T/F 2426 04-01-2015 06:10:00 1.6 C 5.25 g/m*3 1.6 C 4.8 km/h
2427 04-01-2015 06:15:00 1.5 C 5.16 g/m*3 1.5 C 4.8 km/h
2428 04-01-2015 06:20:00 1.4 C 5.12 g/m*3 1.4 C 1.6 km/h
2429 04-01-2015 06:25:00 1.4 C 5.17 g/m*3 1.4 C 4.8 km/h
2430 04-01-2015 06:30:00 1.3 C 5.14 g/m*3 1.3 C 0 km/h
2431 04-01-2015 06:35:00 1.2 C 5.05 g/m*3 1.2 C 1.6 km/h
2432 04-01-2015 06:40:00 1.2 C 5.05 g/m*3 1.2 C 4.8 km/h
2433 04-01-2015 06:45:00 1.1 C 5.07 g/m*3 -0.91 C 6.4 km/h
2434 04-01-2015 06:50:00 1.1 C 5.07 g/m*3 1.1 C 1.6 km/h
2435 04-01-2015 06:55:00 1.1 C 5.07 g/m*3 1.1 C 1.6 km/h
2436 04-01-2015 07:00:00 1.1 C 5.07 g/m*3 1.1 C 4.8 km/h
2437 04-01-2015 07:05:00 1.1 C 5.07 g/m*3 1.1 C 4.8 km/h
2438 04-01-2015 07:10:00 1.1 C 5.07 g/m*3 1.1 C 3.2 km/h
2439 04-01-2015 07:15:00 1 C 5.03 g/m*3 1 C 3.2 km/h
2440 04-01-2015 07:20:00 0.9 C 5 g/m*3 0.9 C 1.6 km/h
2441 04-01-2015 07:25:00 0.9 C 5 g/m*3 0.9 C 3.2 km/h
2442 04-01-2015 07:30:00 0.9 C 5 g/m*3 0.9 C 3.2 km/h
2443 04-01-2015 07:35:00 1 C 5.03 g/m*3 1 C 3.2 km/h
2444 04-01-2015 07:40:00 1.1 C 5.07 g/m*3 1.1 C 3.2 km/h
2445 04-01-2015 07:45:00 1.2 C 5.1 g/m*3 1.2 C 1.6 km/h
2446 04-01-2015 07:50:00 1.1 C 5.07 g/m*3 1.1 C 1.6 km/h
2447 04-01-2015 07:55:00 1.1 C 5.07 g/m*3 1.1 C 4.8 km/h
2448 04-01-2015 08:00:00 1.1 C 5.07 g/m*3 1.1 C 1.6 km/h
2449 04-01-2015 08:05:00 1.2 C 5.1 g/m*3 1.2 C 1.6 km/h
2450 04-01-2015 08:10:00 1.2 C 5.1 g/m*3 1.2 C 3.2 km/h
Sensor: Nr:Datum:Temp:Abs-Feuchte:Windchill:Wind:
Aussen-T/F 2451 04-01-2015 08:15:00 1.2 C 5.1 g/m*3 1.2 C 1.6 km/h
2452 04-01-2015 08:20:00 1.2 C 5.1 g/m*3 1.2 C 3.2 km/h
2453 04-01-2015 18:15:00 4.1 C 5.89 g/m*3 4.1 C 1.6 km/h
2454 04-01-2015 18:20:00 4.1 C 5.89 g/m*3 4.1 C 1.6 km/h
2455 04-01-2015 18:25:00 4 C 5.85 g/m*3 4 C 3.2 km/h
2456 04-01-2015 18:30:00 4 C 5.85 g/m*3 4 C 1.6 km/h
2457 04-01-2015 18:35:00 3.9 C 5.75 g/m*3 3.9 C 4.8 km/h
2458 04-01-2015 18:40:00 4 C 5.79 g/m*3 4 C 4.8 km/h
2459 04-01-2015 18:45:00 4.1 C 5.76 g/m*3 4.1 C 4.8 km/h
2460 04-01-2015 18:50:00 4.2 C 5.73 g/m*3 2.67 C 6.4 km/h
2461 04-01-2015 18:55:00 4.3 C 5.71 g/m*3 1.89 C 9.7 km/h
2462 04-01-2015 19:00:00 4.4 C 5.68 g/m*3 4.4 C 3.2 km/h
2463 04-01-2015 19:05:00 4.4 C 5.68 g/m*3 4.4 C 3.2 km/h
2464 04-01-2015 19:10:00 4.4 C 5.68 g/m*3 2.9 C 6.4 km/h
2465 04-01-2015 19:15:00 4.3 C 5.64 g/m*3 2.78 C 6.4 km/h
2466 04-01-2015 19:20:00 4.3 C 5.64 g/m*3 4.3 C 1.6 km/h
2467 04-01-2015 19:25:00 4.2 C 5.67 g/m*3 4.2 C 1.6 km/h
2468 04-01-2015 19:30:00 4.2 C 5.67 g/m*3 4.2 C 4.8 km/h
2469 04-01-2015 19:35:00 4.1 C 5.63 g/m*3 2.05 C 8.1 km/h
2470 04-01-2015 19:40:00 4.1 C 5.63 g/m*3 4.1 C 3.2 km/h
2471 04-01-2015 19:45:00 4.1 C 5.63 g/m*3 4.1 C 1.6 km/h
2472 04-01-2015 19:50:00 4 C 5.59 g/m*3 4 C 1.6 km/h
2473 04-01-2015 19:55:00 3.9 C 5.62 g/m*3 2.32 C 6.4 km/h
2474 04-01-2015 20:00:00 3.9 C 5.62 g/m*3 3.9 C 4.8 km/h
2475 04-01-2015 20:05:00 3.9 C 5.62 g/m*3 3.9 C 4.8 km/h
Sensor: Nr:Datum:Temp:Abs-Feuchte:Windchill:Wind:
Aussen-T/F 2476 04-01-2015 20:10:00 3.8 C 5.58 g/m*3 3.8 C 4.8 km/h
2477 04-01-2015 20:15:00 3.8 C 5.58 g/m*3 3.8 C 4.8 km/h
2478 04-01-2015 20:20:00 3.7 C 5.61 g/m*3 3.7 C 3.2 km/h
2479 04-01-2015 20:25:00 3.7 C 5.61 g/m*3 3.7 C 3.2 km/h
2480 04-01-2015 20:30:00 3.6 C 5.57 g/m*3 3.6 C 4.8 km/h
2481 04-01-2015 20:35:00 3.6 C 5.63 g/m*3 3.6 C 1.6 km/h
2482 04-01-2015 20:40:00 3.6 C 5.63 g/m*3 3.6 C 3.2 km/h
2483 04-01-2015 20:45:00 3.6 C 5.63 g/m*3 3.6 C 3.2 km/h
2484 04-01-2015 20:50:00 3.6 C 5.63 g/m*3 3.6 C 4.8 km/h
2485 04-01-2015 20:55:00 3.6 C 5.63 g/m*3 3.6 C 3.2 km/h
2486 04-01-2015 21:00:00 3.7 C 5.67 g/m*3 3.7 C 1.6 km/h
2487 04-01-2015 21:05:00 3.7 C 5.67 g/m*3 3.7 C 3.2 km/h
2488 04-01-2015 21:10:00 3.7 C 5.61 g/m*3 3.7 C 3.2 km/h
2489 04-01-2015 21:15:00 3.7 C 5.61 g/m*3 3.7 C 3.2 km/h
2490 04-01-2015 21:20:00 3.8 C 5.65 g/m*3 3.8 C 3.2 km/h
2491 04-01-2015 21:25:00 3.8 C 5.65 g/m*3 3.8 C 3.2 km/h
2492 04-01-2015 21:30:00 3.8 C 5.65 g/m*3 2.21 C 6.4 km/h
2493 04-01-2015 21:35:00 3.8 C 5.65 g/m*3 3.8 C 4.8 km/h
2494 04-01-2015 21:40:00 3.9 C 5.62 g/m*3 2.32 C 6.4 km/h
2495 04-01-2015 21:45:00 3.9 C 5.62 g/m*3 3.9 C 3.2 km/h
2496 04-01-2015 21:50:00 4 C 5.66 g/m*3 4 C 4.8 km/h
2497 04-01-2015 21:55:00 4 C 5.66 g/m*3 4 C 4.8 km/h
2498 04-01-2015 22:00:00 3.9 C 5.62 g/m*3 3.9 C 4.8 km/h
2499 04-01-2015 22:05:00 3.7 C 5.61 g/m*3 3.7 C 1.6 km/h
2500 04-01-2015 22:10:00 3.6 C 5.57 g/m*3 3.6 C 3.2 km/h
Sensor: Nr:Datum:Temp:Abs-Feuchte:Windchill:Wind:
Aussen-T/F 2501 04-01-2015 22:15:00 3.5 C 5.6 g/m*3 3.5 C 3.2 km/h
2502 04-01-2015 22:20:00 3.4 C 5.56 g/m*3 3.4 C 1.6 km/h
2503 04-01-2015 22:25:00 3.3 C 5.58 g/m*3 3.3 C 1.6 km/h
2504 04-01-2015 22:30:00 3.2 C 5.54 g/m*3 3.2 C 0 km/h
2505 04-01-2015 22:35:00 3.2 C 5.6 g/m*3 3.2 C 1.6 km/h
2506 04-01-2015 22:40:00 3.2 C 5.6 g/m*3 3.2 C 1.6 km/h
2507 04-01-2015 22:45:00 3.2 C 5.6 g/m*3 3.2 C 0 km/h
2508 04-01-2015 22:50:00 3.2 C 5.6 g/m*3 3.2 C 0 km/h
2509 04-01-2015 22:55:00 3.2 C 5.54 g/m*3 3.2 C 3.2 km/h
2510 04-01-2015 23:00:00 3.2 C 5.54 g/m*3 3.2 C 1.6 km/h
2511 04-01-2015 23:05:00 3.2 C 5.54 g/m*3 3.2 C 3.2 km/h
2512 04-01-2015 23:10:00 3.3 C 5.58 g/m*3 3.3 C 1.6 km/h
2513 04-01-2015 23:15:00 3.3 C 5.58 g/m*3 3.3 C 1.6 km/h
2514 04-01-2015 23:20:00 3.3 C 5.58 g/m*3 3.3 C 1.6 km/h
2515 04-01-2015 23:25:00 3.2 C 5.54 g/m*3 3.2 C 3.2 km/h
2516 04-01-2015 23:30:00 3.2 C 5.48 g/m*3 1.51 C 6.4 km/h
2517 04-01-2015 23:35:00 3.2 C 5.54 g/m*3 3.2 C 1.6 km/h
2518 04-01-2015 23:40:00 3.2 C 5.48 g/m*3 3.2 C 4.8 km/h
2519 04-01-2015 23:45:00 3.3 C 5.52 g/m*3 3.3 C 3.2 km/h
2520 04-01-2015 23:50:00 3.3 C 5.46 g/m*3 3.3 C 4.8 km/h
2521 04-01-2015 23:55:00 3.4 C 5.44 g/m*3 3.4 C 3.2 km/h
2522 05-01-2015 00:00:00 3.5 C 5.47 g/m*3 3.5 C 1.6 km/h
2523 05-01-2015 00:05:00 3.4 C 5.5 g/m*3 3.4 C 1.6 km/h
2524 05-01-2015 00:10:00 3.3 C 5.46 g/m*3 3.3 C 3.2 km/h
2525 05-01-2015 00:15:00 3.2 C 5.42 g/m*3 3.2 C 4.8 km/h
Sensor: Nr:Datum:Temp:Abs-Feuchte:Windchill:Wind:
Aussen-T/F 2526 05-01-2015 00:20:00 3.2 C 5.42 g/m*3 3.2 C 3.2 km/h
2527 05-01-2015 00:25:00 3.1 C 5.45 g/m*3 3.1 C 3.2 km/h
2528 05-01-2015 00:30:00 3 C 5.41 g/m*3 3 C 4.8 km/h
2529 05-01-2015 00:35:00 2.9 C 5.37 g/m*3 2.9 C 3.2 km/h
2530 05-01-2015 00:40:00 2.8 C 5.34 g/m*3 2.8 C 3.2 km/h
2531 05-01-2015 00:45:00 2.8 C 5.34 g/m*3 2.8 C 3.2 km/h
2532 05-01-2015 00:50:00 2.8 C 5.34 g/m*3 2.8 C 3.2 km/h
2533 05-01-2015 00:55:00 2.8 C 5.28 g/m*3 2.8 C 3.2 km/h
2534 05-01-2015 01:00:00 2.9 C 5.32 g/m*3 2.9 C 3.2 km/h
2535 05-01-2015 01:05:00 2.9 C 5.26 g/m*3 0.64 C 8.1 km/h
2536 05-01-2015 01:10:00 2.9 C 5.26 g/m*3 0.64 C 8.1 km/h
2537 05-01-2015 01:15:00 2.9 C 5.26 g/m*3 2.9 C 1.6 km/h
2538 05-01-2015 01:20:00 2.8 C 5.22 g/m*3 2.8 C 4.8 km/h
2539 05-01-2015 01:25:00 2.7 C 5.24 g/m*3 2.7 C 3.2 km/h
2540 05-01-2015 01:30:00 2.6 C 5.21 g/m*3 2.6 C 1.6 km/h
2541 05-01-2015 01:35:00 2.6 C 5.21 g/m*3 2.6 C 1.6 km/h
2542 05-01-2015 01:40:00 2.5 C 5.23 g/m*3 2.5 C 1.6 km/h
2543 05-01-2015 01:45:00 2.4 C 5.2 g/m*3 2.4 C 3.2 km/h
2544 05-01-2015 01:50:00 2.3 C 5.16 g/m*3 2.3 C 3.2 km/h
2545 05-01-2015 01:55:00 2.2 C 5.13 g/m*3 2.2 C 1.6 km/h
2546 05-01-2015 02:00:00 2.1 C 5.15 g/m*3 2.1 C 1.6 km/h
2547 05-01-2015 02:05:00 1.9 C 5.08 g/m*3 1.9 C 0 km/h
2548 05-01-2015 02:10:00 1.8 C 5.04 g/m*3 1.8 C 0 km/h
2549 05-01-2015 02:15:00 1.6 C 4.97 g/m*3 1.6 C 1.6 km/h
2550 05-01-2015 02:20:00 1.4 C 4.91 g/m*3 1.4 C 0 km/h
Sensor: Nr:Datum:Temp:Abs-Feuchte:Windchill:Wind:
Aussen-T/F 2551 05-01-2015 02:25:00 1.3 C 4.93 g/m*3 1.3 C 0 km/h
2552 05-01-2015 02:30:00 1.2 C 4.89 g/m*3 1.2 C 1.6 km/h
2553 05-01-2015 02:35:00 1.2 C 4.89 g/m*3 1.2 C 1.6 km/h
2554 05-01-2015 02:40:00 1.1 C 4.91 g/m*3 1.1 C 3.2 km/h
2555 05-01-2015 02:45:00 1.1 C 4.91 g/m*3 1.1 C 1.6 km/h
2556 05-01-2015 02:50:00 1.1 C 4.91 g/m*3 1.1 C 1.6 km/h
2557 05-01-2015 02:55:00 1.1 C 4.91 g/m*3 1.1 C 1.6 km/h
2558 05-01-2015 03:00:00 1 C 4.88 g/m*3 1 C 1.6 km/h
2559 05-01-2015 03:05:00 1 C 4.88 g/m*3 1 C 3.2 km/h
2560 05-01-2015 03:10:00 1 C 4.88 g/m*3 1 C 3.2 km/h
2561 05-01-2015 03:15:00 1 C 4.88 g/m*3 1 C 3.2 km/h
2562 05-01-2015 03:20:00 1 C 4.88 g/m*3 1 C 4.8 km/h
2563 05-01-2015 03:25:00 0.9 C 4.85 g/m*3 0.9 C 1.6 km/h
2564 05-01-2015 03:30:00 1 C 4.88 g/m*3 1 C 4.8 km/h
2565 05-01-2015 03:35:00 1 C 4.88 g/m*3 1 C 0 km/h
2566 05-01-2015 03:40:00 0.9 C 4.85 g/m*3 0.9 C 0 km/h
2567 05-01-2015 03:45:00 0.8 C 4.81 g/m*3 0.8 C 1.6 km/h
2568 05-01-2015 03:50:00 0.8 C 4.81 g/m*3 0.8 C 1.6 km/h
2569 05-01-2015 03:55:00 0.7 C 4.78 g/m*3 0.7 C 0 km/h
2570 05-01-2015 04:00:00 0.7 C 4.78 g/m*3 0.7 C 0 km/h
2571 05-01-2015 04:05:00 0.5 C 4.71 g/m*3 0.5 C 0 km/h
2572 05-01-2015 04:10:00 0.4 C 4.68 g/m*3 0.4 C 3.2 km/h
2573 05-01-2015 04:15:00 0.3 C 4.65 g/m*3 0.3 C 3.2 km/h
2574 05-01-2015 04:20:00 0.2 C 4.62 g/m*3 0.2 C 1.6 km/h
2575 05-01-2015 04:25:00 0.1 C 4.59 g/m*3 0.1 C 1.6 km/h
Sensor: Nr:Datum:Temp:Abs-Feuchte:Windchill:Wind:
Aussen-T/F 2576 05-01-2015 04:30:00 0.1 C 4.59 g/m*3 0.1 C 0 km/h
2577 05-01-2015 04:35:00 -0.1 C 4.52 g/m*3 -0.1 C 0 km/h
2578 05-01-2015 04:40:00 -0.1 C 4.57 g/m*3 -0.1 C 0 km/h
2579 05-01-2015 04:45:00 -0.2 C 4.54 g/m*3 -0.2 C 0 km/h
2580 05-01-2015 04:50:00 -0.3 C 4.51 g/m*3 -0.3 C 0 km/h
2581 05-01-2015 04:55:00 -0.3 C 4.51 g/m*3 -0.3 C 0 km/h
2582 05-01-2015 05:00:00 -0.4 C 4.48 g/m*3 -0.4 C 1.6 km/h
2583 05-01-2015 05:05:00 -0.4 C 4.48 g/m*3 -0.4 C 1.6 km/h
2584 05-01-2015 05:10:00 -0.4 C 4.48 g/m*3 -0.4 C 0 km/h
2585 05-01-2015 05:15:00 -0.4 C 4.48 g/m*3 -0.4 C 0 km/h
2586 05-01-2015 05:20:00 -0.4 C 4.48 g/m*3 -0.4 C 0 km/h
2587 05-01-2015 05:25:00 -0.5 C 4.45 g/m*3 -0.5 C 0 km/h
2588 05-01-2015 05:30:00 -0.6 C 4.42 g/m*3 -0.6 C 1.6 km/h
2589 05-01-2015 05:35:00 -0.6 C 4.46 g/m*3 -0.6 C 0 km/h
2590 05-01-2015 05:40:00 -0.6 C 4.46 g/m*3 -0.6 C 1.6 km/h
2591 05-01-2015 05:45:00 -0.5 C 4.49 g/m*3 -0.5 C 3.2 km/h
2592 05-01-2015 05:50:00 -0.5 C 4.49 g/m*3 -0.5 C 1.6 km/h
2593 05-01-2015 05:55:00 -0.5 C 4.49 g/m*3 -0.5 C 0 km/h
2594 05-01-2015 06:00:00 -0.5 C 4.49 g/m*3 -0.5 C 1.6 km/h
2595 05-01-2015 06:05:00 -0.6 C 4.46 g/m*3 -0.6 C 0 km/h
2596 05-01-2015 06:10:00 -0.6 C 4.46 g/m*3 -0.6 C 0 km/h
2597 05-01-2015 06:15:00 -0.6 C 4.46 g/m*3 -0.6 C 0 km/h
2598 05-01-2015 06:20:00 -0.6 C 4.46 g/m*3 -0.6 C 0 km/h
2599 05-01-2015 06:25:00 -0.9 C 4.37 g/m*3 -0.9 C 0 km/h
2600 05-01-2015 06:30:00 -1 C 4.34 g/m*3 -1 C 1.6 km/h
Sensor: Nr:Datum:Temp:Abs-Feuchte:Windchill:Wind:
Aussen-T/F 2601 05-01-2015 06:35:00 -1 C 4.34 g/m*3 -1 C 0 km/h
2602 05-01-2015 06:40:00 -1 C 4.34 g/m*3 -1 C 0 km/h
2603 05-01-2015 06:45:00 -0.9 C 4.37 g/m*3 -0.9 C 0 km/h
2604 05-01-2015 06:50:00 -0.9 C 4.37 g/m*3 -0.9 C 1.6 km/h
2605 05-01-2015 06:55:00 -0.9 C 4.37 g/m*3 -0.9 C 1.6 km/h
2606 05-01-2015 07:00:00 -0.9 C 4.37 g/m*3 -0.9 C 4.8 km/h
2607 05-01-2015 07:05:00 -0.9 C 4.37 g/m*3 -0.9 C 1.6 km/h
2608 05-01-2015 07:10:00 -0.8 C 4.4 g/m*3 -0.8 C 1.6 km/h
2609 05-01-2015 07:15:00 -0.9 C 4.37 g/m*3 -0.9 C 0 km/h
2610 05-01-2015 07:20:00 -0.9 C 4.37 g/m*3 -0.9 C 0 km/h
2611 05-01-2015 07:25:00 -1 C 4.34 g/m*3 -1 C 1.6 km/h
2612 05-01-2015 07:30:00 -1 C 4.34 g/m*3 -1 C 0 km/h
2613 05-01-2015 07:35:00 -1 C 4.38 g/m*3 -1 C 1.6 km/h
2614 05-01-2015 07:40:00 -0.9 C 4.42 g/m*3 -0.9 C 4.8 km/h
2615 05-01-2015 07:45:00 -0.8 C 4.45 g/m*3 -3.11 C 6.4 km/h
2616 05-01-2015 07:50:00 -0.8 C 4.45 g/m*3 -3.11 C 6.4 km/h
2617 05-01-2015 07:55:00 -0.8 C 4.45 g/m*3 -3.11 C 6.4 km/h
2618 05-01-2015 08:00:00 -0.8 C 4.45 g/m*3 -3.71 C 8.1 km/h
2619 05-01-2015 08:05:00 -0.8 C 4.45 g/m*3 -0.8 C 3.2 km/h
2620 05-01-2015 08:10:00 -0.7 C 4.48 g/m*3 -3.59 C 8.1 km/h
2621 05-01-2015 08:15:00 -0.7 C 4.48 g/m*3 -2.99 C 6.4 km/h
2622 05-01-2015 08:20:00 -0.7 C 4.48 g/m*3 -0.7 C 4.8 km/h
2623 05-01-2015 08:25:00 -0.7 C 4.48 g/m*3 -0.7 C 4.8 km/h
2624 05-01-2015 08:30:00 -0.7 C 4.48 g/m*3 -0.7 C 4.8 km/h
2625 05-01-2015 08:35:00 -0.7 C 4.48 g/m*3 -4.07 C 9.7 km/h
Sensor: Nr:Datum:Temp:Abs-Feuchte:Windchill:Wind:
Aussen-T/F 2626 05-01-2015 08:40:00 -0.8 C 4.45 g/m*3 -3.71 C 8.1 km/h
2627 05-01-2015 08:45:00 -0.8 C 4.45 g/m*3 -0.8 C 4.8 km/h
2628 05-01-2015 08:50:00 -0.8 C 4.45 g/m*3 -3.71 C 8.1 km/h
2629 05-01-2015 08:55:00 -0.8 C 4.45 g/m*3 -0.8 C 4.8 km/h
2630 05-01-2015 09:00:00 -0.8 C 4.45 g/m*3 -0.8 C 4.8 km/h
2631 05-01-2015 09:05:00 -0.8 C 4.45 g/m*3 -3.11 C 6.4 km/h
2632 05-01-2015 09:10:00 -0.8 C 4.45 g/m*3 -3.11 C 6.4 km/h
2633 05-01-2015 09:15:00 -0.8 C 4.45 g/m*3 -3.11 C 6.4 km/h
2634 05-01-2015 09:20:00 -0.8 C 4.45 g/m*3 -0.8 C 4.8 km/h
2635 05-01-2015 09:25:00 -0.8 C 4.45 g/m*3 -0.8 C 4.8 km/h
2636 05-01-2015 09:30:00 -0.8 C 4.45 g/m*3 -0.8 C 3.2 km/h
2637 05-01-2015 09:35:00 -0.8 C 4.45 g/m*3 -3.11 C 6.4 km/h
2638 05-01-2015 09:40:00 -0.6 C 4.51 g/m*3 -3.48 C 8.1 km/h
2639 05-01-2015 09:45:00 -0.6 C 4.51 g/m*3 -3.95 C 9.7 km/h
2640 05-01-2015 09:50:00 -0.6 C 4.51 g/m*3 -0.6 C 4.8 km/h
2641 05-01-2015 09:55:00 -0.6 C 4.51 g/m*3 -0.6 C 4.8 km/h
2642 05-01-2015 10:00:00 -0.6 C 4.51 g/m*3 -0.6 C 3.2 km/h
2643 05-01-2015 10:05:00 -0.6 C 4.51 g/m*3 -0.6 C 3.2 km/h
2644 05-01-2015 10:10:00 -0.6 C 4.51 g/m*3 -0.6 C 3.2 km/h
2645 05-01-2015 10:15:00 -0.6 C 4.51 g/m*3 -0.6 C 1.6 km/h
2646 05-01-2015 10:20:00 -0.6 C 4.51 g/m*3 -2.88 C 6.4 km/h
2647 05-01-2015 10:25:00 -0.5 C 4.54 g/m*3 -0.5 C 1.6 km/h
2648 05-01-2015 10:30:00 -0.5 C 4.54 g/m*3 -0.5 C 4.8 km/h
2649 05-01-2015 10:35:00 -0.5 C 4.54 g/m*3 -2.76 C 6.4 km/h
2650 05-01-2015 10:40:00 -0.3 C 4.6 g/m*3 -3.12 C 8.1 km/h
Sensor: Nr:Datum:Temp:Abs-Feuchte:Windchill:Wind:
Aussen-T/F 2651 05-01-2015 10:45:00 -0.2 C 4.64 g/m*3 -0.2 C 4.8 km/h
2652 05-01-2015 10:50:00 -0.2 C 4.64 g/m*3 -0.2 C 3.2 km/h
2653 05-01-2015 10:55:00 -0.2 C 4.64 g/m*3 -0.2 C 1.6 km/h
2654 05-01-2015 11:00:00 -0.2 C 4.64 g/m*3 -0.2 C 1.6 km/h
2655 05-01-2015 11:05:00 -0.2 C 4.64 g/m*3 -0.2 C 3.2 km/h
2656 05-01-2015 11:10:00 -0.2 C 4.64 g/m*3 -0.2 C 1.6 km/h
2657 05-01-2015 11:50:00 0.2 C 4.77 g/m*3 0.2 C 3.2 km/h
2658 05-01-2015 11:55:00 0.2 C 4.77 g/m*3 0.2 C 1.6 km/h
2659 05-01-2015 12:00:00 0.2 C 4.77 g/m*3 0.2 C 1.6 km/h
2660 05-01-2015 12:05:00 0.2 C 4.77 g/m*3 0.2 C 1.6 km/h
2661 05-01-2015 12:10:00 0.2 C 4.77 g/m*3 0.2 C 3.2 km/h
2662 05-01-2015 12:15:00 0.2 C 4.77 g/m*3 0.2 C 1.6 km/h
2663 05-01-2015 12:20:00 0.2 C 4.77 g/m*3 0.2 C 1.6 km/h
2664 05-01-2015 12:25:00 0.2 C 4.77 g/m*3 0.2 C 1.6 km/h
2665 05-01-2015 13:50:00 1.1 C 5.23 g/m*3 1.1 C 3.2 km/h
2666 05-01-2015 13:55:00 1.1 C 4.96 g/m*3 1.1 C 4.8 km/h
2667 05-01-2015 14:00:00 1.1 C 4.96 g/m*3 1.1 C 3.2 km/h
2668 05-01-2015 18:20:00 -0.8 C 4.4 g/m*3 -0.8 C 0 km/h
2669 05-01-2015 18:25:00 -0.8 C 4.4 g/m*3 -0.8 C 0 km/h
2670 05-01-2015 18:30:00 -0.8 C 4.4 g/m*3 -0.8 C 0 km/h
2671 05-01-2015 18:35:00 -0.8 C 4.4 g/m*3 -0.8 C 1.6 km/h
2672 05-01-2015 18:40:00 -0.8 C 4.4 g/m*3 -0.8 C 0 km/h
2673 05-01-2015 18:45:00 -0.8 C 4.4 g/m*3 -0.8 C 0 km/h
2674 05-01-2015 18:50:00 -0.8 C 4.4 g/m*3 -0.8 C 0 km/h
2675 05-01-2015 18:55:00 -0.8 C 4.4 g/m*3 -0.8 C 0 km/h
Sensor: Nr:Datum:Temp:Abs-Feuchte:Windchill:Wind:
Aussen-T/F 2676 05-01-2015 19:00:00 -0.8 C 4.4 g/m*3 -0.8 C 0 km/h
2677 05-01-2015 19:05:00 -0.9 C 4.37 g/m*3 -0.9 C 0 km/h
2678 05-01-2015 19:10:00 -0.9 C 4.37 g/m*3 -0.9 C 0 km/h
2679 05-01-2015 20:10:00 -1.4 C 4.22 g/m*3 -1.4 C 0 km/h
2680 05-01-2015 20:15:00 -1.4 C 4.22 g/m*3 -1.4 C 0 km/h
2681 05-01-2015 20:20:00 -1.3 C 4.25 g/m*3 -1.3 C 0 km/h
2682 05-01-2015 20:25:00 -1.4 C 4.22 g/m*3 -1.4 C 0 km/h
2683 05-01-2015 20:30:00 -1.4 C 4.22 g/m*3 -1.4 C 0 km/h
2684 05-01-2015 20:35:00 -1.4 C 4.22 g/m*3 -1.4 C 0 km/h
2685 05-01-2015 20:40:00 -1.3 C 4.25 g/m*3 -1.3 C 0 km/h
2686 05-01-2015 20:45:00 -1.4 C 4.22 g/m*3 -1.4 C 0 km/h
2687 05-01-2015 20:50:00 -1.4 C 4.22 g/m*3 -1.4 C 0 km/h
2688 05-01-2015 20:55:00 -1.5 C 4.19 g/m*3 -1.5 C 0 km/h
2689 05-01-2015 21:00:00 -1.5 C 4.19 g/m*3 -1.5 C 0 km/h
2690 05-01-2015 21:05:00 -1.6 C 4.16 g/m*3 -1.6 C 0 km/h
2691 05-01-2015 21:10:00 -1.5 C 4.19 g/m*3 -1.5 C 0 km/h
2692 05-01-2015 21:15:00 -1.5 C 4.19 g/m*3 -1.5 C 0 km/h
2693 05-01-2015 21:20:00 -1.5 C 4.19 g/m*3 -1.5 C 0 km/h
2694 05-01-2015 21:25:00 -1.6 C 4.16 g/m*3 -1.6 C 0 km/h
2695 05-01-2015 21:30:00 -1.6 C 4.16 g/m*3 -1.6 C 0 km/h
2696 05-01-2015 21:35:00 -1.6 C 4.16 g/m*3 -1.6 C 0 km/h
2697 05-01-2015 21:40:00 -1.6 C 4.16 g/m*3 -1.6 C 0 km/h
2698 05-01-2015 21:45:00 -1.6 C 4.16 g/m*3 -1.6 C 0 km/h
2699 05-01-2015 21:50:00 -1.6 C 4.16 g/m*3 -1.6 C 0 km/h
2700 05-01-2015 21:55:00 -1.6 C 4.21 g/m*3 -1.6 C 0 km/h
Sensor: Nr:Datum:Temp:Abs-Feuchte:Windchill:Wind:
Aussen-T/F 2701 05-01-2015 22:00:00 -1.6 C 4.21 g/m*3 -1.6 C 0 km/h
2702 05-01-2015 22:05:00 -1.7 C 4.13 g/m*3 -1.7 C 0 km/h
2703 05-01-2015 22:10:00 -1.7 C 4.13 g/m*3 -1.7 C 0 km/h
2704 05-01-2015 22:15:00 -1.8 C 4.1 g/m*3 -1.8 C 0 km/h
2705 05-01-2015 22:20:00 -1.8 C 4.1 g/m*3 -1.8 C 0 km/h
2706 05-01-2015 22:25:00 -1.8 C 4.1 g/m*3 -1.8 C 0 km/h
2707 05-01-2015 22:30:00 -1.8 C 4.1 g/m*3 -1.8 C 1.6 km/h
2708 05-01-2015 22:35:00 -1.8 C 4.1 g/m*3 -1.8 C 0 km/h
2709 05-01-2015 22:40:00 -1.8 C 4.1 g/m*3 -1.8 C 0 km/h
2710 06-01-2015 07:55:00 -2.9 C 3.84 g/m*3 -2.9 C 4.8 km/h
2711 06-01-2015 08:00:00 -2.9 C 3.84 g/m*3 -2.9 C 3.2 km/h
2712 06-01-2015 08:05:00 -2.9 C 3.84 g/m*3 -2.9 C 1.6 km/h
2713 06-01-2015 08:10:00 -2.9 C 3.84 g/m*3 -2.9 C 3.2 km/h
2714 06-01-2015 08:15:00 -2.9 C 3.84 g/m*3 -2.9 C 3.2 km/h
2715 06-01-2015 13:05:00 -1.4 C 4.26 g/m*3 -1.4 C 3.2 km/h
2716 06-01-2015 13:10:00 -1.3 C 4.29 g/m*3 -1.3 C 0 km/h
2717 06-01-2015 13:15:00 -1.3 C 4.29 g/m*3 -1.3 C 0 km/h
2718 06-01-2015 13:20:00 -1.3 C 4.29 g/m*3 -1.3 C 0 km/h
2719 06-01-2015 13:25:00 -1.3 C 4.29 g/m*3 -1.3 C 1.6 km/h
2720 06-01-2015 19:40:00 1.1 C 4.7 g/m*3 -2.66 C 12.9 km/h
2721 06-01-2015 19:45:00 1.1 C 4.7 g/m*3 -2.97 C 14.5 km/h
2722 06-01-2015 19:50:00 1.1 C 4.7 g/m*3 -2.97 C 14.5 km/h
2723 06-01-2015 19:55:00 1.1 C 4.7 g/m*3 -2.66 C 12.9 km/h
2724 06-01-2015 20:00:00 0.9 C 4.64 g/m*3 -3.21 C 14.5 km/h
2725 06-01-2015 20:05:00 0.9 C 4.64 g/m*3 -2.16 C 9.7 km/h
Sensor: Nr:Datum:Temp:Abs-Feuchte:Windchill:Wind:
Aussen-T/F 2726 06-01-2015 20:10:00 0.8 C 4.61 g/m*3 -4.13 C 19.3 km/h
2727 06-01-2015 20:15:00 0.8 C 4.61 g/m*3 -3.02 C 12.9 km/h
2728 06-01-2015 20:20:00 0.8 C 4.61 g/m*3 -3.02 C 12.9 km/h
2729 06-01-2015 20:25:00 0.8 C 4.61 g/m*3 -2.67 C 11.3 km/h
2730 06-01-2015 21:20:00 0.7 C 4.68 g/m*3 -1.95 C 8.1 km/h
2731 06-01-2015 21:25:00 0.7 C 4.68 g/m*3 -2.8 C 11.3 km/h
2732 06-01-2015 21:30:00 0.7 C 4.68 g/m*3 -2.8 C 11.3 km/h
2733 06-01-2015 21:35:00 0.8 C 4.71 g/m*3 -2.28 C 9.7 km/h
2734 06-01-2015 21:40:00 0.8 C 4.71 g/m*3 -2.28 C 9.7 km/h
2735 06-01-2015 21:45:00 0.8 C 4.71 g/m*3 -2.28 C 9.7 km/h
2736 06-01-2015 21:50:00 0.8 C 4.71 g/m*3 -2.67 C 11.3 km/h
2737 06-01-2015 21:55:00 0.8 C 4.71 g/m*3 -3.34 C 14.5 km/h
2738 06-01-2015 22:00:00 0.9 C 4.74 g/m*3 -1.14 C 6.4 km/h
2739 06-01-2015 22:05:00 1 C 4.78 g/m*3 -2.78 C 12.9 km/h
2740 06-01-2015 22:10:00 1 C 4.78 g/m*3 -1.59 C 8.1 km/h
2741 06-01-2015 22:15:00 1.1 C 4.81 g/m*3 -1.92 C 9.7 km/h
2742 06-01-2015 22:20:00 1.1 C 4.81 g/m*3 -1.48 C 8.1 km/h
2743 06-01-2015 22:25:00 1.1 C 4.81 g/m*3 -2.31 C 11.3 km/h
2744 06-01-2015 22:30:00 1.2 C 4.84 g/m*3 -0.8 C 6.4 km/h
2745 06-01-2015 22:35:00 1.3 C 4.87 g/m*3 -0.68 C 6.4 km/h
2746 06-01-2015 22:40:00 1.3 C 4.87 g/m*3 1.3 C 1.6 km/h
2747 06-01-2015 22:45:00 1.3 C 4.87 g/m*3 1.3 C 1.6 km/h
2748 06-01-2015 22:50:00 1.3 C 4.87 g/m*3 1.3 C 4.8 km/h
2749 06-01-2015 22:55:00 1.2 C 4.84 g/m*3 1.2 C 0 km/h
2750 06-01-2015 23:00:00 1.2 C 4.84 g/m*3 -1.8 C 9.7 km/h
Sensor: Nr:Datum:Temp:Abs-Feuchte:Windchill:Wind:
Aussen-T/F 2751 06-01-2015 23:05:00 1.2 C 4.84 g/m*3 1.2 C 4.8 km/h
2752 06-01-2015 23:10:00 1.2 C 4.84 g/m*3 1.2 C 3.2 km/h
2753 06-01-2015 23:15:00 1.3 C 4.93 g/m*3 -0.68 C 6.4 km/h
2754 06-01-2015 23:20:00 1.4 C 4.96 g/m*3 -2.29 C 12.9 km/h
2755 06-01-2015 23:25:00 1.6 C 5.03 g/m*3 -1.33 C 9.7 km/h
2756 06-01-2015 23:30:00 1.6 C 5.03 g/m*3 1.6 C 4.8 km/h
2757 06-01-2015 23:35:00 1.6 C 4.97 g/m*3 -0.33 C 6.4 km/h
2758 06-01-2015 23:40:00 1.6 C 4.97 g/m*3 1.6 C 4.8 km/h
2759 06-01-2015 23:45:00 1.5 C 4.94 g/m*3 1.5 C 4.8 km/h
2760 06-01-2015 23:50:00 1.5 C 4.99 g/m*3 -0.45 C 6.4 km/h
2761 06-01-2015 23:55:00 1.5 C 4.99 g/m*3 -2.17 C 12.9 km/h
2762 07-01-2015 00:00:00 1.5 C 4.99 g/m*3 -1.01 C 8.1 km/h
2763 07-01-2015 00:05:00 1.6 C 5.03 g/m*3 -0.33 C 6.4 km/h
2764 07-01-2015 00:10:00 1.6 C 5.03 g/m*3 -0.33 C 6.4 km/h
2765 07-01-2015 00:15:00 1.6 C 5.03 g/m*3 -0.33 C 6.4 km/h
2766 07-01-2015 00:20:00 1.6 C 5.03 g/m*3 -0.33 C 6.4 km/h
2767 07-01-2015 00:25:00 1.6 C 5.03 g/m*3 -0.89 C 8.1 km/h
2768 07-01-2015 00:30:00 1.6 C 5.03 g/m*3 1.6 C 3.2 km/h
2769 07-01-2015 00:35:00 1.6 C 5.08 g/m*3 -0.33 C 6.4 km/h
2770 07-01-2015 00:40:00 1.7 C 5.12 g/m*3 -0.22 C 6.4 km/h
2771 07-01-2015 00:45:00 1.7 C 5.12 g/m*3 1.7 C 3.2 km/h
2772 07-01-2015 00:50:00 1.7 C 5.12 g/m*3 1.7 C 3.2 km/h
2773 07-01-2015 00:55:00 1.7 C 5.12 g/m*3 1.7 C 3.2 km/h
2774 07-01-2015 01:00:00 1.8 C 5.15 g/m*3 -1.09 C 9.7 km/h
2775 07-01-2015 01:05:00 1.9 C 5.19 g/m*3 -0.97 C 9.7 km/h
Sensor: Nr:Datum:Temp:Abs-Feuchte:Windchill:Wind:
Aussen-T/F 2776 07-01-2015 01:10:00 1.9 C 5.19 g/m*3 1.9 C 4.8 km/h
2777 07-01-2015 01:15:00 1.9 C 5.19 g/m*3 0.01 C 6.4 km/h
2778 07-01-2015 01:20:00 2 C 5.22 g/m*3 -2.14 C 16.1 km/h
2779 07-01-2015 01:25:00 2.1 C 5.26 g/m*3 -0.73 C 9.7 km/h
2780 07-01-2015 01:30:00 2.1 C 5.26 g/m*3 -0.73 C 9.7 km/h
2781 07-01-2015 01:35:00 2.2 C 5.29 g/m*3 2.2 C 4.8 km/h
2782 07-01-2015 01:40:00 2.1 C 5.2 g/m*3 -1.74 C 14.5 km/h
2783 07-01-2015 01:45:00 2.2 C 5.29 g/m*3 2.2 C 4.8 km/h
2784 07-01-2015 01:50:00 2.2 C 5.29 g/m*3 0.36 C 6.4 km/h
2785 07-01-2015 01:55:00 2.2 C 5.29 g/m*3 0.36 C 6.4 km/h
2786 07-01-2015 02:00:00 2.2 C 5.29 g/m*3 2.2 C 3.2 km/h
2787 07-01-2015 02:05:00 2.2 C 5.29 g/m*3 2.2 C 3.2 km/h
2788 07-01-2015 02:10:00 2.2 C 5.29 g/m*3 2.2 C 4.8 km/h
2789 07-01-2015 02:15:00 2.2 C 5.29 g/m*3 -0.18 C 8.1 km/h
2790 07-01-2015 02:20:00 2.3 C 5.33 g/m*3 -0.87 C 11.3 km/h
2791 07-01-2015 02:25:00 2.3 C 5.33 g/m*3 -0.49 C 9.7 km/h
2792 07-01-2015 02:30:00 2.3 C 5.33 g/m*3 0.47 C 6.4 km/h
2793 07-01-2015 02:35:00 2.3 C 5.33 g/m*3 -0.07 C 8.1 km/h
2794 07-01-2015 02:40:00 2.2 C 5.29 g/m*3 -0.61 C 9.7 km/h
2795 07-01-2015 02:45:00 2.2 C 5.29 g/m*3 0.36 C 6.4 km/h
2796 07-01-2015 02:50:00 2.2 C 5.29 g/m*3 0.36 C 6.4 km/h
2797 07-01-2015 02:55:00 2.3 C 5.33 g/m*3 2.3 C 4.8 km/h
2798 07-01-2015 03:00:00 2.3 C 5.33 g/m*3 0.47 C 6.4 km/h
2799 07-01-2015 03:05:00 2.3 C 5.33 g/m*3 -0.87 C 11.3 km/h
2800 07-01-2015 03:10:00 2.4 C 5.37 g/m*3 -0.74 C 11.3 km/h
Sensor: Nr:Datum:Temp:Abs-Feuchte:Windchill:Wind:
Aussen-T/F 2801 07-01-2015 03:15:00 2.6 C 5.44 g/m*3 0.29 C 8.1 km/h
2802 07-01-2015 03:20:00 2.6 C 5.38 g/m*3 -0.14 C 9.7 km/h
2803 07-01-2015 03:25:00 2.5 C 5.35 g/m*3 -0.62 C 11.3 km/h
2804 07-01-2015 03:30:00 2.4 C 5.31 g/m*3 0.59 C 6.4 km/h
2805 07-01-2015 03:35:00 2.5 C 5.4 g/m*3 -0.26 C 9.7 km/h
2806 07-01-2015 03:40:00 2.5 C 5.35 g/m*3 -0.26 C 9.7 km/h
2807 07-01-2015 03:45:00 2.6 C 5.44 g/m*3 -0.5 C 11.3 km/h
2808 07-01-2015 03:50:00 2.6 C 5.44 g/m*3 0.82 C 6.4 km/h
2809 07-01-2015 03:55:00 2.5 C 5.4 g/m*3 0.71 C 6.4 km/h
2810 07-01-2015 04:00:00 2.4 C 5.37 g/m*3 0.59 C 6.4 km/h
2811 07-01-2015 04:05:00 2.4 C 5.37 g/m*3 2.4 C 4.8 km/h
2812 07-01-2015 04:10:00 2.4 C 5.37 g/m*3 -1.37 C 14.5 km/h
2813 07-01-2015 04:15:00 2.4 C 5.37 g/m*3 -0.37 C 9.7 km/h
2814 07-01-2015 04:20:00 2.4 C 5.37 g/m*3 -0.74 C 11.3 km/h
2815 07-01-2015 04:25:00 2.5 C 5.4 g/m*3 -0.26 C 9.7 km/h
2816 07-01-2015 04:30:00 2.5 C 5.4 g/m*3 -1.52 C 16.1 km/h
2817 07-01-2015 04:35:00 2.5 C 5.4 g/m*3 0.17 C 8.1 km/h
2818 07-01-2015 04:40:00 2.6 C 5.44 g/m*3 -0.5 C 11.3 km/h
2819 07-01-2015 04:45:00 2.5 C 5.4 g/m*3 0.71 C 6.4 km/h
2820 07-01-2015 04:50:00 2.5 C 5.4 g/m*3 -0.62 C 11.3 km/h
2821 07-01-2015 04:55:00 2.4 C 5.37 g/m*3 2.4 C 4.8 km/h
2822 07-01-2015 05:00:00 2.4 C 5.37 g/m*3 0.59 C 6.4 km/h
2823 07-01-2015 05:05:00 2.4 C 5.37 g/m*3 2.4 C 4.8 km/h
2824 07-01-2015 05:10:00 2.4 C 5.37 g/m*3 0.05 C 8.1 km/h
2825 07-01-2015 05:15:00 2.5 C 5.4 g/m*3 -0.26 C 9.7 km/h
Sensor: Nr:Datum:Temp:Abs-Feuchte:Windchill:Wind:
Aussen-T/F 2826 07-01-2015 05:20:00 2.5 C 5.4 g/m*3 0.71 C 6.4 km/h
2827 07-01-2015 05:25:00 2.6 C 5.44 g/m*3 2.6 C 4.8 km/h
2828 07-01-2015 05:30:00 2.6 C 5.44 g/m*3 0.82 C 6.4 km/h
2829 07-01-2015 05:35:00 2.6 C 5.44 g/m*3 -0.5 C 11.3 km/h
2830 07-01-2015 05:40:00 2.5 C 5.4 g/m*3 0.71 C 6.4 km/h
2831 07-01-2015 05:45:00 2.5 C 5.4 g/m*3 0.71 C 6.4 km/h
2832 07-01-2015 05:50:00 2.4 C 5.37 g/m*3 2.4 C 4.8 km/h
2833 07-01-2015 05:55:00 2.3 C 5.33 g/m*3 2.3 C 4.8 km/h
2834 07-01-2015 06:00:00 2.1 C 5.26 g/m*3 2.1 C 3.2 km/h
2835 07-01-2015 06:05:00 1.9 C 5.19 g/m*3 1.9 C 3.2 km/h
2836 07-01-2015 06:10:00 1.8 C 5.15 g/m*3 1.8 C 1.6 km/h
2837 07-01-2015 06:15:00 1.7 C 5.17 g/m*3 1.7 C 3.2 km/h
2838 07-01-2015 06:20:00 1.6 C 5.14 g/m*3 1.6 C 1.6 km/h
2839 07-01-2015 06:25:00 1.6 C 5.14 g/m*3 1.6 C 1.6 km/h
2840 07-01-2015 06:30:00 1.4 C 5.07 g/m*3 1.4 C 0 km/h
2841 07-01-2015 06:35:00 1.4 C 5.12 g/m*3 1.4 C 1.6 km/h
2842 07-01-2015 06:40:00 1.4 C 5.12 g/m*3 1.4 C 4.8 km/h
2843 07-01-2015 06:45:00 1.5 C 5.16 g/m*3 1.5 C 4.8 km/h
2844 07-01-2015 06:50:00 1.4 C 5.12 g/m*3 1.4 C 3.2 km/h
2845 07-01-2015 06:55:00 1.4 C 5.12 g/m*3 1.4 C 4.8 km/h
2846 07-01-2015 07:00:00 1.3 C 5.09 g/m*3 1.3 C 4.8 km/h
2847 07-01-2015 07:05:00 1.3 C 5.09 g/m*3 1.3 C 3.2 km/h
2848 07-01-2015 07:10:00 1.4 C 5.12 g/m*3 1.4 C 3.2 km/h
2849 07-01-2015 07:15:00 1.5 C 5.16 g/m*3 1.5 C 3.2 km/h
2850 07-01-2015 07:20:00 1.4 C 5.12 g/m*3 1.4 C 3.2 km/h
Sensor: Nr:Datum:Temp:Abs-Feuchte:Windchill:Wind:
Aussen-T/F 2851 07-01-2015 07:25:00 1.4 C 5.12 g/m*3 1.4 C 3.2 km/h
2852 07-01-2015 07:30:00 1.4 C 5.12 g/m*3 -0.56 C 6.4 km/h
2853 07-01-2015 07:35:00 1.4 C 5.12 g/m*3 1.4 C 3.2 km/h
2854 07-01-2015 07:40:00 1.3 C 5.09 g/m*3 1.3 C 1.6 km/h
2855 07-01-2015 07:45:00 1.3 C 5.09 g/m*3 -0.68 C 6.4 km/h
2856 07-01-2015 07:50:00 1.4 C 5.12 g/m*3 1.4 C 3.2 km/h
2857 07-01-2015 07:55:00 1.3 C 5.09 g/m*3 1.3 C 3.2 km/h
2858 07-01-2015 08:00:00 1.3 C 5.09 g/m*3 1.3 C 3.2 km/h
2859 07-01-2015 08:05:00 1.3 C 5.14 g/m*3 1.3 C 4.8 km/h
2860 07-01-2015 08:10:00 1.4 C 5.17 g/m*3 1.4 C 4.8 km/h
2861 07-01-2015 08:15:00 1.5 C 5.21 g/m*3 -1.01 C 8.1 km/h
2862 07-01-2015 08:20:00 1.6 C 5.25 g/m*3 1.6 C 4.8 km/h
2863 07-01-2015 08:25:00 1.7 C 5.28 g/m*3 -0.22 C 6.4 km/h
2864 07-01-2015 08:30:00 1.7 C 5.28 g/m*3 -0.22 C 6.4 km/h
2865 07-01-2015 08:35:00 1.7 C 5.23 g/m*3 -0.22 C 6.4 km/h
2866 07-01-2015 08:40:00 1.8 C 5.26 g/m*3 1.8 C 3.2 km/h
2867 07-01-2015 08:45:00 1.8 C 5.26 g/m*3 1.8 C 3.2 km/h
2868 07-01-2015 08:50:00 1.8 C 5.26 g/m*3 -0.65 C 8.1 km/h
2869 07-01-2015 08:55:00 1.9 C 5.35 g/m*3 1.9 C 4.8 km/h
2870 07-01-2015 09:00:00 2 C 5.33 g/m*3 2 C 4.8 km/h
2871 07-01-2015 09:05:00 2.1 C 5.37 g/m*3 2.1 C 4.8 km/h
2872 07-01-2015 09:10:00 2 C 5.33 g/m*3 2 C 3.2 km/h
2873 07-01-2015 09:15:00 2 C 5.33 g/m*3 2 C 1.6 km/h
2874 07-01-2015 09:20:00 2 C 5.33 g/m*3 2 C 3.2 km/h
2875 07-01-2015 09:25:00 2.1 C 5.37 g/m*3 2.1 C 4.8 km/h
Sensor: Nr:Datum:Temp:Abs-Feuchte:Windchill:Wind:
Aussen-T/F 2876 07-01-2015 09:30:00 2.1 C 5.37 g/m*3 2.1 C 0 km/h
2877 07-01-2015 09:35:00 2.1 C 5.37 g/m*3 2.1 C 4.8 km/h
2878 07-01-2015 09:40:00 2.1 C 5.37 g/m*3 2.1 C 3.2 km/h
2879 07-01-2015 11:40:00 3.2 C 5.54 g/m*3 -0.1 C 12.9 km/h
2880 07-01-2015 11:45:00 3.3 C 5.58 g/m*3 1.63 C 6.4 km/h
2881 07-01-2015 11:50:00 3.2 C 5.54 g/m*3 0.58 C 9.7 km/h
2882 07-01-2015 11:55:00 3.2 C 5.54 g/m*3 3.2 C 4.8 km/h
2883 07-01-2015 12:00:00 3.1 C 5.51 g/m*3 1.4 C 6.4 km/h
2884 07-01-2015 12:05:00 3.1 C 5.51 g/m*3 3.1 C 4.8 km/h
2885 07-01-2015 12:10:00 3.2 C 5.54 g/m*3 1.51 C 6.4 km/h
2886 07-01-2015 12:15:00 3.1 C 5.51 g/m*3 1.4 C 6.4 km/h
2887 07-01-2015 12:20:00 3.1 C 5.51 g/m*3 3.1 C 4.8 km/h
2888 07-01-2015 12:25:00 3.1 C 5.51 g/m*3 0.1 C 11.3 km/h
2889 07-01-2015 12:30:00 3.2 C 5.54 g/m*3 0.58 C 9.7 km/h
2890 07-01-2015 12:35:00 3.2 C 5.48 g/m*3 1.51 C 6.4 km/h
2891 07-01-2015 12:40:00 3.2 C 5.54 g/m*3 0.22 C 11.3 km/h
2892 07-01-2015 12:45:00 3.3 C 5.52 g/m*3 0.34 C 11.3 km/h
2893 07-01-2015 12:50:00 3.3 C 5.52 g/m*3 1.11 C 8.1 km/h
2894 07-01-2015 12:55:00 3.4 C 5.56 g/m*3 0.46 C 11.3 km/h
2895 07-01-2015 13:00:00 3.4 C 5.5 g/m*3 0.46 C 11.3 km/h
2896 07-01-2015 13:05:00 3.4 C 5.5 g/m*3 0.46 C 11.3 km/h
2897 07-01-2015 13:10:00 3.4 C 5.5 g/m*3 1.75 C 6.4 km/h
2898 07-01-2015 13:15:00 3.4 C 5.5 g/m*3 1.23 C 8.1 km/h
2899 07-01-2015 13:20:00 3.4 C 5.56 g/m*3 1.75 C 6.4 km/h
2900 07-01-2015 13:25:00 3.4 C 5.56 g/m*3 0.46 C 11.3 km/h
Sensor: Nr:Datum:Temp:Abs-Feuchte:Windchill:Wind:
Aussen-T/F 2901 07-01-2015 13:30:00 3.4 C 5.56 g/m*3 1.23 C 8.1 km/h
2902 07-01-2015 13:35:00 3.4 C 5.56 g/m*3 0.82 C 9.7 km/h
2903 07-01-2015 13:40:00 3.4 C 5.5 g/m*3 -0.14 C 14.5 km/h
2904 07-01-2015 13:45:00 3.4 C 5.5 g/m*3 1.23 C 8.1 km/h
2905 07-01-2015 13:50:00 3.4 C 5.5 g/m*3 0.14 C 12.9 km/h
2906 07-01-2015 13:55:00 3.5 C 5.53 g/m*3 0.58 C 11.3 km/h
2907 07-01-2015 14:00:00 3.5 C 5.53 g/m*3 0.94 C 9.7 km/h
2908 07-01-2015 14:05:00 3.5 C 5.53 g/m*3 1.86 C 6.4 km/h
2909 07-01-2015 14:10:00 3.5 C 5.53 g/m*3 0.94 C 9.7 km/h
2910 07-01-2015 14:15:00 3.4 C 5.5 g/m*3 -0.4 C 16.1 km/h
2911 07-01-2015 14:20:00 3.4 C 5.5 g/m*3 0.46 C 11.3 km/h
2912 07-01-2015 14:25:00 3.4 C 5.5 g/m*3 0.82 C 9.7 km/h
2913 07-01-2015 14:30:00 3.4 C 5.44 g/m*3 0.46 C 11.3 km/h
2914 07-01-2015 14:35:00 3.4 C 5.44 g/m*3 0.82 C 9.7 km/h
2915 07-01-2015 14:40:00 3.4 C 5.44 g/m*3 0.82 C 9.7 km/h
2916 07-01-2015 14:45:00 3.4 C 5.44 g/m*3 0.82 C 9.7 km/h
2917 07-01-2015 14:50:00 3.4 C 5.44 g/m*3 0.14 C 12.9 km/h
2918 07-01-2015 14:55:00 3.4 C 5.44 g/m*3 0.46 C 11.3 km/h
2919 07-01-2015 15:00:00 3.4 C 5.44 g/m*3 3.4 C 4.8 km/h
2920 07-01-2015 15:05:00 3.4 C 5.37 g/m*3 3.4 C 4.8 km/h
2921 07-01-2015 15:10:00 3.5 C 5.47 g/m*3 0.58 C 11.3 km/h
2922 07-01-2015 15:15:00 3.5 C 5.47 g/m*3 1.86 C 6.4 km/h
2923 07-01-2015 15:20:00 3.5 C 5.47 g/m*3 1.86 C 6.4 km/h
2924 07-01-2015 15:25:00 3.5 C 5.41 g/m*3 3.5 C 4.8 km/h
2925 07-01-2015 15:30:00 3.5 C 5.47 g/m*3 3.5 C 4.8 km/h
Sensor: Nr:Datum:Temp:Abs-Feuchte:Windchill:Wind:
Aussen-T/F 2926 07-01-2015 15:35:00 3.4 C 5.44 g/m*3 0.82 C 9.7 km/h
2927 07-01-2015 15:40:00 3.4 C 5.37 g/m*3 1.23 C 8.1 km/h
2928 07-01-2015 15:45:00 3.3 C 5.34 g/m*3 0.7 C 9.7 km/h
2929 07-01-2015 15:50:00 3.3 C 5.4 g/m*3 0.34 C 11.3 km/h
2930 07-01-2015 15:55:00 3.3 C 5.4 g/m*3 0.7 C 9.7 km/h
2931 07-01-2015 16:00:00 3.2 C 5.36 g/m*3 0.99 C 8.1 km/h
2932 07-01-2015 16:05:00 3.2 C 5.36 g/m*3 3.2 C 4.8 km/h
2933 07-01-2015 16:10:00 3.2 C 5.42 g/m*3 0.99 C 8.1 km/h
2934 07-01-2015 16:15:00 3.2 C 5.36 g/m*3 0.58 C 9.7 km/h
2935 07-01-2015 16:20:00 3.2 C 5.42 g/m*3 3.2 C 4.8 km/h
2936 07-01-2015 16:25:00 3.2 C 5.42 g/m*3 3.2 C 3.2 km/h
2937 07-01-2015 16:30:00 3.1 C 5.39 g/m*3 3.1 C 3.2 km/h
2938 07-01-2015 16:35:00 3.1 C 5.39 g/m*3 3.1 C 4.8 km/h
2939 07-01-2015 16:40:00 3.1 C 5.39 g/m*3 0.87 C 8.1 km/h
2940 07-01-2015 16:45:00 3.1 C 5.39 g/m*3 1.4 C 6.4 km/h
2941 07-01-2015 16:50:00 3.1 C 5.39 g/m*3 1.4 C 6.4 km/h
2942 07-01-2015 16:55:00 3 C 5.35 g/m*3 3 C 4.8 km/h
2943 07-01-2015 17:00:00 3 C 5.35 g/m*3 1.28 C 6.4 km/h
2944 07-01-2015 17:05:00 2.9 C 5.32 g/m*3 2.9 C 3.2 km/h
2945 07-01-2015 17:10:00 2.9 C 5.32 g/m*3 2.9 C 3.2 km/h
2946 07-01-2015 17:15:00 2.9 C 5.32 g/m*3 0.22 C 9.7 km/h
2947 07-01-2015 17:20:00 2.9 C 5.37 g/m*3 2.9 C 1.6 km/h
2948 07-01-2015 17:25:00 2.8 C 5.34 g/m*3 2.8 C 0 km/h
2949 07-01-2015 17:30:00 2.8 C 5.34 g/m*3 2.8 C 0 km/h
2950 07-01-2015 17:35:00 2.8 C 5.34 g/m*3 2.8 C 0 km/h
Sensor: Nr:Datum:Temp:Abs-Feuchte:Windchill:Wind:
Aussen-T/F 2951 07-01-2015 17:40:00 2.7 C 5.3 g/m*3 2.7 C 3.2 km/h
2952 07-01-2015 17:45:00 2.7 C 5.3 g/m*3 0.4 C 8.1 km/h
2953 07-01-2015 17:50:00 2.8 C 5.34 g/m*3 0.52 C 8.1 km/h
2954 07-01-2015 17:55:00 2.8 C 5.34 g/m*3 1.05 C 6.4 km/h
2955 07-01-2015 18:00:00 2.8 C 5.28 g/m*3 2.8 C 4.8 km/h
2956 07-01-2015 18:05:00 2.8 C 5.28 g/m*3 0.1 C 9.7 km/h
2957 07-01-2015 18:10:00 2.8 C 5.28 g/m*3 1.05 C 6.4 km/h
2958 07-01-2015 18:15:00 2.8 C 5.28 g/m*3 2.8 C 3.2 km/h
2959 07-01-2015 18:20:00 2.8 C 5.28 g/m*3 2.8 C 1.6 km/h
2960 07-01-2015 18:25:00 2.8 C 5.28 g/m*3 2.8 C 3.2 km/h
2961 07-01-2015 18:30:00 2.8 C 5.28 g/m*3 2.8 C 4.8 km/h
2962 07-01-2015 18:35:00 2.8 C 5.28 g/m*3 2.8 C 3.2 km/h
2963 07-01-2015 18:40:00 2.8 C 5.28 g/m*3 2.8 C 3.2 km/h
2964 07-01-2015 18:45:00 2.8 C 5.34 g/m*3 2.8 C 0 km/h
2965 07-01-2015 18:50:00 2.7 C 5.3 g/m*3 2.7 C 0 km/h
2966 07-01-2015 18:55:00 2.7 C 5.3 g/m*3 2.7 C 1.6 km/h
2967 07-01-2015 19:00:00 2.7 C 5.3 g/m*3 2.7 C 1.6 km/h
2968 07-01-2015 19:05:00 2.7 C 5.3 g/m*3 2.7 C 0 km/h
2969 07-01-2015 19:10:00 2.7 C 5.36 g/m*3 2.7 C 1.6 km/h
2970 07-01-2015 19:15:00 2.6 C 5.32 g/m*3 2.6 C 0 km/h
2971 07-01-2015 19:20:00 2.6 C 5.32 g/m*3 2.6 C 0 km/h
2972 07-01-2015 19:25:00 2.6 C 5.32 g/m*3 2.6 C 1.6 km/h
2973 07-01-2015 19:30:00 2.6 C 5.32 g/m*3 2.6 C 1.6 km/h
2974 07-01-2015 19:35:00 2.5 C 5.35 g/m*3 2.5 C 1.6 km/h
2975 07-01-2015 19:40:00 2.5 C 5.35 g/m*3 2.5 C 0 km/h
Sensor: Nr:Datum:Temp:Abs-Feuchte:Windchill:Wind:
Aussen-T/F 2976 07-01-2015 19:45:00 2.5 C 5.35 g/m*3 2.5 C 0 km/h
2977 07-01-2015 19:50:00 2.4 C 5.31 g/m*3 2.4 C 0 km/h
2978 07-01-2015 19:55:00 2.4 C 5.31 g/m*3 2.4 C 3.2 km/h
2979 07-01-2015 20:00:00 2.5 C 5.35 g/m*3 2.5 C 0 km/h
2980 07-01-2015 20:05:00 2.5 C 5.35 g/m*3 2.5 C 0 km/h
2981 07-01-2015 20:10:00 2.6 C 5.38 g/m*3 2.6 C 0 km/h
2982 07-01-2015 20:15:00 2.6 C 5.38 g/m*3 2.6 C 0 km/h
2983 07-01-2015 20:20:00 2.6 C 5.38 g/m*3 2.6 C 0 km/h
2984 07-01-2015 20:25:00 2.6 C 5.38 g/m*3 2.6 C 0 km/h
2985 07-01-2015 20:30:00 2.6 C 5.38 g/m*3 2.6 C 1.6 km/h
2986 07-01-2015 20:35:00 2.6 C 5.32 g/m*3 2.6 C 4.8 km/h
2987 07-01-2015 20:40:00 2.6 C 5.32 g/m*3 0.29 C 8.1 km/h
2988 07-01-2015 20:45:00 2.7 C 5.36 g/m*3 0.94 C 6.4 km/h
2989 07-01-2015 20:50:00 2.7 C 5.36 g/m*3 0.94 C 6.4 km/h
2990 07-01-2015 20:55:00 2.7 C 5.36 g/m*3 2.7 C 3.2 km/h
2991 07-01-2015 21:00:00 2.7 C 5.36 g/m*3 2.7 C 1.6 km/h
2992 07-01-2015 21:05:00 2.7 C 5.36 g/m*3 2.7 C 1.6 km/h
2993 07-01-2015 21:10:00 2.7 C 5.36 g/m*3 2.7 C 3.2 km/h
2994 07-01-2015 21:15:00 2.6 C 5.32 g/m*3 2.6 C 3.2 km/h
2995 07-01-2015 21:20:00 2.6 C 5.32 g/m*3 2.6 C 3.2 km/h
2996 07-01-2015 21:25:00 2.6 C 5.27 g/m*3 2.6 C 3.2 km/h
2997 07-01-2015 21:30:00 2.6 C 5.32 g/m*3 2.6 C 0 km/h
2998 07-01-2015 21:35:00 2.6 C 5.32 g/m*3 2.6 C 1.6 km/h
2999 07-01-2015 21:40:00 2.6 C 5.32 g/m*3 2.6 C 1.6 km/h
3000 07-01-2015 21:45:00 2.5 C 5.29 g/m*3 2.5 C 0 km/h
Sensor: Nr:Datum:Temp:Abs-Feuchte:Windchill:Wind:
Aussen-T/F 3001 07-01-2015 21:50:00 2.4 C 5.25 g/m*3 2.4 C 0 km/h
3002 07-01-2015 21:55:00 2.4 C 5.31 g/m*3 2.4 C 0 km/h
3003 07-01-2015 22:00:00 2.4 C 5.31 g/m*3 2.4 C 0 km/h
3004 07-01-2015 22:05:00 2.4 C 5.31 g/m*3 2.4 C 0 km/h
3005 07-01-2015 22:10:00 2.4 C 5.31 g/m*3 2.4 C 0 km/h
3006 07-01-2015 22:15:00 2.4 C 5.31 g/m*3 2.4 C 0 km/h
3007 07-01-2015 22:20:00 2.4 C 5.31 g/m*3 2.4 C 1.6 km/h
3008 07-01-2015 22:25:00 2.4 C 5.25 g/m*3 2.4 C 1.6 km/h
3009 07-01-2015 22:30:00 2.4 C 5.25 g/m*3 0.59 C 6.4 km/h
3010 07-01-2015 22:35:00 2.4 C 5.2 g/m*3 2.4 C 3.2 km/h
3011 07-01-2015 22:40:00 2.6 C 5.21 g/m*3 2.6 C 4.8 km/h
3012 07-01-2015 22:45:00 2.6 C 5.15 g/m*3 2.6 C 3.2 km/h
3013 07-01-2015 22:50:00 2.6 C 5.15 g/m*3 2.6 C 3.2 km/h
3014 07-01-2015 22:55:00 2.7 C 5.19 g/m*3 2.7 C 1.6 km/h
3015 07-01-2015 23:00:00 2.7 C 5.19 g/m*3 0.4 C 8.1 km/h
3016 07-01-2015 23:05:00 2.7 C 5.13 g/m*3 0.94 C 6.4 km/h
3017 07-01-2015 23:10:00 2.8 C 5.16 g/m*3 2.8 C 3.2 km/h
3018 07-01-2015 23:15:00 2.8 C 5.16 g/m*3 2.8 C 0 km/h
3019 07-01-2015 23:20:00 2.8 C 5.16 g/m*3 0.52 C 8.1 km/h
3020 07-01-2015 23:25:00 2.8 C 5.16 g/m*3 2.8 C 3.2 km/h
3021 07-01-2015 23:30:00 2.8 C 5.16 g/m*3 2.8 C 0 km/h
3022 07-01-2015 23:35:00 2.8 C 5.16 g/m*3 2.8 C 3.2 km/h
3023 07-01-2015 23:40:00 2.9 C 5.2 g/m*3 2.9 C 3.2 km/h
3024 07-01-2015 23:45:00 2.9 C 5.2 g/m*3 2.9 C 0 km/h
3025 07-01-2015 23:50:00 2.9 C 5.26 g/m*3 2.9 C 0 km/h
Sensor: Nr:Datum:Temp:Abs-Feuchte:Windchill:Wind:
Aussen-T/F 3026 07-01-2015 23:55:00 2.8 C 5.22 g/m*3 2.8 C 0 km/h
3027 08-01-2015 00:00:00 2.8 C 5.28 g/m*3 2.8 C 0 km/h
3028 08-01-2015 00:05:00 2.7 C 5.3 g/m*3 2.7 C 3.2 km/h
3029 08-01-2015 00:10:00 2.6 C 5.27 g/m*3 2.6 C 0 km/h
3030 08-01-2015 00:15:00 2.6 C 5.32 g/m*3 2.6 C 0 km/h
3031 08-01-2015 00:20:00 2.6 C 5.32 g/m*3 2.6 C 0 km/h
3032 08-01-2015 00:25:00 2.6 C 5.32 g/m*3 2.6 C 1.6 km/h
3033 08-01-2015 00:30:00 2.6 C 5.32 g/m*3 2.6 C 1.6 km/h
3034 08-01-2015 00:35:00 2.6 C 5.32 g/m*3 2.6 C 0 km/h
3035 08-01-2015 00:40:00 2.6 C 5.38 g/m*3 2.6 C 1.6 km/h
3036 08-01-2015 00:45:00 2.6 C 5.38 g/m*3 2.6 C 1.6 km/h
3037 08-01-2015 00:50:00 2.6 C 5.38 g/m*3 2.6 C 0 km/h
3038 08-01-2015 00:55:00 2.6 C 5.38 g/m*3 2.6 C 1.6 km/h
3039 08-01-2015 01:00:00 2.6 C 5.38 g/m*3 2.6 C 0 km/h
3040 08-01-2015 01:05:00 2.6 C 5.38 g/m*3 2.6 C 0 km/h
3041 08-01-2015 01:10:00 2.6 C 5.44 g/m*3 2.6 C 0 km/h
3042 08-01-2015 01:15:00 2.6 C 5.44 g/m*3 2.6 C 0 km/h
3043 08-01-2015 01:20:00 2.6 C 5.44 g/m*3 2.6 C 0 km/h
3044 08-01-2015 01:25:00 2.6 C 5.44 g/m*3 2.6 C 0 km/h
3045 08-01-2015 01:30:00 2.6 C 5.44 g/m*3 2.6 C 1.6 km/h
3046 08-01-2015 01:35:00 2.6 C 5.44 g/m*3 2.6 C 0 km/h
3047 08-01-2015 01:40:00 2.6 C 5.44 g/m*3 2.6 C 0 km/h
3048 08-01-2015 01:45:00 2.7 C 5.48 g/m*3 2.7 C 0 km/h
3049 08-01-2015 01:50:00 2.7 C 5.48 g/m*3 2.7 C 0 km/h
3050 08-01-2015 01:55:00 2.7 C 5.48 g/m*3 2.7 C 0 km/h
Sensor: Nr:Datum:Temp:Abs-Feuchte:Windchill:Wind:
Aussen-T/F 3051 08-01-2015 02:00:00 2.6 C 5.44 g/m*3 2.6 C 0 km/h
3052 08-01-2015 02:05:00 2.7 C 5.48 g/m*3 2.7 C 0 km/h
3053 08-01-2015 02:10:00 2.7 C 5.48 g/m*3 2.7 C 0 km/h
3054 08-01-2015 02:15:00 2.7 C 5.48 g/m*3 2.7 C 0 km/h
3055 08-01-2015 02:20:00 2.7 C 5.48 g/m*3 2.7 C 0 km/h
3056 08-01-2015 02:25:00 2.7 C 5.48 g/m*3 2.7 C 0 km/h
3057 08-01-2015 02:30:00 2.7 C 5.48 g/m*3 2.7 C 0 km/h
3058 08-01-2015 02:35:00 2.8 C 5.51 g/m*3 2.8 C 0 km/h
3059 08-01-2015 02:40:00 2.8 C 5.51 g/m*3 2.8 C 1.6 km/h
3060 08-01-2015 02:45:00 2.9 C 5.55 g/m*3 2.9 C 0 km/h
3061 08-01-2015 02:50:00 2.9 C 5.55 g/m*3 2.9 C 0 km/h
3062 08-01-2015 02:55:00 3.2 C 5.66 g/m*3 1.51 C 6.4 km/h
3063 08-01-2015 03:00:00 3.4 C 5.74 g/m*3 0.82 C 9.7 km/h
3064 08-01-2015 03:05:00 3.8 C 5.9 g/m*3 0.35 C 14.5 km/h
3065 08-01-2015 03:10:00 4 C 5.98 g/m*3 2.44 C 6.4 km/h
3066 08-01-2015 03:15:00 4.2 C 5.99 g/m*3 1.43 C 11.3 km/h
3067 08-01-2015 03:20:00 4.2 C 5.93 g/m*3 2.17 C 8.1 km/h
3068 08-01-2015 03:25:00 4.3 C 5.97 g/m*3 1.24 C 12.9 km/h
3069 08-01-2015 03:30:00 4.4 C 6.01 g/m*3 2.01 C 9.7 km/h
3070 08-01-2015 03:35:00 4.5 C 6.05 g/m*3 1.48 C 12.9 km/h
3071 08-01-2015 03:40:00 4.6 C 6.02 g/m*3 3.13 C 6.4 km/h
3072 08-01-2015 03:45:00 4.7 C 6.06 g/m*3 2.37 C 9.7 km/h
3073 08-01-2015 03:50:00 4.7 C 6.06 g/m*3 4.7 C 4.8 km/h
3074 08-01-2015 03:55:00 4.6 C 6.02 g/m*3 3.13 C 6.4 km/h
3075 08-01-2015 04:00:00 4.6 C 6.09 g/m*3 4.6 C 4.8 km/h
Sensor: Nr:Datum:Temp:Abs-Feuchte:Windchill:Wind:
Aussen-T/F 3076 08-01-2015 04:05:00 4.5 C 6.05 g/m*3 4.5 C 4.8 km/h
3077 08-01-2015 04:10:00 4.4 C 6.07 g/m*3 4.4 C 4.8 km/h
3078 08-01-2015 04:15:00 4.4 C 6.14 g/m*3 4.4 C 4.8 km/h
3079 08-01-2015 04:20:00 4.5 C 6.18 g/m*3 4.5 C 4.8 km/h
3080 08-01-2015 04:25:00 4.5 C 6.18 g/m*3 4.5 C 0 km/h
3081 08-01-2015 04:30:00 4.4 C 6.14 g/m*3 4.4 C 4.8 km/h
3082 08-01-2015 04:35:00 4.3 C 6.16 g/m*3 4.3 C 0 km/h
3083 08-01-2015 04:40:00 4.2 C 6.12 g/m*3 4.2 C 4.8 km/h
3084 08-01-2015 04:45:00 4.2 C 6.12 g/m*3 4.2 C 3.2 km/h
3085 08-01-2015 04:50:00 4.2 C 6.19 g/m*3 4.2 C 3.2 km/h
3086 08-01-2015 04:55:00 4.2 C 6.19 g/m*3 4.2 C 3.2 km/h
3087 08-01-2015 05:00:00 4.2 C 6.19 g/m*3 4.2 C 1.6 km/h
3088 08-01-2015 05:05:00 4.3 C 6.23 g/m*3 4.3 C 1.6 km/h
3089 08-01-2015 05:10:00 4.3 C 6.23 g/m*3 4.3 C 0 km/h
3090 08-01-2015 05:15:00 4.2 C 6.19 g/m*3 4.2 C 0 km/h
3091 08-01-2015 05:20:00 4.2 C 6.19 g/m*3 4.2 C 1.6 km/h
3092 08-01-2015 05:25:00 4.3 C 6.23 g/m*3 4.3 C 3.2 km/h
3093 08-01-2015 05:30:00 4.3 C 6.23 g/m*3 4.3 C 1.6 km/h
3094 08-01-2015 05:35:00 4.3 C 6.23 g/m*3 4.3 C 1.6 km/h
3095 08-01-2015 05:40:00 4.3 C 6.29 g/m*3 4.3 C 3.2 km/h
3096 08-01-2015 05:45:00 4.3 C 6.23 g/m*3 4.3 C 4.8 km/h
3097 08-01-2015 05:50:00 4.3 C 6.23 g/m*3 4.3 C 1.6 km/h
3098 08-01-2015 05:55:00 4.3 C 6.23 g/m*3 4.3 C 0 km/h
3099 08-01-2015 06:00:00 4.3 C 6.23 g/m*3 4.3 C 3.2 km/h
3100 08-01-2015 06:05:00 4.3 C 6.29 g/m*3 4.3 C 1.6 km/h
Sensor: Nr:Datum:Temp:Abs-Feuchte:Windchill:Wind:
Aussen-T/F 3101 08-01-2015 06:10:00 4.3 C 6.29 g/m*3 4.3 C 0 km/h
3102 08-01-2015 06:15:00 4.2 C 6.25 g/m*3 4.2 C 1.6 km/h
3103 08-01-2015 06:20:00 4.3 C 6.29 g/m*3 4.3 C 1.6 km/h
3104 08-01-2015 06:25:00 4.3 C 6.29 g/m*3 4.3 C 0 km/h
3105 08-01-2015 06:30:00 4.3 C 6.29 g/m*3 4.3 C 3.2 km/h
3106 08-01-2015 06:35:00 4.3 C 6.29 g/m*3 4.3 C 1.6 km/h
3107 08-01-2015 06:40:00 4.2 C 6.25 g/m*3 4.2 C 1.6 km/h
3108 08-01-2015 06:45:00 4.3 C 6.29 g/m*3 4.3 C 0 km/h
3109 08-01-2015 06:50:00 4.3 C 6.29 g/m*3 4.3 C 0 km/h
3110 08-01-2015 06:55:00 4.3 C 6.29 g/m*3 4.3 C 0 km/h
3111 08-01-2015 07:00:00 4.3 C 6.29 g/m*3 4.3 C 1.6 km/h
3112 08-01-2015 07:05:00 4.4 C 6.33 g/m*3 4.4 C 1.6 km/h
3113 08-01-2015 07:10:00 4.4 C 6.33 g/m*3 4.4 C 4.8 km/h
3114 08-01-2015 07:15:00 4.5 C 6.38 g/m*3 4.5 C 3.2 km/h
3115 08-01-2015 07:20:00 4.7 C 6.53 g/m*3 2.03 C 11.3 km/h
3116 08-01-2015 07:25:00 4.9 C 6.62 g/m*3 2.99 C 8.1 km/h
3117 08-01-2015 07:30:00 5.1 C 6.7 g/m*3 5.1 C 3.2 km/h
3118 08-01-2015 07:35:00 5.2 C 6.68 g/m*3 3.34 C 8.1 km/h
3119 08-01-2015 07:40:00 5.3 C 6.72 g/m*3 2.46 C 12.9 km/h
3120 08-01-2015 07:45:00 5.4 C 6.77 g/m*3 2.08 C 16.1 km/h
3121 08-01-2015 07:50:00 5.6 C 6.86 g/m*3 2.33 C 16.1 km/h
3122 08-01-2015 07:55:00 5.6 C 6.79 g/m*3 2.11 C 17.7 km/h
3123 08-01-2015 08:00:00 5.7 C 6.83 g/m*3 3.93 C 8.1 km/h
3124 08-01-2015 08:05:00 5.6 C 6.79 g/m*3 5.6 C 4.8 km/h
3125 08-01-2015 08:10:00 5.6 C 6.79 g/m*3 3.81 C 8.1 km/h
Sensor: Nr:Datum:Temp:Abs-Feuchte:Windchill:Wind:
Aussen-T/F 3126 08-01-2015 08:15:00 5.7 C 6.83 g/m*3 3.56 C 9.7 km/h
3127 08-01-2015 08:20:00 5.7 C 6.83 g/m*3 3.93 C 8.1 km/h
3128 08-01-2015 08:25:00 5.7 C 6.83 g/m*3 4.4 C 6.4 km/h
3129 08-01-2015 08:30:00 5.7 C 6.83 g/m*3 5.7 C 4.8 km/h
3130 08-01-2015 08:35:00 5.6 C 6.79 g/m*3 5.6 C 1.6 km/h
3131 08-01-2015 08:40:00 5.6 C 6.79 g/m*3 5.6 C 1.6 km/h
3132 08-01-2015 08:45:00 5.6 C 6.79 g/m*3 5.6 C 0 km/h
3133 08-01-2015 08:50:00 5.6 C 6.79 g/m*3 5.6 C 4.8 km/h
3134 08-01-2015 08:55:00 5.5 C 6.74 g/m*3 5.5 C 3.2 km/h
3135 08-01-2015 09:00:00 5.4 C 6.77 g/m*3 5.4 C 3.2 km/h
3136 08-01-2015 09:05:00 5.4 C 6.77 g/m*3 5.4 C 3.2 km/h
3137 08-01-2015 09:10:00 5.5 C 6.81 g/m*3 5.5 C 0 km/h
3138 08-01-2015 09:15:00 5.5 C 6.81 g/m*3 5.5 C 1.6 km/h
3139 08-01-2015 09:20:00 5.5 C 6.81 g/m*3 5.5 C 0 km/h
3140 08-01-2015 09:25:00 5.5 C 6.81 g/m*3 5.5 C 0 km/h
3141 08-01-2015 09:30:00 5.6 C 6.86 g/m*3 5.6 C 0 km/h
3142 08-01-2015 09:35:00 5.6 C 6.86 g/m*3 5.6 C 3.2 km/h
3143 08-01-2015 09:40:00 5.6 C 6.86 g/m*3 5.6 C 1.6 km/h
3144 08-01-2015 09:45:00 5.7 C 6.97 g/m*3 5.7 C 1.6 km/h
3145 08-01-2015 09:50:00 5.8 C 7.02 g/m*3 5.8 C 3.2 km/h
3146 08-01-2015 09:55:00 5.9 C 7.07 g/m*3 5.9 C 1.6 km/h
3147 08-01-2015 10:00:00 6 C 7.11 g/m*3 6 C 3.2 km/h
3148 08-01-2015 10:05:00 6.1 C 7.16 g/m*3 6.1 C 3.2 km/h
3149 08-01-2015 10:10:00 6.1 C 7.16 g/m*3 6.1 C 4.8 km/h
3150 08-01-2015 10:15:00 6.2 C 7.21 g/m*3 6.2 C 1.6 km/h
Sensor: Nr:Datum:Temp:Abs-Feuchte:Windchill:Wind:
Aussen-T/F 3151 08-01-2015 10:20:00 6.3 C 7.25 g/m*3 6.3 C 0 km/h
3152 08-01-2015 10:25:00 6.4 C 7.3 g/m*3 6.4 C 3.2 km/h
3153 08-01-2015 10:30:00 6.4 C 7.3 g/m*3 6.4 C 0 km/h
3154 08-01-2015 10:35:00 6.6 C 7.4 g/m*3 6.6 C 4.8 km/h
3155 08-01-2015 10:40:00 6.7 C 7.45 g/m*3 5.56 C 6.4 km/h
3156 08-01-2015 10:45:00 6.8 C 7.5 g/m*3 6.8 C 1.6 km/h
3157 08-01-2015 10:50:00 6.8 C 7.42 g/m*3 5.67 C 6.4 km/h
3158 08-01-2015 10:55:00 6.9 C 7.47 g/m*3 4.68 C 11.3 km/h
3159 08-01-2015 11:00:00 7.1 C 7.57 g/m*3 7.1 C 3.2 km/h
3160 08-01-2015 11:05:00 7.1 C 7.57 g/m*3 7.1 C 4.8 km/h
3161 08-01-2015 11:10:00 7.2 C 7.61 g/m*3 7.2 C 4.8 km/h
3162 08-01-2015 11:15:00 7.2 C 7.61 g/m*3 7.2 C 4.8 km/h
3163 08-01-2015 11:20:00 7.3 C 7.58 g/m*3 5.47 C 9.7 km/h
3164 08-01-2015 11:25:00 7.4 C 7.63 g/m*3 5.93 C 8.1 km/h
3165 08-01-2015 11:30:00 7.6 C 7.65 g/m*3 5.82 C 9.7 km/h
3166 08-01-2015 11:35:00 7.7 C 7.7 g/m*3 6.28 C 8.1 km/h
3167 08-01-2015 11:40:00 7.7 C 7.7 g/m*3 6.71 C 6.4 km/h
3168 08-01-2015 11:45:00 7.8 C 7.75 g/m*3 6.06 C 9.7 km/h
3169 08-01-2015 11:50:00 7.9 C 7.8 g/m*3 6.18 C 9.7 km/h
3170 08-01-2015 11:55:00 8 C 7.85 g/m*3 6.3 C 9.7 km/h
3171 08-01-2015 12:00:00 8.1 C 7.82 g/m*3 8.1 C 3.2 km/h
3172 08-01-2015 12:05:00 8.1 C 7.82 g/m*3 8.1 C 3.2 km/h
3173 08-01-2015 12:10:00 8.1 C 7.82 g/m*3 6.75 C 8.1 km/h
3174 08-01-2015 12:15:00 8.1 C 7.82 g/m*3 6.75 C 8.1 km/h
3175 08-01-2015 12:20:00 8.2 C 7.87 g/m*3 6.87 C 8.1 km/h
Sensor: Nr:Datum:Temp:Abs-Feuchte:Windchill:Wind:
Aussen-T/F 3176 08-01-2015 12:25:00 8.2 C 7.87 g/m*3 6.87 C 8.1 km/h
3177 08-01-2015 12:30:00 8.3 C 7.92 g/m*3 7.41 C 6.4 km/h
3178 08-01-2015 12:35:00 8.4 C 7.89 g/m*3 6.49 C 11.3 km/h
3179 08-01-2015 12:40:00 8.6 C 7.99 g/m*3 6.48 C 12.9 km/h
3180 08-01-2015 12:45:00 8.7 C 7.96 g/m*3 7.46 C 8.1 km/h
3181 08-01-2015 12:50:00 8.8 C 8.01 g/m*3 7.58 C 8.1 km/h
3182 08-01-2015 12:55:00 8.9 C 8.06 g/m*3 6.85 C 12.9 km/h
3183 08-01-2015 13:00:00 8.9 C 8.06 g/m*3 6.42 C 16.1 km/h
3184 08-01-2015 13:05:00 8.9 C 8.06 g/m*3 6.42 C 16.1 km/h
3185 08-01-2015 13:10:00 8.9 C 8.06 g/m*3 6.23 C 17.7 km/h
3186 08-01-2015 13:15:00 8.9 C 8.06 g/m*3 5.6 C 24.1 km/h
3187 08-01-2015 13:20:00 9 C 8.11 g/m*3 5.6 C 25.7 km/h
3188 08-01-2015 13:25:00 9 C 8.11 g/m*3 5.73 C 24.1 km/h
3189 08-01-2015 13:30:00 9.1 C 8.16 g/m*3 6.15 C 20.9 km/h
3190 08-01-2015 13:35:00 9.1 C 8.16 g/m*3 5.73 C 25.7 km/h
3191 08-01-2015 13:40:00 9.2 C 8.13 g/m*3 6.13 C 22.5 km/h
3192 08-01-2015 13:45:00 9.2 C 8.13 g/m*3 5.86 C 25.7 km/h
3193 08-01-2015 13:50:00 9.3 C 8.18 g/m*3 6.12 C 24.1 km/h
3194 08-01-2015 13:55:00 9.3 C 8.18 g/m*3 5.98 C 25.7 km/h
3195 08-01-2015 14:00:00 9.2 C 8.22 g/m*3 7.21 C 12.9 km/h
3196 08-01-2015 14:05:00 9.2 C 8.22 g/m*3 6.61 C 17.7 km/h
3197 08-01-2015 14:10:00 9.2 C 8.13 g/m*3 5.86 C 25.7 km/h
3198 08-01-2015 14:15:00 9.3 C 8.18 g/m*3 6.73 C 17.7 km/h
3199 08-01-2015 14:20:00 9.3 C 8.18 g/m*3 6.92 C 16.1 km/h
3200 08-01-2015 14:25:00 9.4 C 8.23 g/m*3 7.04 C 16.1 km/h
Sensor: Nr:Datum:Temp:Abs-Feuchte:Windchill:Wind:
Aussen-T/F 3201 08-01-2015 14:30:00 9.4 C 8.23 g/m*3 6.11 C 25.7 km/h
3202 08-01-2015 14:35:00 9.5 C 8.28 g/m*3 6.82 C 19.3 km/h
3203 08-01-2015 14:40:00 9.6 C 8.34 g/m*3 6.94 C 19.3 km/h
3204 08-01-2015 14:45:00 9.6 C 8.24 g/m*3 6.79 C 20.9 km/h
3205 08-01-2015 14:50:00 9.6 C 8.24 g/m*3 7.48 C 14.5 km/h
3206 08-01-2015 14:55:00 9.7 C 8.3 g/m*3 7.23 C 17.7 km/h
3207 08-01-2015 15:00:00 9.7 C 8.3 g/m*3 7.41 C 16.1 km/h
3208 08-01-2015 15:05:00 9.8 C 8.35 g/m*3 7.19 C 19.3 km/h
3209 08-01-2015 15:10:00 9.8 C 8.35 g/m*3 7.36 C 17.7 km/h
3210 08-01-2015 15:15:00 9.7 C 8.39 g/m*3 9.02 C 6.4 km/h
3211 08-01-2015 15:20:00 9.6 C 8.34 g/m*3 7.7 C 12.9 km/h
3212 08-01-2015 15:25:00 9.5 C 8.37 g/m*3 8.4 C 8.1 km/h
3213 08-01-2015 15:30:00 9.5 C 8.37 g/m*3 8.09 C 9.7 km/h
3214 08-01-2015 15:35:00 9.6 C 8.34 g/m*3 7.29 C 16.1 km/h
3215 08-01-2015 15:40:00 9.7 C 8.39 g/m*3 8.33 C 9.7 km/h
3216 08-01-2015 15:45:00 9.7 C 8.39 g/m*3 6.5 C 25.7 km/h
3217 08-01-2015 15:50:00 9.8 C 8.35 g/m*3 6.89 C 22.5 km/h
3218 08-01-2015 15:55:00 9.8 C 8.35 g/m*3 7.54 C 16.1 km/h
3219 08-01-2015 16:00:00 9.8 C 8.35 g/m*3 7.73 C 14.5 km/h
3220 08-01-2015 16:05:00 9.8 C 8.26 g/m*3 6.17 C 32.2 km/h